Latest Flight | Flight Log | Data Trends | Login | Join FlightData.com!
Date Range From To
Export: Google Earth
Flight Log - N677AM - Click on row to view flight. Click on header to sort.
Date Origin Dest Depart Arrive Hobbs Flight Time Flight Distance Fuel Fuel/hr Fuel/nm Altitude Gnd Speed
Sun, Jan 31, 2021     14:21 14:35 0.23 hrs 0.00 hrs 0.00 nm 0.00 gal 0.00 gal/hr 0.00 gal/nm 0 msl 0 kts
Sun, Jan 31, 2021     14:05 14:20 0.24 hrs 0.00 hrs 0.00 nm 0.00 gal 0.00 gal/hr 0.00 gal/nm 0 msl 0 kts
Sat, Jan 30, 2021     18:07 18:07 0 hrs 0.00 hrs 0.00 nm 0.00 gal 0.00 gal/hr 0.00 gal/nm 0 msl 0 kts
Sat, Jan 30, 2021 KFCI KFCI 16:55 18:06 1.16 hrs 0.55 hrs 52.11 nm 5.96 gal 5.15 gal/hr 0.11 gal/nm 3897 msl 92 kts
Sat, Jan 30, 2021     16:32 16:32 0 hrs 0.00 hrs 0.00 nm 0.00 gal 0.00 gal/hr 0.00 gal/nm 0 msl 0 kts
Sat, Jan 30, 2021     16:25 16:26 0.01 hrs 0.00 hrs 0.00 nm 0.00 gal 0.00 gal/hr 0.00 gal/nm 0 msl 0 kts
Sat, Jan 30, 2021     14:16 14:16 0 hrs 0.00 hrs 0.00 nm 0.00 gal 0.00 gal/hr 0.00 gal/nm 0 msl 0 kts
Wed, Jan 27, 2021     12:40 12:40 0.01 hrs 0.00 hrs 0.00 nm 0.00 gal 0.00 gal/hr 0.00 gal/nm 0 msl 0 kts
Fri, Jan 22, 2021 KFCI KFCI 10:15 11:30 1.21 hrs 0.76 hrs 81.82 nm 8.08 gal 6.68 gal/hr 0.10 gal/nm 2736 msl 104 kts
Fri, Jan 22, 2021     09:35 09:39 0.06 hrs 0.00 hrs 0.00 nm 0.00 gal 0.00 gal/hr 0.00 gal/nm 0 msl 0 kts
Thu, Jan 21, 2021 KFCI KFCI 16:27 18:14 1.72 hrs 1.25 hrs 150.58 nm 11.70 gal 6.79 gal/hr 0.08 gal/nm 3237 msl 116 kts
Thu, Jan 21, 2021     15:51 15:52 0.02 hrs 0.00 hrs 0.00 nm 0.00 gal 0.00 gal/hr 0.00 gal/nm 0 msl 0 kts
Wed, Jan 20, 2021     12:57 13:02 0.08 hrs 0.00 hrs 0.00 nm 0.00 gal 0.01 gal/hr 0.00 gal/nm 0 msl 0 kts
Wed, Jan 20, 2021 KFCI KFCI 10:44 12:32 1.76 hrs 1.17 hrs 123.42 nm 11.01 gal 6.27 gal/hr 0.09 gal/nm 3245 msl 102 kts
Wed, Jan 20, 2021     10:29 10:29 0 hrs 0.00 hrs 0.00 nm 0.00 gal 0.00 gal/hr 0.00 gal/nm 0 msl 0 kts
Wed, Jan 20, 2021     10:02 10:20 0.3 hrs 0.00 hrs 0.00 nm 0.01 gal 0.03 gal/hr 0.00 gal/nm 0 msl 0 kts
Tue, Jan 19, 2021     15:36 15:36 0.01 hrs 0.00 hrs 0.00 nm 0.00 gal 0.00 gal/hr 0.00 gal/nm 0 msl 0 kts
Mon, Jan 18, 2021 KFCI KFCI 09:47 12:15 2.41 hrs 1.68 hrs 195.52 nm 16.20 gal 6.72 gal/hr 0.08 gal/nm 5043 msl 114 kts
Mon, Jan 18, 2021     08:53 08:55 0.02 hrs 0.00 hrs 0.00 nm 0.00 gal 0.00 gal/hr 0.00 gal/nm 0 msl 0 kts
Sun, Jan 17, 2021 KFCI KFCI 08:21 09:53 1.48 hrs 0.95 hrs 88.14 nm 8.46 gal 5.71 gal/hr 0.10 gal/nm 3456 msl 89 kts
Sun, Jan 17, 2021     07:37 07:38 0.02 hrs 0.00 hrs 0.00 nm 0.00 gal 0.00 gal/hr 0.00 gal/nm 0 msl 0 kts
Sat, Jan 16, 2021     10:28 10:28 0.01 hrs 0.00 hrs 0.00 nm 0.01 gal 0.82 gal/hr 0.00 gal/nm 0 msl 0 kts
Sat, Jan 16, 2021     10:11 10:12 0.01 hrs 0.00 hrs 0.00 nm 0.01 gal 1.29 gal/hr 0.00 gal/nm 0 msl 0 kts
Sat, Jan 16, 2021 KFCI LEMF 09:22 10:11 0.8 hrs 0.17 hrs 13.61 nm 2.65 gal 3.31 gal/hr 0.19 gal/nm 1310 msl 80 kts
Sat, Jan 16, 2021     08:45 08:47 0.03 hrs 0.00 hrs 0.00 nm 0.00 gal 0.00 gal/hr 0.00 gal/nm 0 msl 0 kts
Thu, Jan 14, 2021     16:20 16:48 0.47 hrs 0.00 hrs 0.00 nm 0.01 gal 0.02 gal/hr 0.00 gal/nm 0 msl 0 kts
Tue, Jan 12, 2021     10:48 10:49 0.01 hrs 0.00 hrs 0.00 nm 0.01 gal 0.82 gal/hr 0.00 gal/nm 0 msl 0 kts
Tue, Jan 12, 2021 KFCI KFCI 08:16 10:48 2.46 hrs 1.42 hrs 164.12 nm 15.34 gal 6.25 gal/hr 0.09 gal/nm 5015 msl 113 kts
Tue, Jan 12, 2021     07:42 07:42 0.01 hrs 0.00 hrs 0.00 nm 0.00 gal 0.00 gal/hr 0.00 gal/nm 0 msl 0 kts
Sun, Jan 10, 2021 KSFQ KFCI 16:24 17:19 0.88 hrs 0.60 hrs 66.23 nm 6.52 gal 7.37 gal/hr 0.10 gal/nm 4855 msl 108 kts
Sun, Jan 10, 2021 KFCI KSFQ 14:31 15:40 1.11 hrs 0.67 hrs 87.43 nm 7.03 gal 6.33 gal/hr 0.08 gal/nm 5522 msl 127 kts
Sun, Jan 10, 2021     14:04 14:05 0.02 hrs 0.00 hrs 0.00 nm 0.01 gal 0.60 gal/hr 0.00 gal/nm 0 msl 0 kts
Sun, Jan 10, 2021 KFCI KFCI 12:19 12:53 0.55 hrs 0.27 hrs 25.57 nm 2.84 gal 5.15 gal/hr 0.11 gal/nm 1459 msl 92 kts
Sun, Jan 10, 2021     12:06 12:08 0.03 hrs 0.00 hrs 0.00 nm 0.00 gal 0.00 gal/hr 0.00 gal/nm 0 msl 0 kts
Sat, Jan 9, 2021 KFCI KFCI 14:19 16:35 2.19 hrs 1.19 hrs 109.27 nm 11.17 gal 5.09 gal/hr 0.10 gal/nm 2723 msl 89 kts
Sat, Jan 9, 2021     14:02 14:02 0 hrs 0.00 hrs 0.00 nm 0.00 gal 0.00 gal/hr 0.00 gal/nm 0 msl 0 kts
Sat, Jan 9, 2021     13:44 13:45 0.02 hrs 0.00 hrs 0.00 nm 0.01 gal 0.60 gal/hr 0.00 gal/nm 0 msl 0 kts
Fri, Jan 8, 2021 KFCI KFCI 10:25 11:27 1.02 hrs 0.37 hrs 31.23 nm 3.79 gal 3.73 gal/hr 0.12 gal/nm 1344 msl 83 kts
Fri, Jan 8, 2021     09:04 09:04 0.01 hrs 0.00 hrs 0.00 nm 0.00 gal 0.00 gal/hr 0.00 gal/nm 0 msl 0 kts
Thu, Jan 7, 2021     11:58 11:59 0 hrs 0.00 hrs 0.00 nm 0.01 gal 2.77 gal/hr 0.00 gal/nm 0 msl 0 kts
Thu, Jan 7, 2021 KFCI KFCI 10:47 11:52 1.04 hrs 0.72 hrs 78.82 nm 5.68 gal 5.45 gal/hr 0.07 gal/nm 3311 msl 106 kts
Thu, Jan 7, 2021     10:19 10:20 0.02 hrs 0.00 hrs 0.00 nm 0.00 gal 0.00 gal/hr 0.00 gal/nm 0 msl 0 kts
Sat, Jan 2, 2021 KFCI KFCI 14:38 15:57 1.28 hrs 0.94 hrs 107.02 nm 8.60 gal 6.73 gal/hr 0.08 gal/nm 3288 msl 111 kts
Sat, Jan 2, 2021     14:26 14:26 0 hrs 0.00 hrs 0.00 nm 0.00 gal 0.00 gal/hr 0.00 gal/nm 0 msl 0 kts
Sat, Jan 2, 2021     14:10 14:10 0.01 hrs 0.00 hrs 0.00 nm 0.02 gal 2.48 gal/hr 0.00 gal/nm 0 msl 0 kts
Sat, Jan 2, 2021 KFCI KFCI 11:39 13:32 1.82 hrs 1.40 hrs 166.78 nm 15.69 gal 8.63 gal/hr 0.09 gal/nm 7515 msl 116 kts
Sat, Jan 2, 2021     10:55 10:55 0.01 hrs 0.00 hrs 0.00 nm 0.00 gal 0.00 gal/hr 0.00 gal/nm 0 msl 0 kts
Sat, Jan 2, 2021     10:52 10:53 0.01 hrs 0.00 hrs 0.00 nm 0.00 gal 0.00 gal/hr 0.00 gal/nm 0 msl 0 kts
Sat, Jan 2, 2021     09:14 09:15 0.01 hrs 0.00 hrs 0.00 nm 0.00 gal 0.00 gal/hr 0.00 gal/nm 0 msl 0 kts
Fri, Jan 1, 2021     16:27 16:27 0 hrs 0.00 hrs 0.00 nm 0.00 gal 0.00 gal/hr 0.00 gal/nm 0 msl 0 kts
Wed, Dec 30, 2020     17:40 17:40 0 hrs 0.00 hrs 0.00 nm 0.01 gal 2.57 gal/hr 0.00 gal/nm 0 msl 0 kts
Wed, Dec 30, 2020     17:37 17:37 0 hrs 0.00 hrs 0.00 nm 0.01 gal 2.57 gal/hr 0.00 gal/nm 0 msl 0 kts
Wed, Dec 30, 2020 KFCI KFCI 16:43 17:21 0.6 hrs 0.23 hrs 20.08 nm 2.92 gal 4.86 gal/hr 0.15 gal/nm 1424 msl 83 kts
Wed, Dec 30, 2020     16:00 16:01 0.01 hrs 0.00 hrs 0.00 nm 0.00 gal 0.00 gal/hr 0.00 gal/nm 0 msl 0 kts
Wed, Dec 30, 2020     15:52 15:53 0.01 hrs 0.00 hrs 0.00 nm 0.00 gal 0.00 gal/hr 0.00 gal/nm 0 msl 0 kts
Tue, Dec 29, 2020 KFCI KFCI 11:44 12:57 1.18 hrs 0.49 hrs 48.20 nm 5.22 gal 4.44 gal/hr 0.11 gal/nm 3529 msl 95 kts
Tue, Dec 29, 2020     11:19 11:20 0.02 hrs 0.00 hrs 0.00 nm 0.00 gal 0.00 gal/hr 0.00 gal/nm 0 msl 0 kts
Sun, Dec 27, 2020 W97 KFCI 14:48 15:56 1.09 hrs 0.77 hrs 83.63 nm 7.49 gal 6.88 gal/hr 0.09 gal/nm 3148 msl 105 kts
Sun, Dec 27, 2020 KFCI W97 13:51 14:35 0.72 hrs 0.39 hrs 44.34 nm 3.85 gal 5.37 gal/hr 0.09 gal/nm 3663 msl 109 kts
Sun, Dec 27, 2020     13:20 13:22 0.02 hrs 0.00 hrs 0.00 nm 0.00 gal 0.00 gal/hr 0.00 gal/nm 0 msl 0 kts
Sun, Dec 27, 2020     10:10 10:11 0 hrs 0.00 hrs 0.00 nm 0.00 gal 0.00 gal/hr 0.00 gal/nm 0 msl 0 kts
Sun, Dec 27, 2020 KFCI KFCI 09:14 10:04 0.81 hrs 0.55 hrs 62.75 nm 5.51 gal 6.78 gal/hr 0.09 gal/nm 4112 msl 110 kts
Sun, Dec 27, 2020     08:57 08:57 0 hrs 0.00 hrs 0.00 nm 0.00 gal 0.00 gal/hr 0.00 gal/nm 0 msl 0 kts
Sat, Dec 26, 2020 KFCI KFCI 14:07 15:39 2.29 hrs 1.85 hrs 153.88 nm 9.57 gal 4.19 gal/hr 0.06 gal/nm 1608 msl 81 kts
Sat, Dec 26, 2020     13:44 13:45 0.02 hrs 0.00 hrs 0.00 nm 0.01 gal 0.60 gal/hr 0.00 gal/nm 0 msl 0 kts
Wed, Dec 23, 2020 KFCI KFCI 13:38 14:50 1.17 hrs 0.62 hrs 60.19 nm 6.33 gal 5.39 gal/hr 0.11 gal/nm 4536 msl 94 kts
Wed, Dec 23, 2020     13:20 13:21 0.02 hrs 0.00 hrs 0.00 nm 0.01 gal 0.48 gal/hr 0.00 gal/nm 0 msl 0 kts
Wed, Dec 23, 2020 KFCI KFCI 09:15 09:47 0.52 hrs 0.23 hrs 18.80 nm 2.43 gal 4.67 gal/hr 0.13 gal/nm 1326 msl 81 kts
Wed, Dec 23, 2020     08:54 08:55 0.02 hrs 0.00 hrs 0.00 nm 0.00 gal 0.00 gal/hr 0.00 gal/nm 0 msl 0 kts
Sat, Dec 19, 2020 KFCI KFCI 15:17 16:21 1.05 hrs 0.55 hrs 53.23 nm 5.90 gal 5.63 gal/hr 0.11 gal/nm 2679 msl 94 kts
Sat, Dec 19, 2020     14:46 14:46 0.01 hrs 0.00 hrs 0.00 nm 0.04 gal 3.20 gal/hr 0.00 gal/nm 0 msl 0 kts
Fri, Dec 18, 2020 KFCI KFCI 18:28 18:29 0.03 hrs 0.00 hrs 0.00 nm 0.09 gal 2.99 gal/hr 0.00 gal/nm 0 msl 0 kts
Fri, Dec 18, 2020     17:32 17:34 0.04 hrs 0.00 hrs 0.00 nm 0.02 gal 0.53 gal/hr 0.00 gal/nm 0 msl 0 kts
Fri, Dec 18, 2020 KFCI KFCI 15:44 15:46 0.03 hrs 0.00 hrs 0.00 nm 0.03 gal 1.09 gal/hr 0.00 gal/nm 0 msl 0 kts
Fri, Dec 18, 2020     15:38 15:39 0.01 hrs 0.00 hrs 0.00 nm 0.01 gal 1.13 gal/hr 0.00 gal/nm 0 msl 0 kts
Fri, Dec 18, 2020 KFCI KFCI 15:36 15:37 0.02 hrs 0.00 hrs 0.00 nm 0.02 gal 1.06 gal/hr 0.00 gal/nm 0 msl 0 kts
Fri, Dec 18, 2020     15:34 15:34 0 hrs 0.00 hrs 0.00 nm 0.00 gal 0.24 gal/hr 0.00 gal/nm 0 msl 0 kts
Fri, Dec 18, 2020 KFCI KFCI 10:44 10:50 0.1 hrs 0.00 hrs 0.00 nm 0.03 gal 0.27 gal/hr 0.00 gal/nm 0 msl 0 kts
Fri, Dec 18, 2020 KFCI KFCI 10:39 10:41 0.04 hrs 0.00 hrs 0.00 nm 0.03 gal 0.73 gal/hr 0.00 gal/nm 0 msl 0 kts
Fri, Dec 18, 2020     09:40 09:41 0.02 hrs 0.00 hrs 0.00 nm 0.02 gal 0.96 gal/hr 0.00 gal/nm 0 msl 0 kts
Thu, Dec 17, 2020     16:39 16:39 0 hrs 0.00 hrs 0.00 nm 0.00 gal 0.00 gal/hr 0.00 gal/nm 0 msl 0 kts
Thu, Dec 17, 2020 KFCI KFCI 11:02 11:33 0.52 hrs 0.00 hrs 0.00 nm 2.12 gal 4.06 gal/hr 0.00 gal/nm 0 msl 0 kts
Wed, Dec 16, 2020 KFCI KFCI 16:57 17:27 0.49 hrs 0.00 hrs 0.00 nm 1.82 gal 3.71 gal/hr 0.00 gal/nm 0 msl 0 kts
Wed, Dec 16, 2020     16:39 16:39 0 hrs 0.00 hrs 0.00 nm 0.00 gal 0.00 gal/hr 0.00 gal/nm 0 msl 0 kts
Wed, Dec 16, 2020     10:06 10:06 0 hrs 0.00 hrs 0.00 nm 0.00 gal 0.00 gal/hr 0.00 gal/nm 0 msl 0 kts
Tue, Dec 15, 2020     16:23 16:24 0.01 hrs 0.00 hrs 0.00 nm 0.03 gal 3.15 gal/hr 0.00 gal/nm 0 msl 0 kts
Tue, Dec 15, 2020     15:31 15:31 0 hrs 0.00 hrs 0.00 nm 0.00 gal 0.00 gal/hr 0.00 gal/nm 0 msl 0 kts
Tue, Dec 15, 2020     14:02 14:27 0.41 hrs 0.01 hrs 0.00 nm 0.01 gal 0.02 gal/hr 0.00 gal/nm 7986 msl 0 kts
Tue, Dec 15, 2020     12:25 14:00 1.56 hrs 1.55 hrs 0.00 nm 0.01 gal 0.01 gal/hr 0.00 gal/nm 19976 msl 0 kts
Tue, Dec 15, 2020     12:01 12:15 0.22 hrs 0.06 hrs 0.00 nm 0.01 gal 0.05 gal/hr 0.00 gal/nm 324 msl 0 kts
Tue, Dec 15, 2020     11:08 11:48 0.65 hrs 0.03 hrs 0.00 nm 0.01 gal 0.02 gal/hr 0.00 gal/nm -117 msl 0 kts
Mon, Dec 14, 2020     10:43 10:43 0 hrs 0.00 hrs 0.00 nm 0.00 gal 0.00 gal/hr 0.00 gal/nm 0 msl 0 kts
Fri, Dec 11, 2020 KFCI KFCI 12:11 12:52 0.68 hrs 0.08 hrs 6.12 nm 2.30 gal 3.40 gal/hr 0.38 gal/nm 1287 msl 76 kts
Fri, Dec 11, 2020     11:06 11:09 0.06 hrs 0.00 hrs 0.00 nm 0.00 gal 0.01 gal/hr 0.00 gal/nm 0 msl 0 kts
Wed, Dec 9, 2020     11:36 11:36 0 hrs 0.00 hrs 0.00 nm 0.00 gal 0.00 gal/hr 0.00 gal/nm 0 msl 0 kts
Tue, Dec 8, 2020 KFCI KFCI 17:06 17:15 0.15 hrs 0.00 hrs 0.00 nm 0.58 gal 3.77 gal/hr 0.00 gal/nm 0 msl 0 kts
Tue, Dec 8, 2020 KFCI KFCI 11:49 12:03 0.22 hrs 0.00 hrs 0.00 nm 0.76 gal 3.50 gal/hr 0.00 gal/nm 0 msl 0 kts
Tue, Dec 8, 2020 KFCI KFCI 10:39 10:41 0.03 hrs 0.00 hrs 0.00 nm 0.02 gal 0.68 gal/hr 0.00 gal/nm 0 msl 0 kts
Tue, Dec 8, 2020     09:58 09:58 0 hrs 0.00 hrs 0.00 nm 0.01 gal 1.44 gal/hr 0.00 gal/nm 0 msl 0 kts
Tue, Dec 8, 2020     09:54 09:55 0.02 hrs 0.00 hrs 0.00 nm 0.04 gal 2.33 gal/hr 0.00 gal/nm 0 msl 0 kts
Mon, Dec 7, 2020 KFCI KFCI 16:44 16:57 0.22 hrs 0.00 hrs 0.00 nm 0.89 gal 4.11 gal/hr 0.00 gal/nm 0 msl 0 kts
Mon, Dec 7, 2020     15:19 15:39 0.32 hrs 0.00 hrs 0.00 nm 0.03 gal 0.09 gal/hr 0.00 gal/nm 0 msl 0 kts
Mon, Dec 7, 2020     13:50 13:52 0.03 hrs 0.00 hrs 0.00 nm 0.03 gal 0.89 gal/hr 0.00 gal/nm 0 msl 0 kts
Mon, Dec 7, 2020     13:30 13:41 0.18 hrs 0.00 hrs 0.00 nm 0.00 gal 0.01 gal/hr 0.00 gal/nm 0 msl 0 kts
Mon, Dec 7, 2020     13:15 13:16 0 hrs 0.00 hrs 0.00 nm 0.00 gal 0.00 gal/hr 0.00 gal/nm 0 msl 0 kts
Fri, Dec 4, 2020 KFCI KFCI 16:02 16:25 0.38 hrs 0.00 hrs 0.00 nm 1.48 gal 3.93 gal/hr 0.00 gal/nm 0 msl 0 kts
Fri, Dec 4, 2020     11:06 11:07 0 hrs 0.00 hrs 0.00 nm 0.00 gal 0.00 gal/hr 0.00 gal/nm 0 msl 0 kts
Fri, Dec 4, 2020     11:03 11:04 0.02 hrs 0.00 hrs 0.00 nm 0.01 gal 0.60 gal/hr 0.00 gal/nm 0 msl 0 kts
Fri, Dec 4, 2020     10:38 10:39 0.03 hrs 0.00 hrs 0.00 nm 0.00 gal 0.01 gal/hr 0.00 gal/nm 0 msl 0 kts
Thu, Dec 3, 2020     14:46 14:46 0.01 hrs 0.00 hrs 0.00 nm 0.00 gal 0.00 gal/hr 0.00 gal/nm 0 msl 0 kts
Thu, Dec 3, 2020     14:11 14:15 0.07 hrs 0.00 hrs 0.00 nm 0.01 gal 0.14 gal/hr 0.00 gal/nm 0 msl 0 kts
Thu, Dec 3, 2020 KFCI KFCI 13:48 13:51 0.04 hrs 0.00 hrs 0.00 nm 0.13 gal 3.20 gal/hr 0.00 gal/nm 0 msl 0 kts
Thu, Dec 3, 2020     13:28 13:31 0.05 hrs 0.00 hrs 0.00 nm 0.01 gal 0.22 gal/hr 0.00 gal/nm 0 msl 0 kts
Thu, Dec 3, 2020     13:26 13:27 0.03 hrs 0.00 hrs 0.00 nm 0.00 gal 0.00 gal/hr 0.00 gal/nm 0 msl 0 kts
Thu, Dec 3, 2020     13:00 13:01 0.03 hrs 0.00 hrs 0.00 nm 0.00 gal 0.00 gal/hr 0.00 gal/nm 0 msl 0 kts
Thu, Dec 3, 2020     12:55 12:56 0.01 hrs 0.00 hrs 0.00 nm 0.02 gal 2.57 gal/hr 0.00 gal/nm 0 msl 0 kts
Thu, Dec 3, 2020     12:53 12:54 0.01 hrs 0.00 hrs 0.00 nm 0.00 gal 0.00 gal/hr 0.00 gal/nm 0 msl 0 kts
Thu, Dec 3, 2020     12:44 12:44 0 hrs 0.00 hrs 0.00 nm 0.00 gal 0.00 gal/hr 0.00 gal/nm 0 msl 0 kts
Thu, Dec 3, 2020     12:23 12:24 0.01 hrs 0.00 hrs 0.00 nm 0.02 gal 1.64 gal/hr 0.00 gal/nm 0 msl 0 kts
Thu, Dec 3, 2020     12:20 12:20 0.01 hrs 0.00 hrs 0.00 nm 0.02 gal 1.60 gal/hr 0.00 gal/nm 0 msl 0 kts
Thu, Dec 3, 2020     12:19 12:19 0.01 hrs 0.00 hrs 0.00 nm 0.01 gal 1.24 gal/hr 0.00 gal/nm 0 msl 0 kts
Tue, Dec 1, 2020 KFCI KFCI 15:48 15:58 0.17 hrs 0.00 hrs 0.00 nm 0.58 gal 3.37 gal/hr 0.00 gal/nm 0 msl 0 kts
Mon, Nov 30, 2020     11:42 11:43 0.01 hrs 0.00 hrs 0.00 nm 0.00 gal 0.00 gal/hr 0.00 gal/nm 0 msl 0 kts
Mon, Nov 30, 2020     10:38 11:06 0.46 hrs 0.00 hrs 0.00 nm 0.04 gal 0.09 gal/hr 0.00 gal/nm 0 msl 0 kts
Fri, Nov 27, 2020     13:48 13:50 0.04 hrs 0.00 hrs 0.00 nm 0.00 gal 0.00 gal/hr 0.00 gal/nm 0 msl 0 kts
Fri, Nov 27, 2020     12:52 12:53 0.01 hrs 0.00 hrs 0.00 nm 0.01 gal 0.82 gal/hr 0.00 gal/nm 0 msl 0 kts
Wed, Nov 25, 2020     16:29 16:32 0.05 hrs 0.00 hrs 0.00 nm 0.02 gal 0.43 gal/hr 0.00 gal/nm 0 msl 0 kts
Wed, Nov 25, 2020 KFCI KFCI 14:43 14:44 0.01 hrs 0.00 hrs 0.00 nm 0.03 gal 3.22 gal/hr 0.00 gal/nm 0 msl 0 kts
Wed, Nov 25, 2020 KFCI KFCI 14:40 14:42 0.04 hrs 0.00 hrs 0.00 nm 0.13 gal 3.52 gal/hr 0.00 gal/nm 0 msl 0 kts
Wed, Nov 25, 2020     13:49 13:49 0 hrs 0.00 hrs 0.00 nm 0.00 gal 0.00 gal/hr 0.00 gal/nm 0 msl 0 kts
Wed, Nov 25, 2020     13:47 13:48 0.02 hrs 0.00 hrs 0.00 nm 0.03 gal 1.78 gal/hr 0.00 gal/nm 0 msl 0 kts
Wed, Nov 25, 2020     11:32 11:34 0.02 hrs 0.00 hrs 0.00 nm 0.03 gal 1.31 gal/hr 0.00 gal/nm 0 msl 0 kts
Tue, Nov 24, 2020 KFCI KFCI 15:03 15:06 0.06 hrs 0.00 hrs 0.00 nm 0.01 gal 0.16 gal/hr 0.00 gal/nm 0 msl 0 kts
Tue, Nov 24, 2020     15:01 15:02 0.01 hrs 0.00 hrs 0.00 nm 0.02 gal 1.37 gal/hr 0.00 gal/nm 0 msl 0 kts
Tue, Nov 24, 2020     14:51 14:52 0.01 hrs 0.00 hrs 0.00 nm 0.00 gal 0.08 gal/hr 0.00 gal/nm 0 msl 0 kts
Tue, Nov 24, 2020 KFCI KFCI 14:48 14:49 0.03 hrs 0.00 hrs 0.00 nm 0.05 gal 1.85 gal/hr 0.00 gal/nm 0 msl 0 kts
Tue, Nov 24, 2020 KFCI KFCI 12:42 12:57 0.24 hrs 0.00 hrs 0.00 nm 1.02 gal 4.26 gal/hr 0.00 gal/nm 0 msl 0 kts
Thu, Nov 12, 2020     17:17 17:19 0.04 hrs 0.00 hrs 0.00 nm 0.00 gal 0.02 gal/hr 0.00 gal/nm 0 msl 0 kts
Thu, Nov 12, 2020     17:14 17:15 0.03 hrs 0.00 hrs 0.00 nm 0.00 gal 0.01 gal/hr 0.00 gal/nm 0 msl 0 kts
Thu, Nov 12, 2020     17:13 17:13 0 hrs 0.00 hrs 0.00 nm 0.02 gal 10.29 gal/hr 0.00 gal/nm 0 msl 0 kts
Tue, Oct 27, 2020     15:55 16:01 0.09 hrs 0.00 hrs 0.00 nm 0.03 gal 0.32 gal/hr 0.00 gal/nm 0 msl 0 kts
Fri, Oct 2, 2020     13:00 13:04 0.06 hrs 0.00 hrs 0.00 nm 0.02 gal 0.32 gal/hr 0.00 gal/nm 0 msl 0 kts
Fri, Oct 2, 2020     12:31 12:44 0.21 hrs 0.00 hrs 0.00 nm 0.11 gal 0.52 gal/hr 0.00 gal/nm 0 msl 0 kts
Fri, Oct 2, 2020     12:05 12:06 0.03 hrs 0.00 hrs 0.00 nm 0.02 gal 0.79 gal/hr 0.00 gal/nm 0 msl 0 kts
Fri, Oct 2, 2020     11:55 12:02 0.1 hrs 0.00 hrs 0.00 nm 0.02 gal 0.20 gal/hr 0.00 gal/nm 0 msl 0 kts
Wed, Sep 30, 2020     12:23 12:23 0 hrs 0.00 hrs 0.00 nm 0.00 gal 0.00 gal/hr 0.00 gal/nm 0 msl 0 kts
Sun, Sep 13, 2020     12:17 12:18 0.02 hrs 0.00 hrs 0.00 nm 0.01 gal 0.60 gal/hr 0.00 gal/nm 0 msl 0 kts
Mon, Sep 7, 2020     19:17 19:18 0.02 hrs 0.00 hrs 0.00 nm 0.03 gal 1.78 gal/hr 0.00 gal/nm 0 msl 0 kts
Mon, Sep 7, 2020 KFCI KFCI 18:58 19:10 0.2 hrs 0.00 hrs 0.00 nm 0.04 gal 0.20 gal/hr 0.00 gal/nm 0 msl 0 kts
Mon, Sep 7, 2020 KOFP KFCI 15:23 15:44 0.35 hrs 0.18 hrs 20.38 nm 2.19 gal 6.26 gal/hr 0.11 gal/nm 1154 msl 109 kts
Mon, Sep 7, 2020 W41 KOFP 14:14 15:06 0.84 hrs 0.73 hrs 86.22 nm 8.15 gal 9.68 gal/hr 0.09 gal/nm 6511 msl 116 kts
Mon, Sep 7, 2020 KOFP W41 11:15 12:14 0.95 hrs 0.73 hrs 88.38 nm 8.51 gal 8.97 gal/hr 0.10 gal/nm 5683 msl 116 kts
Mon, Sep 7, 2020 KFCI KOFP 10:18 10:55 0.59 hrs 0.39 hrs 35.33 nm 3.57 gal 6.11 gal/hr 0.10 gal/nm 1653 msl 86 kts
Mon, Sep 7, 2020     09:57 09:58 0.01 hrs 0.00 hrs 0.00 nm 0.02 gal 1.64 gal/hr 0.00 gal/nm 0 msl 0 kts
Fri, Sep 4, 2020 KFCI KFCI 13:18 13:27 0.14 hrs 0.00 hrs 0.00 nm 0.49 gal 3.50 gal/hr 0.00 gal/nm 0 msl 0 kts
Fri, Sep 4, 2020     13:15 13:15 0 hrs 0.00 hrs 0.00 nm 0.01 gal 2.57 gal/hr 0.00 gal/nm 0 msl 0 kts
Fri, Sep 4, 2020 KFCI KFCI 12:19 12:45 0.42 hrs 0.00 hrs 0.00 nm 0.01 gal 0.02 gal/hr 0.00 gal/nm 0 msl 0 kts
Fri, Sep 4, 2020 KFCI KFCI 12:05 12:09 0.06 hrs 0.00 hrs 0.03 nm 0.04 gal 0.63 gal/hr 1.33 gal/nm 19 msl 62 kts
Thu, Sep 3, 2020 KHKY KFCI 14:24 16:08 1.7 hrs 1.49 hrs 223.66 nm 17.78 gal 10.49 gal/hr 0.08 gal/nm 7712 msl 147 kts
Thu, Sep 3, 2020 KVPC KHKY 12:04 13:47 1.68 hrs 1.38 hrs 207.71 nm 16.38 gal 9.76 gal/hr 0.08 gal/nm 7780 msl 146 kts
Thu, Sep 3, 2020 KVPC KVPC 11:51 11:59 0.13 hrs 0.00 hrs 0.00 nm 0.10 gal 0.76 gal/hr 0.00 gal/nm 0 msl 0 kts
Mon, Aug 24, 2020 KVPC KVPC 16:16 16:22 0.11 hrs 0.00 hrs 0.00 nm 0.13 gal 1.19 gal/hr 0.00 gal/nm 0 msl 0 kts
Mon, Aug 24, 2020 KHKY KVPC 10:01 12:10 2.09 hrs 1.82 hrs 214.41 nm 21.85 gal 10.45 gal/hr 0.10 gal/nm 7319 msl 115 kts
Mon, Aug 24, 2020 KHKY KHKY 09:42 09:48 0.1 hrs 0.00 hrs 0.00 nm 0.25 gal 2.42 gal/hr 0.00 gal/nm 0 msl 0 kts
Mon, Aug 24, 2020 KFCI KHKY 07:20 09:34 2.18 hrs 1.89 hrs 213.66 nm 23.30 gal 10.68 gal/hr 0.11 gal/nm 6163 msl 111 kts
Mon, Aug 24, 2020     07:08 07:08 0 hrs 0.00 hrs 0.00 nm 0.00 gal 0.00 gal/hr 0.00 gal/nm 0 msl 0 kts
Mon, Aug 24, 2020     06:54 06:54 0 hrs 0.00 hrs 0.00 nm 0.01 gal 2.57 gal/hr 0.00 gal/nm 0 msl 0 kts
Sun, Aug 23, 2020     17:28 17:28 0 hrs 0.00 hrs 0.00 nm 0.00 gal 0.00 gal/hr 0.00 gal/nm 0 msl 0 kts
Fri, Aug 21, 2020     09:26 09:31 0.08 hrs 0.00 hrs 0.00 nm 0.01 gal 0.13 gal/hr 0.00 gal/nm 0 msl 0 kts
Fri, Aug 21, 2020     09:23 09:26 0.04 hrs 0.00 hrs 0.00 nm 0.03 gal 0.79 gal/hr 0.00 gal/nm 0 msl 0 kts
Thu, Aug 20, 2020     21:25 21:27 0.03 hrs 0.00 hrs 0.00 nm 0.01 gal 0.34 gal/hr 0.00 gal/nm 0 msl 0 kts
Thu, Aug 20, 2020     21:03 21:24 0.34 hrs 0.00 hrs 0.00 nm 0.04 gal 0.12 gal/hr 0.00 gal/nm 0 msl 0 kts
Thu, Aug 20, 2020     21:00 21:01 0.03 hrs 0.00 hrs 0.00 nm 0.00 gal 0.00 gal/hr 0.00 gal/nm 0 msl 0 kts
Fri, Aug 14, 2020     11:56 11:56 0 hrs 0.00 hrs 0.00 nm 0.00 gal 0.00 gal/hr 0.00 gal/nm 0 msl 0 kts
Fri, Aug 14, 2020 KFCI KFCI 10:44 10:54 0.16 hrs 0.00 hrs 0.00 nm 0.67 gal 4.15 gal/hr 0.00 gal/nm 0 msl 0 kts
Tue, Aug 11, 2020     09:21 09:22 0.01 hrs 0.00 hrs 0.00 nm 0.01 gal 1.74 gal/hr 0.00 gal/nm 0 msl 0 kts
Thu, Jul 30, 2020     08:47 08:55 0.12 hrs 0.00 hrs 0.00 nm 0.03 gal 0.24 gal/hr 0.00 gal/nm 0 msl 0 kts
Wed, Jul 29, 2020     10:57 10:58 0.02 hrs 0.00 hrs 0.00 nm 0.03 gal 1.80 gal/hr 0.00 gal/nm 0 msl 0 kts
Wed, Jul 29, 2020     10:40 10:56 0.26 hrs 0.00 hrs 0.00 nm 0.04 gal 0.15 gal/hr 0.00 gal/nm 0 msl 0 kts
Wed, Jul 29, 2020     10:36 10:39 0.05 hrs 0.00 hrs 0.00 nm 0.05 gal 0.98 gal/hr 0.00 gal/nm 0 msl 0 kts
Wed, Jul 29, 2020     09:15 09:19 0.06 hrs 0.00 hrs 0.00 nm 0.03 gal 0.48 gal/hr 0.00 gal/nm 0 msl 0 kts
Wed, Jul 22, 2020     12:12 12:15 0.05 hrs 0.00 hrs 0.00 nm 0.03 gal 0.61 gal/hr 0.00 gal/nm 0 msl 0 kts
Wed, Jul 22, 2020     11:57 12:02 0.09 hrs 0.00 hrs 0.00 nm 0.01 gal 0.11 gal/hr 0.00 gal/nm 0 msl 0 kts
Wed, Jul 22, 2020     11:51 11:56 0.09 hrs 0.00 hrs 0.00 nm 0.03 gal 0.34 gal/hr 0.00 gal/nm 0 msl 0 kts
Wed, Jul 22, 2020     11:32 11:38 0.09 hrs 0.00 hrs 0.00 nm 0.01 gal 0.11 gal/hr 0.00 gal/nm 0 msl 0 kts
Wed, Jul 22, 2020     11:03 11:04 0.02 hrs 0.00 hrs 0.00 nm 0.01 gal 0.51 gal/hr 0.00 gal/nm 0 msl 0 kts
Wed, Jul 22, 2020     09:08 09:09 0.01 hrs 0.00 hrs 0.00 nm 0.01 gal 0.92 gal/hr 0.00 gal/nm 0 msl 0 kts
Tue, Jul 21, 2020     10:09 10:13 0.06 hrs 0.00 hrs 0.00 nm 0.02 gal 0.31 gal/hr 0.00 gal/nm 0 msl 0 kts
Tue, Jul 21, 2020     10:08 10:09 0.01 hrs 0.00 hrs 0.00 nm 0.02 gal 2.57 gal/hr 0.00 gal/nm 0 msl 0 kts
Mon, Jul 20, 2020 KFCI KFCI 09:32 09:42 0.15 hrs 0.00 hrs 0.00 nm 0.05 gal 0.33 gal/hr 0.00 gal/nm 0 msl 0 kts
Sun, Jun 21, 2020     13:49 13:52 0.06 hrs 0.00 hrs 0.00 nm 0.05 gal 0.90 gal/hr 0.00 gal/nm 0 msl 0 kts
Thu, Jun 18, 2020     12:20 12:20 0 hrs 0.00 hrs 0.00 nm 0.01 gal 2.57 gal/hr 0.00 gal/nm 0 msl 0 kts
Thu, Jun 11, 2020     08:00 08:03 0.06 hrs 0.00 hrs 0.00 nm 0.02 gal 0.36 gal/hr 0.00 gal/nm 0 msl 0 kts
Wed, Jun 10, 2020     18:50 18:54 0.06 hrs 0.00 hrs 0.00 nm 0.02 gal 0.32 gal/hr 0.00 gal/nm 0 msl 0 kts
Wed, Jun 10, 2020     18:43 18:49 0.11 hrs 0.00 hrs 0.00 nm 0.02 gal 0.19 gal/hr 0.00 gal/nm 0 msl 0 kts
Wed, Jun 10, 2020     18:20 18:42 0.35 hrs 0.00 hrs 0.00 nm 0.06 gal 0.17 gal/hr 0.00 gal/nm 0 msl 0 kts
Wed, Jun 10, 2020     16:03 16:04 0.01 hrs 0.00 hrs 0.00 nm 0.02 gal 1.64 gal/hr 0.00 gal/nm 0 msl 0 kts
Wed, Jun 10, 2020 KFCI KFCI 15:50 15:53 0.04 hrs 0.00 hrs 0.00 nm 0.06 gal 1.42 gal/hr 0.00 gal/nm 0 msl 0 kts
Wed, Jun 10, 2020 KFCI KFCI 15:19 15:42 0.37 hrs 0.01 hrs 0.49 nm 0.88 gal 2.39 gal/hr 1.79 gal/nm 238 msl 49 kts
Wed, Jun 10, 2020     11:07 12:33 1.42 hrs 0.00 hrs 0.00 nm 0.07 gal 0.05 gal/hr 0.00 gal/nm 0 msl 0 kts
Wed, Jun 10, 2020     10:43 10:44 0.01 hrs 0.00 hrs 0.00 nm 0.01 gal 1.29 gal/hr 0.00 gal/nm 0 msl 0 kts
Tue, Jun 9, 2020 KFCI KFCI 07:19 07:59 0.64 hrs 0.32 hrs 35.02 nm 3.85 gal 6.05 gal/hr 0.11 gal/nm 2339 msl 103 kts
Tue, Jun 9, 2020     06:54 06:55 0.01 hrs 0.00 hrs 0.00 nm 0.01 gal 1.29 gal/hr 0.00 gal/nm 0 msl 0 kts
Mon, Jun 8, 2020 KFCI KFCI 18:32 18:43 0.17 hrs 0.00 hrs 0.00 nm 0.03 gal 0.17 gal/hr 0.00 gal/nm 0 msl 0 kts
Mon, Jun 8, 2020     18:26 18:26 0 hrs 0.00 hrs 0.00 nm 0.03 gal 7.71 gal/hr 0.00 gal/nm 0 msl 0 kts
Mon, Jun 8, 2020 KFCI KFCI 17:18 18:25 1.09 hrs 0.79 hrs 81.38 nm 7.72 gal 7.06 gal/hr 0.09 gal/nm 3685 msl 99 kts
Mon, Jun 8, 2020     17:11 17:11 0 hrs 0.00 hrs 0.00 nm 0.01 gal 2.57 gal/hr 0.00 gal/nm 0 msl 0 kts
Mon, Jun 8, 2020     16:52 16:52 0 hrs 0.00 hrs 0.00 nm 0.01 gal 2.57 gal/hr 0.00 gal/nm 0 msl 0 kts
Mon, Jun 8, 2020 KFCI KFCI 15:32 16:51 1.27 hrs 0.82 hrs 87.09 nm 8.07 gal 6.34 gal/hr 0.09 gal/nm 3589 msl 102 kts
Mon, Jun 8, 2020     14:36 14:43 0.12 hrs 0.00 hrs 0.00 nm 0.02 gal 0.17 gal/hr 0.00 gal/nm 0 msl 0 kts
Mon, Jun 8, 2020     14:33 14:35 0.03 hrs 0.00 hrs 0.00 nm 0.05 gal 1.49 gal/hr 0.00 gal/nm 0 msl 0 kts
Sun, Jun 7, 2020     09:27 09:31 0.06 hrs 0.00 hrs 0.00 nm 0.02 gal 0.34 gal/hr 0.00 gal/nm 0 msl 0 kts
Sat, Jun 6, 2020     20:10 21:32 1.32 hrs 0.00 hrs 0.00 nm 0.08 gal 0.06 gal/hr 0.00 gal/nm 0 msl 0 kts
Fri, Jun 5, 2020     07:53 07:55 0.03 hrs 0.00 hrs 0.00 nm 0.03 gal 1.02 gal/hr 0.00 gal/nm 0 msl 0 kts
Fri, Jun 5, 2020 KFCI KFCI 06:41 07:27 0.76 hrs 0.24 hrs 21.31 nm 3.27 gal 4.29 gal/hr 0.15 gal/nm 1889 msl 89 kts
Fri, Jun 5, 2020     06:27 06:27 0.01 hrs 0.00 hrs 0.00 nm 0.00 gal 0.00 gal/hr 0.00 gal/nm 0 msl 0 kts
Wed, Jun 3, 2020 KFCI KFCI 17:46 19:09 1.32 hrs 0.84 hrs 93.61 nm 9.98 gal 7.54 gal/hr 0.11 gal/nm 2330 msl 107 kts
Wed, Jun 3, 2020     17:28 17:29 0.01 hrs 0.00 hrs 0.00 nm 0.03 gal 2.45 gal/hr 0.00 gal/nm 0 msl 0 kts
Wed, Jun 3, 2020     09:35 10:01 0.42 hrs 0.00 hrs 0.00 nm 0.06 gal 0.14 gal/hr 0.00 gal/nm 0 msl 0 kts
Tue, Jun 2, 2020 KPTB KFCI 16:16 16:40 0.4 hrs 0.22 hrs 25.58 nm 2.82 gal 7.03 gal/hr 0.11 gal/nm 2383 msl 109 kts
Tue, Jun 2, 2020 KFCI KPTB 14:07 15:52 1.73 hrs 1.49 hrs 168.53 nm 17.12 gal 9.92 gal/hr 0.10 gal/nm 6914 msl 111 kts
Tue, Jun 2, 2020     13:39 13:40 0.02 hrs 0.00 hrs 0.00 nm 0.02 gal 1.20 gal/hr 0.00 gal/nm 0 msl 0 kts
Tue, Jun 2, 2020 KFCI KFCI 08:12 09:00 0.76 hrs 0.38 hrs 37.31 nm 4.00 gal 5.23 gal/hr 0.11 gal/nm 2432 msl 94 kts
Tue, Jun 2, 2020     07:53 07:53 0 hrs 0.00 hrs 0.00 nm 0.01 gal 2.57 gal/hr 0.00 gal/nm 0 msl 0 kts
Mon, Jun 1, 2020 KFCI KFCI 13:58 14:56 0.94 hrs 0.77 hrs 78.84 nm 6.61 gal 7.00 gal/hr 0.08 gal/nm 3361 msl 99 kts
Mon, Jun 1, 2020 KFCI KFCI 13:46 13:53 0.12 hrs 0.00 hrs 0.00 nm 0.39 gal 3.25 gal/hr 0.00 gal/nm 0 msl 0 kts
Mon, Jun 1, 2020 KFCI KFCI 13:10 13:40 0.5 hrs 0.00 hrs 0.00 nm 1.32 gal 2.64 gal/hr 0.00 gal/nm 0 msl 0 kts
Mon, Jun 1, 2020     12:46 12:47 0.01 hrs 0.00 hrs 0.00 nm 0.00 gal 0.00 gal/hr 0.00 gal/nm 0 msl 0 kts
Sun, May 31, 2020     09:46 09:47 0.01 hrs 0.00 hrs 0.00 nm 0.00 gal 0.00 gal/hr 0.00 gal/nm 0 msl 0 kts
Fri, May 29, 2020     11:54 11:55 0.01 hrs 0.00 hrs 0.00 nm 0.01 gal 0.82 gal/hr 0.00 gal/nm 0 msl 0 kts
Thu, May 28, 2020 KFCI KFCI 17:59 18:59 0.97 hrs 0.61 hrs 70.94 nm 7.03 gal 7.25 gal/hr 0.10 gal/nm 2026 msl 112 kts
Thu, May 28, 2020     17:33 17:33 0.01 hrs 0.00 hrs 0.00 nm 0.00 gal 0.00 gal/hr 0.00 gal/nm 0 msl 0 kts
Mon, May 25, 2020 KFCI KFCI 18:18 19:53 1.55 hrs 0.93 hrs 87.16 nm 8.62 gal 5.57 gal/hr 0.10 gal/nm 3323 msl 91 kts
Mon, May 25, 2020     17:40 17:40 0.01 hrs 0.00 hrs 0.00 nm 0.01 gal 0.80 gal/hr 0.00 gal/nm 0 msl 0 kts
Mon, May 25, 2020     11:19 11:22 0.04 hrs 0.00 hrs 0.00 nm 0.04 gal 1.06 gal/hr 0.00 gal/nm 0 msl 0 kts
Sun, May 24, 2020 KFCI KFCI 18:32 20:11 1.62 hrs 0.61 hrs 52.31 nm 6.82 gal 4.21 gal/hr 0.13 gal/nm 1374 msl 84 kts
Sun, May 24, 2020 KFCI KFCI 17:35 18:08 0.53 hrs 0.00 hrs 0.00 nm 0.00 gal 0.00 gal/hr 0.00 gal/nm 0 msl 0 kts
Sun, May 24, 2020 KFCI KFCI 17:07 17:34 0.45 hrs 0.00 hrs 0.02 nm 0.06 gal 0.13 gal/hr 3.00 gal/nm 87 msl 157 kts
Sun, May 24, 2020     16:55 16:56 0.02 hrs 0.00 hrs 0.00 nm 0.02 gal 0.96 gal/hr 0.00 gal/nm 0 msl 0 kts
Sat, May 23, 2020     11:38 11:39 0 hrs 0.00 hrs 0.00 nm 0.01 gal 2.77 gal/hr 0.00 gal/nm 0 msl 0 kts
Sat, May 23, 2020     11:27 11:28 0.01 hrs 0.00 hrs 0.00 nm 0.00 gal 0.00 gal/hr 0.00 gal/nm 0 msl 0 kts
Sat, May 23, 2020 KFCI KFCI 10:32 11:27 0.88 hrs 0.61 hrs 62.71 nm 5.30 gal 6.02 gal/hr 0.08 gal/nm 3172 msl 99 kts
Sat, May 23, 2020     10:21 10:21 0 hrs 0.00 hrs 0.00 nm 0.00 gal 0.00 gal/hr 0.00 gal/nm 0 msl 0 kts
Sat, May 23, 2020     10:18 10:18 0 hrs 0.00 hrs 0.00 nm 0.00 gal 0.00 gal/hr 0.00 gal/nm 0 msl 0 kts
Fri, May 22, 2020 KFCI KFCI 16:11 17:32 1.31 hrs 0.55 hrs 46.06 nm 5.92 gal 4.53 gal/hr 0.13 gal/nm 1363 msl 82 kts
Fri, May 22, 2020     15:51 15:52 0.01 hrs 0.00 hrs 0.00 nm 0.02 gal 1.64 gal/hr 0.00 gal/nm 0 msl 0 kts
Thu, May 21, 2020 KOFP KFCI 19:29 20:21 0.84 hrs 0.49 hrs 42.79 nm 5.30 gal 6.30 gal/hr 0.12 gal/nm 3071 msl 84 kts
Thu, May 21, 2020 KFCI KOFP 16:50 18:53 2 hrs 1.31 hrs 142.69 nm 15.56 gal 7.77 gal/hr 0.11 gal/nm 5017 msl 107 kts
Thu, May 21, 2020 KFCI KFCI 16:46 16:48 0.03 hrs 0.00 hrs 0.00 nm 0.01 gal 0.42 gal/hr 0.00 gal/nm 0 msl 0 kts
Thu, May 21, 2020     16:08 16:10 0.03 hrs 0.00 hrs 0.00 nm 0.05 gal 1.70 gal/hr 0.00 gal/nm 0 msl 0 kts
Mon, May 18, 2020     13:23 13:23 0 hrs 0.00 hrs 0.00 nm 0.00 gal 0.00 gal/hr 0.00 gal/nm 0 msl 0 kts
Mon, May 18, 2020     13:19 13:20 0.01 hrs 0.00 hrs 0.00 nm 0.02 gal 2.57 gal/hr 0.00 gal/nm 0 msl 0 kts
Sun, May 17, 2020     19:41 19:43 0.03 hrs 0.00 hrs 0.00 nm 0.02 gal 0.68 gal/hr 0.00 gal/nm 0 msl 0 kts
Sat, May 16, 2020     13:38 13:38 0.01 hrs 0.00 hrs 0.00 nm 0.00 gal 0.00 gal/hr 0.00 gal/nm 0 msl 0 kts
Sat, May 16, 2020     13:10 13:10 0.01 hrs 0.00 hrs 0.00 nm 0.00 gal 0.00 gal/hr 0.00 gal/nm 0 msl 0 kts
Sat, May 16, 2020 KCJR KFCI 12:00 12:55 0.9 hrs 0.71 hrs 79.16 nm 7.23 gal 8.06 gal/hr 0.09 gal/nm 3172 msl 109 kts
Sat, May 16, 2020 KFCI KCJR 10:32 11:49 1.25 hrs 0.78 hrs 84.65 nm 8.76 gal 7.00 gal/hr 0.10 gal/nm 4708 msl 106 kts
Sat, May 16, 2020     09:18 09:18 0.01 hrs 0.00 hrs 0.00 nm 0.00 gal 0.00 gal/hr 0.00 gal/nm 0 msl 0 kts
Thu, May 14, 2020 KFCI KFCI 10:54 12:32 1.59 hrs 1.18 hrs 120.81 nm 11.51 gal 7.25 gal/hr 0.10 gal/nm 4148 msl 100 kts
Thu, May 14, 2020     10:29 10:30 0 hrs 0.00 hrs 0.00 nm 0.01 gal 2.77 gal/hr 0.00 gal/nm 0 msl 0 kts
Wed, May 13, 2020 KFKN KFCI 12:54 13:51 0.93 hrs 0.62 hrs 64.13 nm 6.29 gal 6.76 gal/hr 0.10 gal/nm 4852 msl 102 kts
Wed, May 13, 2020 KFCI KFKN 11:41 12:39 0.95 hrs 0.52 hrs 60.41 nm 5.97 gal 6.32 gal/hr 0.10 gal/nm 3760 msl 114 kts
Wed, May 13, 2020     11:11 11:12 0.01 hrs 0.00 hrs 0.00 nm 0.01 gal 0.82 gal/hr 0.00 gal/nm 0 msl 0 kts
Fri, May 8, 2020     09:44 09:44 0 hrs 0.00 hrs 0.00 nm 0.09 gal 23.14 gal/hr 0.00 gal/nm 0 msl 0 kts
Fri, May 8, 2020 KFCI KFCI 08:26 09:37 1.15 hrs 0.65 hrs 64.80 nm 6.79 gal 5.89 gal/hr 0.10 gal/nm 3265 msl 96 kts
Fri, May 8, 2020     08:07 08:07 0 hrs 0.00 hrs 0.00 nm 0.00 gal 0.00 gal/hr 0.00 gal/nm 0 msl 0 kts
Sat, May 2, 2020     12:57 12:57 0 hrs 0.00 hrs 0.00 nm 0.01 gal 2.57 gal/hr 0.00 gal/nm 0 msl 0 kts
Sat, May 2, 2020 KFCI KFCI 11:44 12:06 0.37 hrs 0.07 hrs 5.81 nm 1.28 gal 3.49 gal/hr 0.22 gal/nm 1373 msl 83 kts
Sat, May 2, 2020     11:15 11:15 0.01 hrs 0.00 hrs 0.00 nm 0.02 gal 2.48 gal/hr 0.00 gal/nm 0 msl 0 kts
Sat, May 2, 2020     09:47 09:48 0.01 hrs 0.00 hrs 0.00 nm 0.01 gal 1.29 gal/hr 0.00 gal/nm 0 msl 0 kts
Sat, May 2, 2020 KFCI KFCI 08:47 09:06 0.31 hrs 0.00 hrs 0.00 nm 0.78 gal 2.49 gal/hr 0.00 gal/nm 0 msl 0 kts
Sat, May 2, 2020     08:25 08:26 0.01 hrs 0.00 hrs 0.00 nm 0.01 gal 1.29 gal/hr 0.00 gal/nm 0 msl 0 kts
Wed, Apr 29, 2020 KFCI KFCI 12:47 13:50 1.02 hrs 0.54 hrs 56.84 nm 6.05 gal 5.92 gal/hr 0.11 gal/nm 2953 msl 102 kts
Wed, Apr 29, 2020     12:40 12:40 0 hrs 0.00 hrs 0.00 nm 0.01 gal 2.57 gal/hr 0.00 gal/nm 0 msl 0 kts
Wed, Apr 29, 2020     12:09 12:10 0.01 hrs 0.00 hrs 0.00 nm 0.01 gal 0.82 gal/hr 0.00 gal/nm 0 msl 0 kts
Tue, Apr 28, 2020     19:12 19:12 0.01 hrs 0.00 hrs 0.00 nm 0.02 gal 2.48 gal/hr 0.00 gal/nm 0 msl 0 kts
Tue, Apr 28, 2020 KFCI KFCI 17:58 19:11 1.19 hrs 0.86 hrs 89.63 nm 8.39 gal 7.04 gal/hr 0.09 gal/nm 3616 msl 101 kts
Tue, Apr 28, 2020     17:44 17:45 0.01 hrs 0.00 hrs 0.00 nm 0.02 gal 2.57 gal/hr 0.00 gal/nm 0 msl 0 kts
Tue, Apr 28, 2020     14:07 14:07 0 hrs 0.00 hrs 0.00 nm 0.00 gal 0.00 gal/hr 0.00 gal/nm 0 msl 0 kts
Tue, Apr 28, 2020     13:50 13:51 0.01 hrs 0.00 hrs 0.00 nm 0.00 gal 0.00 gal/hr 0.00 gal/nm 0 msl 0 kts
Tue, Apr 28, 2020 KFCI KFCI 12:28 13:37 1.13 hrs 0.34 hrs 32.07 nm 4.79 gal 4.25 gal/hr 0.15 gal/nm 2742 msl 92 kts
Tue, Apr 28, 2020     12:08 12:09 0.03 hrs 0.00 hrs 0.00 nm 0.03 gal 1.19 gal/hr 0.00 gal/nm 0 msl 0 kts
Wed, Apr 22, 2020     19:27 19:28 0.03 hrs 0.00 hrs 0.00 nm 0.03 gal 1.01 gal/hr 0.00 gal/nm 0 msl 0 kts
Wed, Apr 22, 2020     19:25 19:25 0.01 hrs 0.00 hrs 0.00 nm 0.00 gal 0.00 gal/hr 0.00 gal/nm 0 msl 0 kts
Wed, Apr 22, 2020     11:54 11:56 0.03 hrs 0.00 hrs 0.00 nm 0.00 gal 0.00 gal/hr 0.00 gal/nm 0 msl 0 kts
Sun, Apr 19, 2020 KFCI KFCI 10:27 12:19 1.83 hrs 1.25 hrs 137.34 nm 12.48 gal 6.83 gal/hr 0.09 gal/nm 4513 msl 107 kts
Sun, Apr 19, 2020     10:09 10:09 0 hrs 0.00 hrs 0.00 nm 0.01 gal 2.57 gal/hr 0.00 gal/nm 0 msl 0 kts
Thu, Apr 16, 2020 KFCI KFCI 18:36 19:37 0.99 hrs 0.50 hrs 46.86 nm 5.11 gal 5.17 gal/hr 0.11 gal/nm 3374 msl 92 kts
Thu, Apr 16, 2020     18:09 18:10 0 hrs 0.00 hrs 0.00 nm 0.01 gal 2.77 gal/hr 0.00 gal/nm 0 msl 0 kts
Thu, Apr 16, 2020     17:55 17:56 0.02 hrs 0.00 hrs 0.00 nm 0.01 gal 0.60 gal/hr 0.00 gal/nm 0 msl 0 kts
Thu, Apr 16, 2020     13:58 13:59 0.03 hrs 0.00 hrs 0.00 nm 0.02 gal 0.79 gal/hr 0.00 gal/nm 0 msl 0 kts
Sat, Apr 11, 2020 KFCI KFCI 10:49 11:45 0.9 hrs 0.59 hrs 59.44 nm 5.68 gal 6.28 gal/hr 0.10 gal/nm 3040 msl 99 kts
Sat, Apr 11, 2020     10:20 10:20 0 hrs 0.00 hrs 0.00 nm 0.01 gal 2.57 gal/hr 0.00 gal/nm 0 msl 0 kts
Sun, Mar 29, 2020 KFCI KFCI 18:46 19:22 0.58 hrs 0.29 hrs 24.65 nm 3.17 gal 5.42 gal/hr 0.13 gal/nm 1260 msl 84 kts
Sat, Mar 28, 2020 KFCI KFCI 07:26 08:17 0.83 hrs 0.26 hrs 20.65 nm 3.54 gal 4.25 gal/hr 0.17 gal/nm 1438 msl 77 kts
Sat, Mar 28, 2020     07:05 07:06 0.01 hrs 0.00 hrs 0.00 nm 0.02 gal 2.57 gal/hr 0.00 gal/nm 0 msl 0 kts
Fri, Mar 27, 2020     19:21 19:23 0.04 hrs 0.00 hrs 0.00 nm 0.03 gal 0.79 gal/hr 0.00 gal/nm 0 msl 0 kts
Fri, Mar 27, 2020 KFCI KFCI 09:35 11:55 1.28 hrs 0.80 hrs 78.48 nm 22.07 gal 17.22 gal/hr 0.28 gal/nm 3133 msl 93 kts
Fri, Mar 27, 2020     08:55 08:56 0.01 hrs 0.00 hrs 0.00 nm 0.00 gal 0.00 gal/hr 0.00 gal/nm 0 msl 0 kts
Tue, Mar 24, 2020 KFCI KFCI 16:43 17:00 0.28 hrs 0.00 hrs 0.00 nm 4.09 gal 14.74 gal/hr 0.00 gal/nm 0 msl 0 kts
Tue, Mar 24, 2020 KFCI KFCI 15:47 16:39 0.85 hrs 0.55 hrs 43.42 nm 4.74 gal 5.58 gal/hr 0.11 gal/nm 1265 msl 78 kts
Tue, Mar 24, 2020     15:34 15:34 0 hrs 0.00 hrs 0.00 nm 0.00 gal 0.00 gal/hr 0.00 gal/nm 0 msl 0 kts
Tue, Mar 24, 2020     15:31 15:32 0.01 hrs 0.00 hrs 0.00 nm 0.03 gal 3.86 gal/hr 0.00 gal/nm 0 msl 0 kts
Sun, Mar 22, 2020 KFCI KFCI 13:22 15:08 1.74 hrs 1.41 hrs 164.29 nm 14.59 gal 8.39 gal/hr 0.09 gal/nm 3137 msl 114 kts
Sun, Mar 22, 2020     12:38 12:39 0.01 hrs 0.00 hrs 0.00 nm 0.01 gal 0.82 gal/hr 0.00 gal/nm 0 msl 0 kts
Sat, Mar 14, 2020 KSFQ KFCI 12:27 13:28 0.99 hrs 0.66 hrs 72.71 nm 6.44 gal 6.49 gal/hr 0.09 gal/nm 4710 msl 107 kts
Sat, Mar 14, 2020 KFCI KSFQ 10:24 11:45 1.33 hrs 0.79 hrs 89.76 nm 7.79 gal 5.88 gal/hr 0.09 gal/nm 3653 msl 111 kts
Sat, Mar 14, 2020     09:38 09:39 0.02 hrs 0.00 hrs 0.00 nm 0.01 gal 0.60 gal/hr 0.00 gal/nm 0 msl 0 kts
Fri, Mar 13, 2020 KFCI KFCI 10:06 12:16 2.11 hrs 1.02 hrs 102.25 nm 11.78 gal 5.60 gal/hr 0.12 gal/nm 3271 msl 96 kts
Fri, Mar 13, 2020     09:19 09:21 0.04 hrs 0.00 hrs 0.00 nm 0.03 gal 0.79 gal/hr 0.00 gal/nm 0 msl 0 kts
Fri, Mar 13, 2020     08:58 08:59 0.02 hrs 0.00 hrs 0.00 nm 0.01 gal 0.48 gal/hr 0.00 gal/nm 0 msl 0 kts
Thu, Mar 12, 2020 KFCI KFCI 15:46 15:56 0.17 hrs 0.00 hrs 0.00 nm 0.74 gal 4.43 gal/hr 0.00 gal/nm 0 msl 0 kts
Wed, Mar 11, 2020     12:59 13:00 0.02 hrs 0.00 hrs 0.00 nm 0.01 gal 0.60 gal/hr 0.00 gal/nm 0 msl 0 kts
Thu, Mar 5, 2020     09:15 09:18 0.06 hrs 0.00 hrs 0.00 nm 0.03 gal 0.50 gal/hr 0.00 gal/nm 0 msl 0 kts
Wed, Mar 4, 2020     13:38 13:38 0.01 hrs 0.00 hrs 0.00 nm 0.02 gal 1.60 gal/hr 0.00 gal/nm 0 msl 0 kts
Wed, Mar 4, 2020     13:35 13:37 0.03 hrs 0.00 hrs 0.00 nm 0.01 gal 0.34 gal/hr 0.00 gal/nm 0 msl 0 kts
Fri, Feb 28, 2020     17:36 17:37 0.01 hrs 0.00 hrs 0.00 nm 0.01 gal 0.82 gal/hr 0.00 gal/nm 0 msl 0 kts
Thu, Feb 27, 2020     16:15 16:16 0.01 hrs 0.00 hrs 0.00 nm 0.01 gal 0.82 gal/hr 0.00 gal/nm 0 msl 0 kts
Thu, Feb 27, 2020 KFCI KFCI 13:59 14:16 0.27 hrs 0.00 hrs 0.00 nm 0.69 gal 2.58 gal/hr 0.00 gal/nm 0 msl 0 kts
Thu, Feb 27, 2020     13:55 13:56 0.01 hrs 0.00 hrs 0.00 nm 0.03 gal 2.45 gal/hr 0.00 gal/nm 0 msl 0 kts
Sun, Feb 23, 2020     14:50 14:54 0.07 hrs 0.00 hrs 0.00 nm 0.09 gal 1.32 gal/hr 0.00 gal/nm 0 msl 0 kts
Sun, Feb 23, 2020 0V4 KFCI 13:45 14:40 0.88 hrs 0.65 hrs 81.87 nm 5.82 gal 6.63 gal/hr 0.07 gal/nm 5550 msl 122 kts
Sun, Feb 23, 2020 W24 0V4 13:15 13:38 0.37 hrs 0.22 hrs 21.58 nm 2.26 gal 6.13 gal/hr 0.10 gal/nm 3039 msl 95 kts
Sun, Feb 23, 2020 KLYH W24 12:46 13:06 0.32 hrs 0.14 hrs 12.48 nm 1.44 gal 4.45 gal/hr 0.12 gal/nm 2645 msl 87 kts
Sun, Feb 23, 2020 KLYH KLYH 12:33 12:38 0.07 hrs 0.00 hrs 0.00 nm 0.14 gal 2.13 gal/hr 0.00 gal/nm 0 msl 0 kts
Sun, Feb 23, 2020 KHSP KLYH 11:40 12:20 0.63 hrs 0.44 hrs 52.54 nm 4.25 gal 6.69 gal/hr 0.08 gal/nm 7550 msl 116 kts
Sun, Feb 23, 2020 KFCI KHSP 10:08 11:33 1.38 hrs 1.07 hrs 115.94 nm 10.88 gal 7.86 gal/hr 0.09 gal/nm 6523 msl 106 kts
Sun, Feb 23, 2020     09:47 09:48 0.02 hrs 0.00 hrs 0.00 nm 0.00 gal 0.00 gal/hr 0.00 gal/nm 0 msl 0 kts
Sat, Feb 22, 2020 KMFV KFCI 14:19 15:32 1.19 hrs 0.90 hrs 95.56 nm 9.10 gal 7.66 gal/hr 0.10 gal/nm 6515 msl 104 kts
Sat, Feb 22, 2020     14:05 14:06 0.01 hrs 0.00 hrs 0.00 nm 0.02 gal 1.64 gal/hr 0.00 gal/nm 0 msl 0 kts
Sat, Feb 22, 2020 KFCI KMFV 10:49 12:03 1.19 hrs 0.83 hrs 102.55 nm 9.22 gal 7.74 gal/hr 0.09 gal/nm 5525 msl 120 kts
Sat, Feb 22, 2020     10:25 10:26 0.01 hrs 0.00 hrs 0.00 nm 0.00 gal 0.00 gal/hr 0.00 gal/nm 0 msl 0 kts
Sat, Feb 22, 2020     10:14 10:15 0.02 hrs 0.00 hrs 0.00 nm 0.00 gal 0.00 gal/hr 0.00 gal/nm 0 msl 0 kts
Fri, Feb 21, 2020     16:57 16:58 0.02 hrs 0.00 hrs 0.00 nm 0.01 gal 0.60 gal/hr 0.00 gal/nm 0 msl 0 kts
Fri, Feb 21, 2020 KFCI KFCI 15:50 16:57 1.08 hrs 0.69 hrs 81.77 nm 7.55 gal 7.01 gal/hr 0.09 gal/nm 3694 msl 114 kts
Fri, Feb 21, 2020     15:21 15:22 0.01 hrs 0.00 hrs 0.00 nm 0.00 gal 0.00 gal/hr 0.00 gal/nm 0 msl 0 kts
Fri, Feb 21, 2020     15:12 15:12 0.01 hrs 0.00 hrs 0.00 nm 0.02 gal 2.48 gal/hr 0.00 gal/nm 0 msl 0 kts
Fri, Feb 21, 2020     15:02 15:02 0 hrs 0.00 hrs 0.00 nm 0.00 gal 0.00 gal/hr 0.00 gal/nm 0 msl 0 kts
Wed, Feb 19, 2020 KFCI KFCI 16:55 18:21 1.39 hrs 1.08 hrs 122.52 nm 11.22 gal 8.06 gal/hr 0.09 gal/nm 3290 msl 111 kts
Wed, Feb 19, 2020     16:33 16:34 0.01 hrs 0.00 hrs 0.00 nm 0.00 gal 0.00 gal/hr 0.00 gal/nm 0 msl 0 kts
Wed, Feb 19, 2020     16:23 16:25 0.03 hrs 0.00 hrs 0.00 nm 0.00 gal 0.00 gal/hr 0.00 gal/nm 0 msl 0 kts
Mon, Feb 17, 2020 KFCI KFCI 10:49 12:21 1.47 hrs 0.83 hrs 83.22 nm 8.86 gal 6.01 gal/hr 0.11 gal/nm 2336 msl 96 kts
Mon, Feb 17, 2020     10:16 10:17 0.01 hrs 0.00 hrs 0.00 nm 0.01 gal 0.82 gal/hr 0.00 gal/nm 0 msl 0 kts
Sun, Feb 16, 2020 KFCI KFCI 14:56 16:06 1.14 hrs 0.79 hrs 82.85 nm 7.39 gal 6.50 gal/hr 0.09 gal/nm 3562 msl 101 kts
Sun, Feb 16, 2020     14:35 14:36 0.02 hrs 0.00 hrs 0.00 nm 0.00 gal 0.00 gal/hr 0.00 gal/nm 0 msl 0 kts
Sat, Feb 15, 2020 KFCI KFCI 10:56 13:18 2.32 hrs 1.48 hrs 174.72 nm 15.44 gal 6.66 gal/hr 0.09 gal/nm 4910 msl 116 kts
Sat, Feb 15, 2020     10:20 10:21 0.02 hrs 0.00 hrs 0.00 nm 0.01 gal 0.48 gal/hr 0.00 gal/nm 0 msl 0 kts
Sun, Feb 9, 2020 KPTB KFCI 16:16 17:02 0.72 hrs 0.51 hrs 51.43 nm 4.31 gal 6.02 gal/hr 0.08 gal/nm 3654 msl 95 kts
Sun, Feb 9, 2020 KFCI KPTB 15:26 16:11 0.72 hrs 0.38 hrs 39.13 nm 3.73 gal 5.17 gal/hr 0.10 gal/nm 3038 msl 98 kts
Sun, Feb 9, 2020     13:43 14:47 0.06 hrs 0.00 hrs 0.00 nm 0.01 gal 0.16 gal/hr 0.00 gal/nm 0 msl 0 kts
Sat, Feb 8, 2020     15:42 15:42 0 hrs 0.00 hrs 0.00 nm 0.00 gal 0.00 gal/hr 0.00 gal/nm 0 msl 0 kts
Sat, Feb 8, 2020 KPGV KFCI 14:19 15:41 1.33 hrs 1.02 hrs 125.59 nm 10.46 gal 7.85 gal/hr 0.08 gal/nm 3657 msl 119 kts
Sat, Feb 8, 2020 KFCI KPGV 11:05 12:35 1.47 hrs 0.99 hrs 117.05 nm 10.33 gal 7.01 gal/hr 0.09 gal/nm 4548 msl 115 kts
Sat, Feb 8, 2020     10:20 10:20 0.01 hrs 0.00 hrs 0.00 nm 0.01 gal 0.84 gal/hr 0.00 gal/nm 0 msl 0 kts
Sun, Feb 2, 2020 KFCI KFCI 16:48 17:03 0.24 hrs 0.00 hrs 0.00 nm 6.64 gal 27.29 gal/hr 0.00 gal/nm 0 msl 0 kts
Sun, Feb 2, 2020 KSFQ KFCI 15:35 16:47 1.18 hrs 0.79 hrs 76.31 nm 8.20 gal 6.98 gal/hr 0.11 gal/nm 4519 msl 93 kts
Sun, Feb 2, 2020     14:25 14:26 0 hrs 0.00 hrs 0.00 nm 0.04 gal 11.08 gal/hr 0.00 gal/nm 0 msl 0 kts
Sun, Feb 2, 2020 KOFP KSFQ 13:15 14:24 1.11 hrs 0.81 hrs 99.22 nm 9.59 gal 8.68 gal/hr 0.10 gal/nm 3641 msl 118 kts
Sun, Feb 2, 2020     12:58 12:59 0.02 hrs 0.00 hrs 0.00 nm 0.04 gal 2.44 gal/hr 0.00 gal/nm 0 msl 0 kts
Sun, Feb 2, 2020 KOFP KOFP 12:17 12:19 0.04 hrs 0.00 hrs 0.00 nm 0.02 gal 0.53 gal/hr 0.00 gal/nm 0 msl 0 kts
Sun, Feb 2, 2020 KFCI KOFP 11:22 12:03 0.65 hrs 0.28 hrs 30.32 nm 3.40 gal 5.23 gal/hr 0.11 gal/nm 3481 msl 105 kts
Sun, Feb 2, 2020 KFCI KFCI 11:08 11:10 0.03 hrs 0.00 hrs 0.00 nm 0.00 gal 0.00 gal/hr 0.00 gal/nm 0 msl 0 kts
Sat, Feb 1, 2020 KFCI KFCI 10:38 11:50 1.16 hrs 0.72 hrs 80.52 nm 7.55 gal 6.52 gal/hr 0.09 gal/nm 3188 msl 107 kts
Sat, Feb 1, 2020     09:56 09:56 0.01 hrs 0.00 hrs 0.00 nm 0.00 gal 0.00 gal/hr 0.00 gal/nm 0 msl 0 kts
Fri, Jan 31, 2020 KAVC KFCI 13:21 14:08 0.77 hrs 0.50 hrs 57.25 nm 5.41 gal 7.05 gal/hr 0.09 gal/nm 3646 msl 112 kts
Fri, Jan 31, 2020 KFCI KAVC 12:06 13:04 0.94 hrs 0.51 hrs 60.68 nm 6.20 gal 6.59 gal/hr 0.10 gal/nm 5123 msl 116 kts
Fri, Jan 31, 2020     11:19 11:21 0.02 hrs 0.00 hrs 0.00 nm 0.00 gal 0.00 gal/hr 0.00 gal/nm 0 msl 0 kts
Thu, Jan 30, 2020 KFCI KFCI 10:53 11:55 1.01 hrs 0.35 hrs 31.44 nm 4.30 gal 4.26 gal/hr 0.14 gal/nm 1396 msl 85 kts
Thu, Jan 30, 2020     10:09 10:09 0.01 hrs 0.00 hrs 0.00 nm 0.02 gal 2.48 gal/hr 0.00 gal/nm 0 msl 0 kts
Wed, Jan 29, 2020     09:46 09:46 0 hrs 0.00 hrs 0.00 nm 0.00 gal 0.00 gal/hr 0.00 gal/nm 0 msl 0 kts
Wed, Jan 29, 2020     09:06 09:07 0.02 hrs 0.00 hrs 0.00 nm 0.00 gal 0.00 gal/hr 0.00 gal/nm 0 msl 0 kts
Wed, Jan 29, 2020     09:04 09:05 0.01 hrs 0.00 hrs 0.00 nm 0.00 gal 0.00 gal/hr 0.00 gal/nm 0 msl 0 kts
Wed, Jan 29, 2020     08:58 09:01 0.05 hrs 0.00 hrs 0.00 nm 0.00 gal 0.00 gal/hr 0.00 gal/nm 0 msl 0 kts
Sun, Jan 26, 2020 KFCI KFCI 18:01 18:58 0.93 hrs 0.57 hrs 48.64 nm 5.09 gal 5.49 gal/hr 0.10 gal/nm 1380 msl 84 kts
Sun, Jan 26, 2020     17:47 17:48 0.01 hrs 0.00 hrs 0.00 nm 0.02 gal 1.64 gal/hr 0.00 gal/nm 0 msl 0 kts
Sun, Jan 26, 2020     15:30 15:31 0 hrs 0.00 hrs 0.00 nm 0.01 gal 2.77 gal/hr 0.00 gal/nm 0 msl 0 kts
Sun, Jan 26, 2020 KFCI KFCI 15:12 15:13 0.03 hrs 0.00 hrs 0.00 nm 0.02 gal 0.79 gal/hr 0.00 gal/nm 0 msl 0 kts
Sun, Jan 26, 2020 KFCI KFCI 14:38 14:56 0.29 hrs 0.00 hrs 0.00 nm 0.61 gal 2.10 gal/hr 0.00 gal/nm 0 msl 0 kts
Sun, Jan 26, 2020     14:07 14:08 0.02 hrs 0.00 hrs 0.00 nm 0.00 gal 0.00 gal/hr 0.00 gal/nm 0 msl 0 kts
Sun, Jan 26, 2020 KFCI KFCI 08:57 11:30 1.52 hrs 0.82 hrs 85.51 nm 8.31 gal 5.48 gal/hr 0.10 gal/nm 3720 msl 102 kts
Sun, Jan 26, 2020     08:19 08:19 0 hrs 0.00 hrs 0.00 nm 0.00 gal 0.00 gal/hr 0.00 gal/nm 0 msl 0 kts
Sun, Jan 26, 2020     08:17 08:18 0.01 hrs 0.00 hrs 0.00 nm 0.00 gal 0.00 gal/hr 0.00 gal/nm 0 msl 0 kts
Sat, Jan 25, 2020 KPTB KFCI 16:15 17:01 0.74 hrs 0.40 hrs 35.58 nm 3.58 gal 4.83 gal/hr 0.10 gal/nm 3285 msl 87 kts
Sat, Jan 25, 2020 KFCI KPTB 14:59 15:52 0.85 hrs 0.45 hrs 42.61 nm 4.60 gal 5.39 gal/hr 0.11 gal/nm 3098 msl 90 kts
Sat, Jan 25, 2020     13:20 14:22 0.03 hrs 0.00 hrs 0.00 nm 0.02 gal 0.68 gal/hr 0.00 gal/nm 0 msl 0 kts
Thu, Jan 23, 2020     17:00 17:01 0 hrs 0.00 hrs 0.00 nm 0.01 gal 2.77 gal/hr 0.00 gal/nm 0 msl 0 kts
Thu, Jan 23, 2020 KFCI KFCI 15:53 16:57 1.06 hrs 0.67 hrs 70.09 nm 6.59 gal 6.24 gal/hr 0.09 gal/nm 2744 msl 102 kts
Thu, Jan 23, 2020     15:34 15:35 0.02 hrs 0.00 hrs 0.00 nm 0.00 gal 0.00 gal/hr 0.00 gal/nm 0 msl 0 kts
Wed, Jan 22, 2020     17:40 17:41 0 hrs 0.00 hrs 0.00 nm 0.00 gal 0.00 gal/hr 0.00 gal/nm 0 msl 0 kts
Wed, Jan 22, 2020 33N KFCI 15:53 17:23 1.47 hrs 1.20 hrs 150.85 nm 11.81 gal 8.03 gal/hr 0.08 gal/nm 6511 msl 123 kts
Wed, Jan 22, 2020     15:31 15:31 0 hrs 0.00 hrs 0.00 nm 0.01 gal 2.57 gal/hr 0.00 gal/nm 0 msl 0 kts
Wed, Jan 22, 2020     15:25 15:26 0.02 hrs 0.00 hrs 0.00 nm 0.01 gal 0.60 gal/hr 0.00 gal/nm 0 msl 0 kts
Wed, Jan 22, 2020 33N 33N 08:32 08:35 0.04 hrs 0.00 hrs 0.00 nm 0.09 gal 2.14 gal/hr 0.00 gal/nm 0 msl 0 kts
Wed, Jan 22, 2020 KFCI 33N 06:20 08:17 1.9 hrs 1.32 hrs 152.23 nm 12.92 gal 6.79 gal/hr 0.08 gal/nm 5781 msl 113 kts
Wed, Jan 22, 2020     06:01 06:02 0.01 hrs 0.00 hrs 0.00 nm 0.00 gal 0.00 gal/hr 0.00 gal/nm 0 msl 0 kts
Wed, Jan 22, 2020     05:44 05:45 0.02 hrs 0.00 hrs 0.00 nm 0.01 gal 0.48 gal/hr 0.00 gal/nm 0 msl 0 kts
Tue, Jan 21, 2020     18:49 18:52 0.06 hrs 0.00 hrs 0.00 nm 0.03 gal 0.54 gal/hr 0.00 gal/nm 0 msl 0 kts
Tue, Jan 21, 2020     18:38 18:41 0.05 hrs 0.00 hrs 0.00 nm 0.05 gal 0.98 gal/hr 0.00 gal/nm 0 msl 0 kts
Tue, Jan 21, 2020 KFCI KFCI 18:04 19:04 0.69 hrs 0.15 hrs 11.71 nm 2.20 gal 3.20 gal/hr 0.19 gal/nm 1405 msl 76 kts
Tue, Jan 21, 2020 KFCI KFCI 11:44 12:07 0.38 hrs 0.00 hrs 0.00 nm 0.94 gal 2.50 gal/hr 0.00 gal/nm 0 msl 0 kts
Mon, Jan 20, 2020 KFCI KFCI 16:58 17:24 0.43 hrs 0.00 hrs 0.00 nm 1.14 gal 2.65 gal/hr 0.00 gal/nm 0 msl 0 kts
Fri, Jan 17, 2020 KFCI KFCI 10:10 11:37 0.43 hrs 0.08 hrs 6.13 nm 1.29 gal 2.99 gal/hr 0.21 gal/nm 1448 msl 76 kts
Thu, Jan 16, 2020     13:11 13:13 0.03 hrs 0.00 hrs 0.00 nm 0.03 gal 1.02 gal/hr 0.00 gal/nm 0 msl 0 kts
Tue, Jan 14, 2020 KFCI KFCI 13:58 14:09 0.18 hrs 0.00 hrs 0.00 nm 0.64 gal 3.54 gal/hr 0.00 gal/nm 0 msl 0 kts
Tue, Jan 14, 2020 KFCI KFCI 12:18 12:20 0.04 hrs 0.00 hrs 0.00 nm 0.03 gal 0.67 gal/hr 0.00 gal/nm 0 msl 0 kts
Tue, Jan 14, 2020 KFCI KFCI 12:07 12:10 0.06 hrs 0.00 hrs 0.00 nm 0.03 gal 0.51 gal/hr 0.00 gal/nm 0 msl 0 kts
Tue, Jan 14, 2020     10:05 10:06 0.01 hrs 0.00 hrs 0.00 nm 0.01 gal 1.29 gal/hr 0.00 gal/nm 0 msl 0 kts
Tue, Jan 14, 2020 KFCI KFCI 09:04 09:14 0.16 hrs 0.00 hrs 0.00 nm 0.36 gal 2.24 gal/hr 0.00 gal/nm 0 msl 0 kts
Sun, Jan 12, 2020     15:53 15:54 0 hrs 0.00 hrs 0.00 nm 0.02 gal 5.54 gal/hr 0.00 gal/nm 0 msl 0 kts
Sun, Jan 12, 2020 KFCI KFCI 14:14 15:33 1.28 hrs 0.71 hrs 75.59 nm 7.41 gal 5.81 gal/hr 0.10 gal/nm 2824 msl 104 kts
Sun, Jan 12, 2020     13:39 13:40 0.02 hrs 0.00 hrs 0.00 nm 0.02 gal 1.20 gal/hr 0.00 gal/nm 0 msl 0 kts
Fri, Jan 10, 2020     09:02 09:02 0.01 hrs 0.00 hrs 0.00 nm 0.00 gal 0.00 gal/hr 0.00 gal/nm 0 msl 0 kts
Fri, Jan 10, 2020 KFCI KFCI 08:00 09:58 0.93 hrs 0.52 hrs 51.48 nm 5.37 gal 5.77 gal/hr 0.10 gal/nm 2709 msl 97 kts
Fri, Jan 10, 2020     07:33 07:34 0.02 hrs 0.00 hrs 0.00 nm 0.01 gal 0.60 gal/hr 0.00 gal/nm 0 msl 0 kts
Fri, Jan 10, 2020     07:19 07:20 0.02 hrs 0.00 hrs 0.00 nm 0.02 gal 1.20 gal/hr 0.00 gal/nm 0 msl 0 kts
Mon, Jan 6, 2020 KFCI KFCI 10:32 11:58 1.41 hrs 0.75 hrs 66.55 nm 7.30 gal 5.19 gal/hr 0.11 gal/nm 3499 msl 86 kts
Mon, Jan 6, 2020     09:40 09:41 0.02 hrs 0.00 hrs 0.00 nm 0.02 gal 1.20 gal/hr 0.00 gal/nm 0 msl 0 kts
Sun, Jan 5, 2020 KFCI KFCI 10:49 12:56 2.05 hrs 1.51 hrs 159.73 nm 13.66 gal 6.67 gal/hr 0.09 gal/nm 2816 msl 103 kts
Sun, Jan 5, 2020     10:19 10:21 0.03 hrs 0.00 hrs 0.00 nm 0.01 gal 0.34 gal/hr 0.00 gal/nm 0 msl 0 kts
Thu, Jan 2, 2020 KFCI KFCI 11:08 13:01 1.84 hrs 1.26 hrs 132.60 nm 11.95 gal 6.49 gal/hr 0.09 gal/nm 2641 msl 102 kts
Thu, Jan 2, 2020     10:07 11:08 0.01 hrs 0.00 hrs 0.00 nm 0.01 gal 0.63 gal/hr 0.00 gal/nm 0 msl 0 kts
Thu, Jan 2, 2020     09:35 09:36 0.02 hrs 0.00 hrs 0.00 nm 0.03 gal 1.46 gal/hr 0.00 gal/nm 0 msl 0 kts
Wed, Jan 1, 2020     09:43 10:26 0.69 hrs 0.00 hrs 0.00 nm 0.04 gal 0.06 gal/hr 0.00 gal/nm 0 msl 0 kts
Mon, Dec 30, 2019 33N KFCI 17:35 19:22 1.74 hrs 1.39 hrs 154.87 nm 16.25 gal 9.32 gal/hr 0.10 gal/nm 4049 msl 109 kts
Mon, Dec 30, 2019 KILG 33N 16:05 17:00 0.89 hrs 0.54 hrs 60.37 nm 5.48 gal 6.16 gal/hr 0.09 gal/nm 3010 msl 109 kts
Mon, Dec 30, 2019 33N KILG 09:54 10:30 0.58 hrs 0.30 hrs 34.49 nm 3.37 gal 5.84 gal/hr 0.10 gal/nm 3079 msl 114 kts
Mon, Dec 30, 2019 KFCI 33N 06:35 09:15 1.63 hrs 1.11 hrs 169.82 nm 12.33 gal 7.58 gal/hr 0.07 gal/nm 5048 msl 150 kts
Mon, Dec 30, 2019     06:04 06:05 0.01 hrs 0.00 hrs 0.00 nm 0.01 gal 0.82 gal/hr 0.00 gal/nm 0 msl 0 kts
Sun, Dec 29, 2019     15:39 15:40 0.03 hrs 0.00 hrs 0.00 nm 0.00 gal 0.00 gal/hr 0.00 gal/nm 0 msl 0 kts
Sun, Dec 29, 2019     15:38 15:38 0 hrs 0.00 hrs 0.00 nm 0.00 gal 0.00 gal/hr 0.00 gal/nm 0 msl 0 kts
Sun, Dec 29, 2019     15:32 15:32 0.01 hrs 0.00 hrs 0.00 nm 0.00 gal 0.00 gal/hr 0.00 gal/nm 0 msl 0 kts
Thu, Dec 26, 2019     19:16 19:17 0.02 hrs 0.00 hrs 0.00 nm 0.01 gal 0.60 gal/hr 0.00 gal/nm 0 msl 0 kts
Thu, Dec 26, 2019 KFCI KFCI 17:45 18:47 1.01 hrs 0.63 hrs 70.75 nm 5.88 gal 5.85 gal/hr 0.08 gal/nm 3328 msl 110 kts
Thu, Dec 26, 2019     17:15 17:16 0.02 hrs 0.00 hrs 0.00 nm 0.01 gal 0.60 gal/hr 0.00 gal/nm 0 msl 0 kts
Tue, Dec 24, 2019 KFCI KFCI 11:55 13:19 1.38 hrs 0.76 hrs 78.41 nm 7.48 gal 5.43 gal/hr 0.10 gal/nm 3000 msl 101 kts
Tue, Dec 24, 2019     10:50 10:51 0.01 hrs 0.00 hrs 0.00 nm 0.01 gal 0.82 gal/hr 0.00 gal/nm 0 msl 0 kts
Mon, Dec 23, 2019 KFCI KFCI 15:44 17:31 1.73 hrs 1.26 hrs 147.49 nm 12.31 gal 7.10 gal/hr 0.08 gal/nm 3539 msl 114 kts
Mon, Dec 23, 2019 KFCI KFCI 15:39 15:41 0.04 hrs 0.00 hrs 0.00 nm 0.06 gal 1.51 gal/hr 0.00 gal/nm 0 msl 0 kts
Mon, Dec 23, 2019     15:12 15:13 0.01 hrs 0.00 hrs 0.00 nm 0.02 gal 1.64 gal/hr 0.00 gal/nm 0 msl 0 kts
Mon, Dec 23, 2019     12:40 12:40 0 hrs 0.00 hrs 0.00 nm 0.00 gal 0.00 gal/hr 0.00 gal/nm 0 msl 0 kts
Mon, Dec 23, 2019 KFCI KFCI 11:38 12:29 0.84 hrs 0.50 hrs 38.75 nm 4.63 gal 5.50 gal/hr 0.12 gal/nm 1301 msl 75 kts
Mon, Dec 23, 2019     11:21 11:22 0.01 hrs 0.00 hrs 0.00 nm 0.00 gal 0.00 gal/hr 0.00 gal/nm 0 msl 0 kts
Sun, Dec 22, 2019     12:48 12:48 0 hrs 0.00 hrs 0.00 nm 0.01 gal 2.57 gal/hr 0.00 gal/nm 0 msl 0 kts
Sun, Dec 22, 2019 KFCI KFCI 12:11 12:47 0.6 hrs 0.32 hrs 29.22 nm 3.23 gal 5.35 gal/hr 0.11 gal/nm 1414 msl 89 kts
Sun, Dec 22, 2019 KFCI KFCI 10:40 11:59 1.29 hrs 0.90 hrs 100.38 nm 8.38 gal 6.52 gal/hr 0.08 gal/nm 3202 msl 110 kts
Sun, Dec 22, 2019     09:06 10:07 0.02 hrs 0.00 hrs 0.00 nm 0.01 gal 0.60 gal/hr 0.00 gal/nm 0 msl 0 kts
Sat, Dec 21, 2019     19:22 19:23 0.01 hrs 0.00 hrs 0.00 nm 0.01 gal 0.82 gal/hr 0.00 gal/nm 0 msl 0 kts
Sat, Dec 21, 2019 KFCI KFCI 18:02 19:01 0.95 hrs 0.55 hrs 61.01 nm 6.31 gal 6.62 gal/hr 0.10 gal/nm 3652 msl 107 kts
Sat, Dec 21, 2019     17:37 17:38 0.02 hrs 0.00 hrs 0.00 nm 0.00 gal 0.00 gal/hr 0.00 gal/nm 0 msl 0 kts
Sat, Dec 21, 2019 KFCI KFCI 11:06 12:00 0.88 hrs 0.37 hrs 31.31 nm 3.68 gal 4.21 gal/hr 0.12 gal/nm 1617 msl 83 kts
Sat, Dec 21, 2019     11:02 11:03 0.01 hrs 0.00 hrs 0.00 nm 0.02 gal 1.56 gal/hr 0.00 gal/nm 0 msl 0 kts
Sat, Dec 21, 2019 KFCI KFCI 10:54 11:02 0.13 hrs 0.00 hrs 0.00 nm 0.19 gal 1.46 gal/hr 0.00 gal/nm 0 msl 0 kts
Sat, Dec 21, 2019     10:11 10:14 0.05 hrs 0.00 hrs 0.00 nm 0.01 gal 0.22 gal/hr 0.00 gal/nm 0 msl 0 kts
Fri, Dec 20, 2019     18:01 18:01 0 hrs 0.00 hrs 0.00 nm 0.00 gal 0.00 gal/hr 0.00 gal/nm 0 msl 0 kts
Fri, Dec 20, 2019 KJNX KFCI 17:13 18:38 1.39 hrs 1.09 hrs 124.55 nm 12.30 gal 8.82 gal/hr 0.10 gal/nm 5083 msl 112 kts
Fri, Dec 20, 2019 KOFP KJNX 15:24 16:44 1.3 hrs 1.07 hrs 145.11 nm 12.25 gal 9.42 gal/hr 0.08 gal/nm 8031 msl 133 kts
Fri, Dec 20, 2019 KFCI KOFP 14:54 15:23 0.47 hrs 0.23 hrs 23.45 nm 2.64 gal 5.66 gal/hr 0.11 gal/nm 2632 msl 101 kts
Fri, Dec 20, 2019 KFCI KFCI 09:58 12:32 1.5 hrs 1.12 hrs 114.98 nm 9.64 gal 6.41 gal/hr 0.08 gal/nm 4860 msl 100 kts
Fri, Dec 20, 2019     09:23 09:26 0.04 hrs 0.00 hrs 0.00 nm 0.02 gal 0.47 gal/hr 0.00 gal/nm 0 msl 0 kts
Sat, Dec 14, 2019     12:50 12:51 0.02 hrs 0.00 hrs 0.00 nm 0.00 gal 0.00 gal/hr 0.00 gal/nm 0 msl 0 kts
Thu, Dec 12, 2019     13:34 13:35 0.01 hrs 0.00 hrs 0.00 nm 0.00 gal 0.00 gal/hr 0.00 gal/nm 0 msl 0 kts
Thu, Dec 12, 2019 KFCI KFCI 11:48 13:13 1.39 hrs 0.92 hrs 98.92 nm 8.61 gal 6.20 gal/hr 0.09 gal/nm 2718 msl 105 kts
Thu, Dec 12, 2019     11:03 11:04 0.02 hrs 0.00 hrs 0.00 nm 0.01 gal 0.60 gal/hr 0.00 gal/nm 0 msl 0 kts
Wed, Dec 11, 2019     13:27 14:27 0.01 hrs 0.00 hrs 0.00 nm 0.03 gal 2.40 gal/hr 0.00 gal/nm 0 msl 0 kts
Wed, Dec 11, 2019 KFCI KFCI 12:48 14:02 1.21 hrs 0.72 hrs 64.30 nm 6.69 gal 5.55 gal/hr 0.10 gal/nm 2669 msl 87 kts
Wed, Dec 11, 2019     11:30 12:31 0.01 hrs 0.00 hrs 0.00 nm 0.00 gal 0.00 gal/hr 0.00 gal/nm 0 msl 0 kts
Sun, Dec 8, 2019 KFCI KFCI 13:38 15:51 1.2 hrs 0.78 hrs 73.25 nm 7.22 gal 6.04 gal/hr 0.10 gal/nm 4086 msl 91 kts
Sun, Dec 8, 2019     13:08 13:09 0.02 hrs 0.00 hrs 0.00 nm 0.00 gal 0.00 gal/hr 0.00 gal/nm 0 msl 0 kts
Sat, Dec 7, 2019     12:19 12:19 0.01 hrs 0.00 hrs 0.00 nm 0.02 gal 2.57 gal/hr 0.00 gal/nm 0 msl 0 kts
Sat, Dec 7, 2019 KFCI KFCI 10:49 12:18 1.44 hrs 1.00 hrs 105.07 nm 8.23 gal 5.71 gal/hr 0.08 gal/nm 3414 msl 103 kts
Sat, Dec 7, 2019     10:21 10:22 0.01 hrs 0.00 hrs 0.00 nm 0.00 gal 0.00 gal/hr 0.00 gal/nm 0 msl 0 kts
Fri, Dec 6, 2019 KOFP KFCI 21:46 22:46 0.84 hrs 0.44 hrs 40.92 nm 4.22 gal 5.02 gal/hr 0.10 gal/nm 2619 msl 90 kts
Fri, Dec 6, 2019 KRDU KOFP 20:11 21:38 1.42 hrs 1.05 hrs 142.68 nm 12.28 gal 8.66 gal/hr 0.09 gal/nm 5017 msl 132 kts
Fri, Dec 6, 2019     19:56 19:56 0.01 hrs 0.00 hrs 0.00 nm 0.01 gal 1.24 gal/hr 0.00 gal/nm 0 msl 0 kts
Fri, Dec 6, 2019 KFCI KRDU 17:58 19:38 1.63 hrs 1.29 hrs 134.79 nm 14.29 gal 8.78 gal/hr 0.11 gal/nm 6066 msl 102 kts
Mon, Oct 7, 2019     09:07 09:08 0 hrs 0.00 hrs 0.00 nm 0.01 gal 2.57 gal/hr 0.00 gal/nm 0 msl 0 kts
Fri, Mar 29, 2019 KFCI KPTB 09:37 11:35 0.92 hrs 0.58 hrs 60.04 nm 15.18 gal 16.44 gal/hr 0.25 gal/nm 4428 msl 100 kts
Fri, Mar 29, 2019     09:20 09:20 0 hrs 0.00 hrs 0.00 nm 0.00 gal 0.00 gal/hr 0.00 gal/nm 0 msl 0 kts
Fri, Mar 29, 2019     09:11 09:11 0 hrs 0.00 hrs 0.00 nm 0.00 gal 0.00 gal/hr 0.00 gal/nm 0 msl 0 kts
Fri, Mar 29, 2019     09:10 09:10 0 hrs 0.00 hrs 0.00 nm 0.00 gal 0.00 gal/hr 0.00 gal/nm 0 msl 0 kts
Thu, Mar 28, 2019     09:15 09:18 0.04 hrs 0.00 hrs 0.00 nm 0.01 gal 0.24 gal/hr 0.00 gal/nm 0 msl 0 kts
Thu, Mar 28, 2019 KFCI KFCI 07:27 08:49 1.32 hrs 1.00 hrs 100.32 nm 9.89 gal 7.47 gal/hr 0.10 gal/nm 5248 msl 97 kts
Thu, Mar 28, 2019     06:55 06:55 0.01 hrs 0.00 hrs 0.00 nm 0.02 gal 2.48 gal/hr 0.00 gal/nm 0 msl 0 kts
Tue, Mar 26, 2019     18:43 18:44 0.02 hrs 0.00 hrs 0.00 nm 0.00 gal 0.00 gal/hr 0.00 gal/nm 0 msl 0 kts
Tue, Mar 26, 2019     18:41 18:42 0.01 hrs 0.00 hrs 0.00 nm 0.00 gal 0.00 gal/hr 0.00 gal/nm 0 msl 0 kts
Tue, Mar 26, 2019 KMRB KFCI 16:52 18:20 1.42 hrs 1.00 hrs 137.91 nm 11.08 gal 7.81 gal/hr 0.08 gal/nm 4013 msl 134 kts
Tue, Mar 26, 2019 KFCI KMRB 13:55 15:34 1.59 hrs 1.17 hrs 136.11 nm 12.62 gal 7.93 gal/hr 0.09 gal/nm 4786 msl 112 kts
Tue, Mar 26, 2019     13:29 13:29 0.01 hrs 0.00 hrs 0.00 nm 0.01 gal 1.24 gal/hr 0.00 gal/nm 0 msl 0 kts
Sun, Mar 24, 2019     12:37 12:40 0.05 hrs 0.00 hrs 0.00 nm 0.02 gal 0.39 gal/hr 0.00 gal/nm 0 msl 0 kts
Sun, Mar 24, 2019 KFCI KFCI 12:22 12:25 0.06 hrs 0.00 hrs 0.00 nm 0.15 gal 2.54 gal/hr 0.00 gal/nm 0 msl 0 kts
Sun, Mar 24, 2019 KFCI KFCI 10:36 11:04 0.46 hrs 0.32 hrs 36.43 nm 4.54 gal 9.86 gal/hr 0.12 gal/nm 2766 msl 110 kts
Sun, Mar 24, 2019 KFCI KFCI 09:48 10:17 0.46 hrs 0.31 hrs 34.39 nm 3.70 gal 8.02 gal/hr 0.11 gal/nm 2718 msl 107 kts
Sun, Mar 24, 2019 KFCI KFCI 08:59 09:17 0.3 hrs 0.08 hrs 6.81 nm 1.39 gal 4.59 gal/hr 0.20 gal/nm 1367 msl 83 kts
Sun, Mar 24, 2019     08:43 08:44 0.02 hrs 0.00 hrs 0.00 nm 0.02 gal 0.81 gal/hr 0.00 gal/nm 0 msl 0 kts
Sun, Mar 24, 2019     08:40 08:40 0.01 hrs 0.00 hrs 0.00 nm 0.05 gal 6.21 gal/hr 0.00 gal/nm 0 msl 0 kts
Sat, Mar 23, 2019 KFCI KFCI 17:50 18:52 1.01 hrs 0.70 hrs 65.75 nm 7.20 gal 7.10 gal/hr 0.11 gal/nm 1496 msl 92 kts
Sat, Mar 23, 2019     17:41 17:42 0.01 hrs 0.00 hrs 0.00 nm 0.02 gal 1.64 gal/hr 0.00 gal/nm 0 msl 0 kts
Sat, Mar 23, 2019 KFCI KFCI 08:44 09:37 0.87 hrs 0.40 hrs 41.60 nm 5.11 gal 5.85 gal/hr 0.12 gal/nm 4654 msl 101 kts
Fri, Mar 22, 2019 KJNX KFCI 11:47 13:08 1.33 hrs 1.10 hrs 126.66 nm 12.07 gal 9.05 gal/hr 0.10 gal/nm 7647 msl 113 kts
Fri, Mar 22, 2019 KFCI KJNX 09:31 10:51 1.29 hrs 0.97 hrs 123.00 nm 10.99 gal 8.52 gal/hr 0.09 gal/nm 8637 msl 124 kts
Fri, Mar 22, 2019     09:06 09:08 0.04 hrs 0.00 hrs 0.00 nm 0.01 gal 0.26 gal/hr 0.00 gal/nm 0 msl 0 kts
Wed, Mar 20, 2019     09:38 09:39 0.02 hrs 0.00 hrs 0.00 nm 0.02 gal 0.96 gal/hr 0.00 gal/nm 0 msl 0 kts
Sun, Mar 17, 2019 W75 KFCI 19:28 20:17 0.79 hrs 0.61 hrs 64.62 nm 6.09 gal 7.70 gal/hr 0.09 gal/nm 4571 msl 103 kts
Sun, Mar 17, 2019 KFCI W75 17:23 18:22 0.95 hrs 0.61 hrs 73.23 nm 6.59 gal 6.94 gal/hr 0.09 gal/nm 3138 msl 117 kts
Sun, Mar 17, 2019     16:57 16:58 0.02 hrs 0.00 hrs 0.00 nm 0.01 gal 0.60 gal/hr 0.00 gal/nm 0 msl 0 kts
Sat, Mar 16, 2019 KFCI KFCI 18:44 19:20 0.59 hrs 0.44 hrs 51.11 nm 4.72 gal 8.01 gal/hr 0.09 gal/nm 3381 msl 111 kts
Sat, Mar 16, 2019 KFCI KFCI 18:01 18:40 0.62 hrs 0.39 hrs 44.07 nm 4.20 gal 6.73 gal/hr 0.10 gal/nm 3904 msl 108 kts
Sat, Mar 16, 2019     17:36 17:37 0.02 hrs 0.00 hrs 0.00 nm 0.03 gal 1.80 gal/hr 0.00 gal/nm 0 msl 0 kts
Thu, Mar 14, 2019 KFCI KFCI 17:12 18:28 1.22 hrs 0.94 hrs 109.19 nm 9.05 gal 7.44 gal/hr 0.08 gal/nm 3140 msl 112 kts
Thu, Mar 14, 2019     16:46 16:48 0.02 hrs 0.00 hrs 0.00 nm 0.05 gal 2.40 gal/hr 0.00 gal/nm 0 msl 0 kts
Tue, Mar 12, 2019 KFCI KFCI 15:58 17:03 1.06 hrs 0.76 hrs 86.20 nm 7.18 gal 6.77 gal/hr 0.08 gal/nm 3205 msl 111 kts
Tue, Mar 12, 2019     15:34 15:36 0.03 hrs 0.00 hrs 0.00 nm 0.02 gal 0.60 gal/hr 0.00 gal/nm 0 msl 0 kts
Mon, Mar 11, 2019     12:21 12:21 0.01 hrs 0.00 hrs 0.00 nm 0.01 gal 1.24 gal/hr 0.00 gal/nm 0 msl 0 kts
Mon, Mar 11, 2019 KFCI KFCI 12:13 12:15 0.03 hrs 0.00 hrs 0.00 nm 0.04 gal 1.36 gal/hr 0.00 gal/nm 0 msl 0 kts
Mon, Mar 11, 2019 KFCI KFCI 10:18 12:12 1.85 hrs 1.50 hrs 157.32 nm 13.09 gal 7.09 gal/hr 0.08 gal/nm 3746 msl 102 kts
Mon, Mar 11, 2019     09:43 09:43 0 hrs 0.00 hrs 0.00 nm 0.00 gal 0.00 gal/hr 0.00 gal/nm 0 msl 0 kts
Thu, Mar 7, 2019     15:40 16:04 0.39 hrs 0.00 hrs 0.00 nm 0.07 gal 0.18 gal/hr 0.00 gal/nm 0 msl 0 kts
Tue, Mar 5, 2019     20:01 20:02 0.03 hrs 0.00 hrs 0.00 nm 0.01 gal 0.40 gal/hr 0.00 gal/nm 0 msl 0 kts
Sun, Mar 3, 2019 9NC8 KFCI 13:08 14:39 1.49 hrs 1.18 hrs 159.56 nm 11.35 gal 7.64 gal/hr 0.07 gal/nm 7077 msl 132 kts
Sun, Mar 3, 2019 KORL 9NC8 07:57 11:50 3.79 hrs 3.29 hrs 460.10 nm 30.74 gal 8.10 gal/hr 0.07 gal/nm 7036 msl 137 kts
Sun, Mar 3, 2019 KORL KORL 07:36 07:38 0.02 hrs 0.00 hrs 0.00 nm 4.49 gal 215.52 gal/hr 0.00 gal/nm 0 msl 0 kts
Thu, Feb 28, 2019 KJZI KORL 10:05 12:49 2.67 hrs 2.27 hrs 289.94 nm 21.76 gal 8.16 gal/hr 0.08 gal/nm 6020 msl 125 kts
Thu, Feb 28, 2019 KJZI KJZI 09:39 09:40 0.03 hrs 0.00 hrs 0.00 nm 0.01 gal 0.40 gal/hr 0.00 gal/nm 0 msl 0 kts
Wed, Feb 27, 2019 KFCI KJZI 09:59 13:22 3.32 hrs 2.89 hrs 326.61 nm 27.96 gal 8.43 gal/hr 0.09 gal/nm 6044 msl 111 kts
Wed, Feb 27, 2019     09:20 09:22 0.03 hrs 0.00 hrs 0.00 nm 0.02 gal 0.80 gal/hr 0.00 gal/nm 0 msl 0 kts
Mon, Feb 25, 2019     16:56 16:56 0 hrs 0.00 hrs 0.00 nm 0.01 gal 2.57 gal/hr 0.00 gal/nm 0 msl 0 kts
Mon, Feb 25, 2019 KFCI KFCI 12:10 16:36 4.33 hrs 4.07 hrs 470.17 nm 35.06 gal 8.09 gal/hr 0.07 gal/nm 5543 msl 113 kts
Mon, Feb 25, 2019     09:13 09:14 0.02 hrs 0.00 hrs 0.00 nm 0.00 gal 0.00 gal/hr 0.00 gal/nm 0 msl 0 kts
Mon, Feb 25, 2019     08:59 09:01 0.03 hrs 0.00 hrs 0.00 nm 0.00 gal 0.00 gal/hr 0.00 gal/nm 0 msl 0 kts
Mon, Feb 25, 2019     08:52 08:54 0.03 hrs 0.00 hrs 0.00 nm 0.00 gal 0.00 gal/hr 0.00 gal/nm 0 msl 0 kts
Sat, Feb 23, 2019 KFCI KFCI 09:48 11:15 1.41 hrs 1.00 hrs 110.96 nm 11.89 gal 8.46 gal/hr 0.11 gal/nm 3029 msl 109 kts
Sat, Feb 23, 2019     09:27 09:29 0.02 hrs 0.00 hrs 0.00 nm 0.17 gal 8.27 gal/hr 0.00 gal/nm 0 msl 0 kts
Fri, Feb 22, 2019 1N7 KFCI 23:14 01:52 2.58 hrs 2.16 hrs 272.92 nm 21.85 gal 8.47 gal/hr 0.08 gal/nm 6017 msl 124 kts
Fri, Feb 22, 2019 KFCI 1N7 15:46 18:21 2.52 hrs 2.24 hrs 276.25 nm 23.17 gal 9.20 gal/hr 0.08 gal/nm 5018 msl 120 kts
Fri, Feb 22, 2019     15:12 15:13 0.03 hrs 0.00 hrs 0.00 nm 0.01 gal 0.40 gal/hr 0.00 gal/nm 0 msl 0 kts
Fri, Feb 22, 2019     08:36 08:36 0.01 hrs 0.00 hrs 0.00 nm 0.00 gal 0.00 gal/hr 0.00 gal/nm 0 msl 0 kts
Mon, Feb 18, 2019     11:49 11:49 0 hrs 0.00 hrs 0.00 nm 0.00 gal 0.00 gal/hr 0.00 gal/nm 0 msl 0 kts
Mon, Feb 18, 2019     11:29 11:29 0 hrs 0.00 hrs 0.00 nm 0.00 gal 0.00 gal/hr 0.00 gal/nm 0 msl 0 kts
Mon, Feb 18, 2019 KFCI KFCI 07:09 07:25 0.26 hrs 0.00 hrs 0.00 nm 0.79 gal 2.98 gal/hr 0.00 gal/nm 0 msl 0 kts
Fri, Feb 15, 2019 KMRB KFCI 16:35 18:01 1.4 hrs 1.09 hrs 128.22 nm 12.01 gal 8.56 gal/hr 0.09 gal/nm 6021 msl 115 kts
Fri, Feb 15, 2019     16:03 16:04 0 hrs 0.00 hrs 0.00 nm 0.02 gal 5.54 gal/hr 0.00 gal/nm 0 msl 0 kts
Fri, Feb 15, 2019 KFCI KMRB 13:36 15:01 1.38 hrs 1.13 hrs 144.44 nm 11.90 gal 8.60 gal/hr 0.08 gal/nm 6017 msl 126 kts
Fri, Feb 15, 2019     13:18 13:18 0.01 hrs 0.00 hrs 0.00 nm 0.03 gal 3.72 gal/hr 0.00 gal/nm 0 msl 0 kts
Fri, Feb 15, 2019     13:14 13:14 0.01 hrs 0.00 hrs 0.00 nm 0.01 gal 1.24 gal/hr 0.00 gal/nm 0 msl 0 kts
Tue, Feb 12, 2019     17:25 17:38 0.21 hrs 0.00 hrs 0.00 nm 0.04 gal 0.19 gal/hr 0.00 gal/nm 0 msl 0 kts
Sun, Feb 10, 2019     18:22 18:23 0.01 hrs 0.00 hrs 0.00 nm 0.02 gal 1.64 gal/hr 0.00 gal/nm 0 msl 0 kts
Sun, Feb 10, 2019 W95 KFCI 16:30 18:21 1.8 hrs 1.54 hrs 191.28 nm 16.24 gal 9.02 gal/hr 0.08 gal/nm 6069 msl 121 kts
Sun, Feb 10, 2019     16:19 16:20 0 hrs 0.00 hrs 0.00 nm 0.02 gal 5.54 gal/hr 0.00 gal/nm 0 msl 0 kts
Sun, Feb 10, 2019 KFCI W95 12:50 14:37 1.74 hrs 1.38 hrs 161.97 nm 13.28 gal 7.62 gal/hr 0.08 gal/nm 5018 msl 115 kts
Sun, Feb 10, 2019     12:26 12:27 0.01 hrs 0.00 hrs 0.00 nm 0.01 gal 0.82 gal/hr 0.00 gal/nm 0 msl 0 kts
Sat, Feb 9, 2019 KLYH KFCI 14:32 15:32 0.97 hrs 0.73 hrs 84.59 nm 7.07 gal 7.25 gal/hr 0.08 gal/nm 3746 msl 115 kts
Sat, Feb 9, 2019 W45 KLYH 13:10 14:05 0.91 hrs 0.75 hrs 100.05 nm 7.27 gal 7.95 gal/hr 0.07 gal/nm 6635 msl 131 kts
Sat, Feb 9, 2019 KFCI W45 11:38 12:56 1.28 hrs 0.96 hrs 97.91 nm 9.95 gal 7.76 gal/hr 0.10 gal/nm 6009 msl 100 kts
Sat, Feb 9, 2019     10:49 10:51 0.04 hrs 0.00 hrs 0.00 nm 0.02 gal 0.47 gal/hr 0.00 gal/nm 0 msl 0 kts
Fri, Feb 8, 2019 KFCI KFCI 11:12 12:29 1.21 hrs 0.78 hrs 86.01 nm 9.29 gal 7.71 gal/hr 0.11 gal/nm 2596 msl 103 kts
Fri, Feb 8, 2019 KFCI LEMF 09:49 10:53 1.03 hrs 0.69 hrs 77.94 nm 7.87 gal 7.61 gal/hr 0.10 gal/nm 2144 msl 109 kts
Fri, Feb 8, 2019 KFCI KFCI 09:38 09:44 0.1 hrs 0.00 hrs 0.00 nm 0.26 gal 2.72 gal/hr 0.00 gal/nm 0 msl 0 kts
Fri, Feb 8, 2019     08:03 09:06 0.05 hrs 0.00 hrs 0.00 nm 0.03 gal 0.64 gal/hr 0.00 gal/nm 0 msl 0 kts
Thu, Feb 7, 2019 KFCI KFCI 17:48 18:47 0.95 hrs 0.58 hrs 60.63 nm 6.65 gal 7.01 gal/hr 0.11 gal/nm 2592 msl 101 kts
Thu, Feb 7, 2019     17:22 17:23 0.01 hrs 0.00 hrs 0.00 nm 0.00 gal 0.00 gal/hr 0.00 gal/nm 0 msl 0 kts
Thu, Feb 7, 2019     12:38 12:38 0 hrs 0.00 hrs 0.00 nm 0.02 gal 5.14 gal/hr 0.00 gal/nm 0 msl 0 kts
Thu, Feb 7, 2019 KHEF KFCI 11:21 12:34 1.19 hrs 0.83 hrs 93.07 nm 9.39 gal 7.86 gal/hr 0.10 gal/nm 3391 msl 109 kts
Thu, Feb 7, 2019 KFCI KHEF 09:25 10:26 1 hrs 0.70 hrs 85.86 nm 8.20 gal 8.23 gal/hr 0.10 gal/nm 4026 msl 121 kts
Thu, Feb 7, 2019     09:02 09:04 0.02 hrs 0.00 hrs 0.00 nm 0.04 gal 1.95 gal/hr 0.00 gal/nm 0 msl 0 kts
Tue, Feb 5, 2019     20:55 21:13 0.29 hrs 0.00 hrs 0.00 nm 0.05 gal 0.17 gal/hr 0.00 gal/nm 0 msl 0 kts
Tue, Feb 5, 2019 KFCI KFCI 10:16 10:49 0.53 hrs 0.24 hrs 20.49 nm 2.83 gal 5.34 gal/hr 0.14 gal/nm 1385 msl 85 kts
Tue, Feb 5, 2019     09:42 09:44 0.03 hrs 0.00 hrs 0.00 nm 0.02 gal 0.60 gal/hr 0.00 gal/nm 0 msl 0 kts
Mon, Feb 4, 2019 KFCI KFCI 18:11 19:40 1.45 hrs 0.95 hrs 109.04 nm 10.48 gal 7.21 gal/hr 0.10 gal/nm 3056 msl 112 kts
Mon, Feb 4, 2019     17:28 17:28 0.01 hrs 0.00 hrs 0.00 nm 0.01 gal 0.80 gal/hr 0.00 gal/nm 0 msl 0 kts
Mon, Feb 4, 2019 KILG KFCI 09:49 11:48 1.92 hrs 1.55 hrs 192.38 nm 15.94 gal 8.29 gal/hr 0.08 gal/nm 6053 msl 121 kts
Mon, Feb 4, 2019 KFCI KILG 07:44 09:31 1.74 hrs 1.39 hrs 176.03 nm 15.62 gal 9.00 gal/hr 0.09 gal/nm 7020 msl 123 kts
Mon, Feb 4, 2019     07:20 07:22 0.03 hrs 0.00 hrs 0.00 nm 0.01 gal 0.34 gal/hr 0.00 gal/nm 0 msl 0 kts
Sun, Feb 3, 2019 KILG KFCI 15:38 17:34 1.88 hrs 1.53 hrs 190.39 nm 15.90 gal 8.44 gal/hr 0.08 gal/nm 4015 msl 122 kts
Sun, Feb 3, 2019 KILG KILG 15:21 15:24 0.04 hrs 0.00 hrs 0.00 nm 10.40 gal 246.32 gal/hr 0.00 gal/nm 0 msl 0 kts
Sun, Feb 3, 2019 KFCI KILG 11:09 12:45 1.56 hrs 1.25 hrs 172.67 nm 13.53 gal 8.68 gal/hr 0.08 gal/nm 5022 msl 135 kts
Sun, Feb 3, 2019     10:46 10:47 0.02 hrs 0.00 hrs 0.00 nm 0.02 gal 1.20 gal/hr 0.00 gal/nm 0 msl 0 kts
Sat, Feb 2, 2019     18:04 18:05 0.01 hrs 0.00 hrs 0.00 nm 0.01 gal 1.29 gal/hr 0.00 gal/nm 0 msl 0 kts
Sat, Feb 2, 2019 KFCI KFCI 15:37 17:56 2.27 hrs 1.54 hrs 179.00 nm 17.85 gal 7.86 gal/hr 0.10 gal/nm 5019 msl 114 kts
Sat, Feb 2, 2019     14:46 14:48 0.03 hrs 0.00 hrs 0.00 nm 0.02 gal 0.79 gal/hr 0.00 gal/nm 0 msl 0 kts
Sat, Feb 2, 2019     10:32 10:32 0 hrs 0.00 hrs 0.00 nm 0.01 gal 3.00 gal/hr 0.00 gal/nm 0 msl 0 kts
Sat, Feb 2, 2019 KFCI KFCI 08:53 10:18 1.37 hrs 0.80 hrs 89.59 nm 9.00 gal 6.58 gal/hr 0.10 gal/nm 3204 msl 107 kts
Thu, Jan 31, 2019 KPVG KFCI 11:44 12:26 0.68 hrs 0.56 hrs 64.70 nm 6.23 gal 9.11 gal/hr 0.10 gal/nm 3540 msl 112 kts
Thu, Jan 31, 2019 KPVG KPVG 10:24 11:32 1.09 hrs 0.83 hrs 91.75 nm 8.91 gal 8.14 gal/hr 0.10 gal/nm 3444 msl 108 kts
Thu, Jan 31, 2019 KFCI KPVG 09:14 10:12 0.94 hrs 0.61 hrs 77.44 nm 7.38 gal 7.84 gal/hr 0.10 gal/nm 3562 msl 124 kts
Thu, Jan 31, 2019     09:01 09:01 0 hrs 0.00 hrs 0.00 nm 0.00 gal 0.00 gal/hr 0.00 gal/nm 0 msl 0 kts
Mon, Jan 28, 2019 KLYH KFCI 14:06 15:14 1.11 hrs 0.76 hrs 95.63 nm 8.14 gal 7.36 gal/hr 0.09 gal/nm 5013 msl 123 kts
Mon, Jan 28, 2019 KFCI KLYH 09:02 10:11 1.12 hrs 0.71 hrs 84.42 nm 7.93 gal 7.10 gal/hr 0.09 gal/nm 6011 msl 116 kts
Sun, Jan 27, 2019 KFCI KFCI 13:47 15:04 1.25 hrs 0.88 hrs 94.04 nm 9.25 gal 7.38 gal/hr 0.10 gal/nm 3506 msl 103 kts
Sun, Jan 27, 2019     13:06 13:08 0.03 hrs 0.00 hrs 0.00 nm 0.00 gal 0.00 gal/hr 0.00 gal/nm 0 msl 0 kts
Fri, Jan 25, 2019 KFCI KFCI 14:01 15:04 1.01 hrs 0.65 hrs 54.57 nm 5.89 gal 5.85 gal/hr 0.11 gal/nm 1436 msl 81 kts
Fri, Jan 25, 2019     13:43 13:45 0.04 hrs 0.00 hrs 0.00 nm 0.00 gal 0.00 gal/hr 0.00 gal/nm 0 msl 0 kts
Thu, Jan 24, 2019     17:44 19:04 1.31 hrs 0.00 hrs 0.00 nm 0.01 gal 0.01 gal/hr 0.00 gal/nm 0 msl 0 kts
Thu, Jan 24, 2019     17:38 17:38 0 hrs 0.00 hrs 0.00 nm 0.00 gal 0.00 gal/hr 0.00 gal/nm 0 msl 0 kts
Tue, Jan 22, 2019     18:52 18:53 0.01 hrs 0.00 hrs 0.00 nm 0.00 gal 0.00 gal/hr 0.00 gal/nm 0 msl 0 kts
Sun, Jan 20, 2019     15:36 15:38 0.02 hrs 0.00 hrs 0.00 nm 0.01 gal 0.49 gal/hr 0.00 gal/nm 0 msl 0 kts
Wed, Jan 16, 2019     12:02 12:03 0.01 hrs 0.00 hrs 0.00 nm 0.00 gal 0.00 gal/hr 0.00 gal/nm 0 msl 0 kts
Wed, Jan 16, 2019     10:20 10:20 0 hrs 0.00 hrs 0.00 nm 0.00 gal 0.00 gal/hr 0.00 gal/nm 0 msl 0 kts
Wed, Jan 16, 2019 KFCI KFCI 08:30 10:08 1.59 hrs 1.31 hrs 153.60 nm 14.03 gal 8.81 gal/hr 0.09 gal/nm 5518 msl 115 kts
Wed, Jan 16, 2019     08:01 08:02 0.02 hrs 0.00 hrs 0.00 nm 0.01 gal 0.48 gal/hr 0.00 gal/nm 0 msl 0 kts
Tue, Jan 15, 2019 KFCI KFCI 16:55 18:39 1.71 hrs 1.30 hrs 133.59 nm 12.83 gal 7.52 gal/hr 0.10 gal/nm 2677 msl 101 kts
Tue, Jan 15, 2019     16:10 16:12 0.03 hrs 0.00 hrs 0.00 nm 0.00 gal 0.00 gal/hr 0.00 gal/nm 0 msl 0 kts
Fri, Jan 11, 2019 KROA KFCI 15:38 17:24 1.71 hrs 1.24 hrs 149.19 nm 12.50 gal 7.30 gal/hr 0.08 gal/nm 5040 msl 117 kts
Fri, Jan 11, 2019 KFCI KROA 08:48 10:22 1.53 hrs 1.06 hrs 120.88 nm 11.10 gal 7.25 gal/hr 0.09 gal/nm 6035 msl 112 kts
Fri, Jan 11, 2019     08:25 08:26 0.02 hrs 0.00 hrs 0.00 nm 0.00 gal 0.00 gal/hr 0.00 gal/nm 0 msl 0 kts
Tue, Jan 8, 2019 KFCI KFCI 20:59 21:57 0.92 hrs 0.47 hrs 39.18 nm 5.44 gal 5.90 gal/hr 0.14 gal/nm 1498 msl 80 kts
Tue, Jan 8, 2019     20:41 20:43 0.02 hrs 0.00 hrs 0.00 nm 0.01 gal 0.49 gal/hr 0.00 gal/nm 0 msl 0 kts
Fri, Jan 4, 2019 KFCI KFCI 08:31 09:34 1.03 hrs 0.69 hrs 58.45 nm 6.10 gal 5.93 gal/hr 0.10 gal/nm 1498 msl 83 kts
Fri, Jan 4, 2019     08:00 08:01 0.03 hrs 0.00 hrs 0.00 nm 0.00 gal 0.00 gal/hr 0.00 gal/nm 0 msl 0 kts
Thu, Jan 3, 2019 KFCI KFCI 13:04 14:30 1.41 hrs 0.63 hrs 68.76 nm 8.16 gal 5.79 gal/hr 0.12 gal/nm 3012 msl 106 kts
Sun, Dec 30, 2018 KPTB KFCI 12:21 13:14 0.84 hrs 0.66 hrs 69.97 nm 6.87 gal 8.16 gal/hr 0.10 gal/nm 2082 msl 102 kts
Sun, Dec 30, 2018 KFCI KPTB 11:05 12:09 1.03 hrs 0.66 hrs 77.42 nm 7.94 gal 7.68 gal/hr 0.10 gal/nm 3676 msl 111 kts
Sun, Dec 30, 2018     10:32 10:33 0 hrs 0.00 hrs 0.00 nm 0.00 gal 0.00 gal/hr 0.00 gal/nm 0 msl 0 kts
Sat, Dec 29, 2018     18:38 18:38 0.01 hrs 0.00 hrs 0.00 nm 0.00 gal 0.00 gal/hr 0.00 gal/nm 0 msl 0 kts
Sat, Dec 29, 2018 W95 KFCI 16:31 18:15 1.69 hrs 1.49 hrs 161.99 nm 14.21 gal 8.38 gal/hr 0.09 gal/nm 4520 msl 107 kts
Sat, Dec 29, 2018 KFCI W95 14:31 16:02 1.48 hrs 1.21 hrs 169.34 nm 12.46 gal 8.44 gal/hr 0.07 gal/nm 5524 msl 137 kts
Sat, Dec 29, 2018     14:13 14:14 0.02 hrs 0.00 hrs 0.00 nm 0.00 gal 0.00 gal/hr 0.00 gal/nm 0 msl 0 kts
Thu, Dec 27, 2018 KFCI KFCI 09:22 10:42 1.29 hrs 0.90 hrs 79.48 nm 7.84 gal 6.08 gal/hr 0.10 gal/nm 1414 msl 85 kts
Thu, Dec 27, 2018     08:59 09:02 0.05 hrs 0.00 hrs 0.00 nm 0.02 gal 0.39 gal/hr 0.00 gal/nm 0 msl 0 kts
Sun, Dec 23, 2018 KFCI KFCI 15:58 17:26 1.42 hrs 1.04 hrs 108.32 nm 10.44 gal 7.36 gal/hr 0.10 gal/nm 3112 msl 101 kts
Sun, Dec 23, 2018     15:22 15:23 0.03 hrs 0.00 hrs 0.00 nm 0.00 gal 0.00 gal/hr 0.00 gal/nm 0 msl 0 kts
Sun, Dec 23, 2018 KTGI KFCI 12:59 14:05 1.06 hrs 0.84 hrs 92.10 nm 9.87 gal 9.30 gal/hr 0.11 gal/nm 4604 msl 107 kts
Sun, Dec 23, 2018 KFCI KTGI 10:17 11:11 0.86 hrs 0.67 hrs 88.45 nm 7.38 gal 8.56 gal/hr 0.08 gal/nm 5607 msl 128 kts
Thu, Dec 20, 2018     15:40 15:40 0.01 hrs 0.00 hrs 0.00 nm 0.00 gal 0.00 gal/hr 0.00 gal/nm 0 msl 0 kts
Thu, Dec 20, 2018     15:39 15:39 0 hrs 0.00 hrs 0.00 nm 0.00 gal 0.00 gal/hr 0.00 gal/nm 0 msl 0 kts
Thu, Dec 20, 2018 KFCI KFCI 08:11 09:24 1.19 hrs 0.68 hrs 74.63 nm 8.33 gal 6.98 gal/hr 0.11 gal/nm 3023 msl 108 kts
Thu, Dec 20, 2018     07:49 07:51 0.03 hrs 0.00 hrs 0.00 nm 0.00 gal 0.00 gal/hr 0.00 gal/nm 0 msl 0 kts
Wed, Dec 19, 2018 KFCI KFCI 07:22 08:28 1.08 hrs 0.61 hrs 57.89 nm 6.28 gal 5.83 gal/hr 0.11 gal/nm 2765 msl 91 kts
Wed, Dec 19, 2018     06:59 07:01 0.04 hrs 0.00 hrs 0.00 nm 0.07 gal 1.84 gal/hr 0.00 gal/nm 0 msl 0 kts
Tue, Dec 18, 2018 KFCI KFCI 20:55 21:54 0.97 hrs 0.64 hrs 62.45 nm 6.40 gal 6.60 gal/hr 0.10 gal/nm 2020 msl 94 kts
Tue, Dec 18, 2018     20:34 20:36 0.04 hrs 0.00 hrs 0.00 nm 0.02 gal 0.53 gal/hr 0.00 gal/nm 0 msl 0 kts
Tue, Dec 18, 2018     16:50 16:50 0 hrs 0.00 hrs 0.00 nm 0.01 gal 2.57 gal/hr 0.00 gal/nm 0 msl 0 kts
Tue, Dec 18, 2018     16:21 16:21 0 hrs 0.00 hrs 0.00 nm 0.01 gal 2.57 gal/hr 0.00 gal/nm 0 msl 0 kts
Tue, Dec 18, 2018 KFCI KFCI 14:35 16:01 1.39 hrs 0.92 hrs 96.05 nm 9.26 gal 6.68 gal/hr 0.10 gal/nm 3589 msl 101 kts
Mon, Dec 17, 2018 KFCI KFCI 18:46 20:30 1.69 hrs 1.23 hrs 138.70 nm 11.99 gal 7.08 gal/hr 0.09 gal/nm 4128 msl 111 kts
Mon, Dec 17, 2018     18:23 18:24 0.02 hrs 0.00 hrs 0.00 nm 0.00 gal 0.00 gal/hr 0.00 gal/nm 0 msl 0 kts
Wed, Dec 12, 2018 KCGS KFCI 21:13 22:43 1.47 hrs 1.15 hrs 127.68 nm 12.13 gal 8.24 gal/hr 0.09 gal/nm 4027 msl 109 kts
Wed, Dec 12, 2018     21:00 21:01 0.02 hrs 0.00 hrs 0.00 nm 0.11 gal 5.28 gal/hr 0.00 gal/nm 0 msl 0 kts
Wed, Dec 12, 2018 KFCI KCGS 17:10 18:30 1.32 hrs 1.01 hrs 130.16 nm 10.59 gal 8.05 gal/hr 0.08 gal/nm 5018 msl 127 kts
Wed, Dec 12, 2018     16:44 16:46 0.03 hrs 0.00 hrs 0.00 nm 0.00 gal 0.00 gal/hr 0.00 gal/nm 0 msl 0 kts
Wed, Dec 12, 2018 KFCI KFCI 10:50 11:39 0.79 hrs 0.50 hrs 51.15 nm 4.51 gal 5.70 gal/hr 0.09 gal/nm 2152 msl 100 kts
Wed, Dec 12, 2018     10:32 10:34 0.02 hrs 0.00 hrs 0.00 nm 0.00 gal 0.00 gal/hr 0.00 gal/nm 0 msl 0 kts
Tue, Dec 11, 2018     18:16 18:16 0 hrs 0.00 hrs 0.00 nm 0.00 gal 0.00 gal/hr 0.00 gal/nm 0 msl 0 kts
Tue, Dec 11, 2018     18:12 18:12 0.01 hrs 0.00 hrs 0.00 nm 0.00 gal 0.00 gal/hr 0.00 gal/nm 0 msl 0 kts
Sat, Dec 8, 2018 KFCI KFCI 10:56 11:50 0.89 hrs 0.50 hrs 47.54 nm 5.03 gal 5.66 gal/hr 0.11 gal/nm 1828 msl 93 kts
Sat, Dec 8, 2018     10:36 10:36 0.01 hrs 0.00 hrs 0.00 nm 0.00 gal 0.00 gal/hr 0.00 gal/nm 0 msl 0 kts
Thu, Dec 6, 2018 KFCI KFCI 15:07 15:14 0.11 hrs 0.00 hrs 0.00 nm 0.43 gal 3.86 gal/hr 0.00 gal/nm 0 msl 0 kts
Thu, Dec 6, 2018     08:16 08:16 0 hrs 0.00 hrs 0.00 nm 0.01 gal 2.57 gal/hr 0.00 gal/nm 0 msl 0 kts
Thu, Dec 6, 2018 KFCI KFCI 08:01 08:15 0.23 hrs 0.00 hrs 0.00 nm 0.85 gal 3.71 gal/hr 0.00 gal/nm 0 msl 0 kts
Wed, Dec 5, 2018     18:11 18:11 0.01 hrs 0.00 hrs 0.00 nm 0.02 gal 1.67 gal/hr 0.00 gal/nm 0 msl 0 kts
Wed, Dec 5, 2018 KJNX KFCI 16:43 18:10 1.42 hrs 1.11 hrs 124.26 nm 10.76 gal 7.55 gal/hr 0.09 gal/nm 5016 msl 109 kts
Wed, Dec 5, 2018     16:16 16:17 0 hrs 0.00 hrs 0.00 nm 0.02 gal 4.50 gal/hr 0.00 gal/nm 0 msl 0 kts
Wed, Dec 5, 2018     16:07 16:07 0.01 hrs 0.00 hrs 0.00 nm 0.04 gal 4.97 gal/hr 0.00 gal/nm 0 msl 0 kts
Wed, Dec 5, 2018     15:54 15:55 0 hrs 0.00 hrs 0.00 nm 0.00 gal 0.78 gal/hr 0.00 gal/nm 0 msl 0 kts
Wed, Dec 5, 2018     15:53 15:53 0 hrs 0.00 hrs 0.00 nm 0.04 gal 10.29 gal/hr 0.00 gal/nm 0 msl 0 kts
Wed, Dec 5, 2018     15:43 15:44 0.01 hrs 0.00 hrs 0.00 nm 0.00 gal 0.02 gal/hr 0.00 gal/nm 0 msl 0 kts
Wed, Dec 5, 2018 KJNX KJNX 15:41 15:43 0.03 hrs 0.00 hrs 0.00 nm 0.03 gal 1.02 gal/hr 0.00 gal/nm 0 msl 0 kts
Wed, Dec 5, 2018 KJNX KJNX 15:34 15:36 0.03 hrs 0.00 hrs 0.00 nm 0.08 gal 2.38 gal/hr 0.00 gal/nm 0 msl 0 kts
Wed, Dec 5, 2018     10:29 10:30 0 hrs 0.00 hrs 0.00 nm 0.02 gal 5.14 gal/hr 0.00 gal/nm 0 msl 0 kts
Tue, Dec 4, 2018 KJNX KJNX 14:16 14:20 0.06 hrs 0.00 hrs 0.00 nm 0.11 gal 1.73 gal/hr 0.00 gal/nm 0 msl 0 kts
Mon, Dec 3, 2018 KJNX KJNX 10:45 11:49 1.05 hrs 0.00 hrs 0.00 nm 0.13 gal 0.12 gal/hr 0.00 gal/nm 0 msl 0 kts
Mon, Dec 3, 2018 KFCI KJNX 06:33 08:04 1.48 hrs 1.15 hrs 121.49 nm 12.96 gal 8.77 gal/hr 0.11 gal/nm 6058 msl 103 kts
Mon, Dec 3, 2018     06:15 06:15 0.01 hrs 0.00 hrs 0.00 nm 0.01 gal 1.24 gal/hr 0.00 gal/nm 0 msl 0 kts
Sat, Dec 1, 2018 KFCI KFCI 09:06 11:04 1.91 hrs 1.49 hrs 165.67 nm 15.68 gal 8.21 gal/hr 0.09 gal/nm 6016 msl 109 kts
Sat, Dec 1, 2018     08:19 08:20 0.02 hrs 0.00 hrs 0.00 nm 0.00 gal 0.00 gal/hr 0.00 gal/nm 0 msl 0 kts
Thu, Nov 29, 2018 KEWN KFCI 20:15 21:50 1.54 hrs 1.27 hrs 154.22 nm 13.03 gal 8.45 gal/hr 0.08 gal/nm 3518 msl 119 kts
Thu, Nov 29, 2018     20:08 20:09 0 hrs 0.00 hrs 0.00 nm 0.00 gal 0.00 gal/hr 0.00 gal/nm 0 msl 0 kts
Thu, Nov 29, 2018 KEWN KEWN 19:49 19:51 0.04 hrs 0.00 hrs 0.00 nm 0.00 gal 0.00 gal/hr 0.00 gal/nm 0 msl 0 kts
Thu, Nov 29, 2018 KFCI KEWN 17:23 18:48 1.38 hrs 1.06 hrs 149.79 nm 12.28 gal 8.90 gal/hr 0.08 gal/nm 6586 msl 138 kts
Tue, Nov 27, 2018     11:01 11:02 0.01 hrs 0.00 hrs 0.00 nm 0.00 gal 0.00 gal/hr 0.00 gal/nm 0 msl 0 kts
Tue, Nov 27, 2018 KFCI KFCI 08:50 10:50 1.96 hrs 1.62 hrs 152.56 nm 13.28 gal 6.79 gal/hr 0.09 gal/nm 3456 msl 93 kts
Tue, Nov 27, 2018     08:32 08:33 0.03 hrs 0.00 hrs 0.00 nm 0.03 gal 1.19 gal/hr 0.00 gal/nm 0 msl 0 kts
Sun, Nov 25, 2018 KMRB KFCI 16:01 17:32 1.48 hrs 1.07 hrs 137.41 nm 11.21 gal 7.58 gal/hr 0.08 gal/nm 5038 msl 126 kts
Sun, Nov 25, 2018 KFCI KMRB 13:23 14:52 1.45 hrs 1.19 hrs 134.08 nm 12.88 gal 8.86 gal/hr 0.10 gal/nm 6030 msl 110 kts
Fri, Nov 23, 2018 KCGS KFCI 13:30 14:59 1.46 hrs 1.12 hrs 130.47 nm 11.91 gal 8.17 gal/hr 0.09 gal/nm 6067 msl 115 kts
Wed, Nov 21, 2018 KFCI KCGS 08:23 09:52 1.45 hrs 1.07 hrs 132.54 nm 11.35 gal 7.83 gal/hr 0.09 gal/nm 5020 msl 121 kts
Wed, Nov 21, 2018     07:56 07:58 0.03 hrs 0.00 hrs 0.00 nm 0.03 gal 1.20 gal/hr 0.00 gal/nm 0 msl 0 kts
Tue, Nov 20, 2018     19:11 19:12 0.01 hrs 0.00 hrs 0.00 nm 0.00 gal 0.00 gal/hr 0.00 gal/nm 0 msl 0 kts
Tue, Nov 20, 2018     14:35 14:35 0 hrs 0.00 hrs 0.00 nm 0.01 gal 2.57 gal/hr 0.00 gal/nm 0 msl 0 kts
Tue, Nov 20, 2018     14:30 14:30 0 hrs 0.00 hrs 0.00 nm 0.01 gal 2.57 gal/hr 0.00 gal/nm 0 msl 0 kts
Sun, Nov 18, 2018 KILG KFCI 17:50 20:39 2.76 hrs 2.22 hrs 234.66 nm 22.90 gal 8.30 gal/hr 0.10 gal/nm 6020 msl 103 kts
Sun, Nov 18, 2018 KILG KILG 17:38 17:39 0.02 hrs 0.00 hrs 0.00 nm 0.00 gal 0.00 gal/hr 0.00 gal/nm 0 msl 0 kts
Sun, Nov 18, 2018     09:24 10:26 0.04 hrs 0.00 hrs 0.00 nm 0.02 gal 0.53 gal/hr 0.00 gal/nm 0 msl 0 kts
Sat, Nov 17, 2018     17:21 17:21 0.01 hrs 0.00 hrs 0.00 nm 0.00 gal 0.00 gal/hr 0.00 gal/nm 0 msl 0 kts
Sat, Nov 17, 2018 KPTB KFCI 16:44 17:01 0.26 hrs 0.19 hrs 20.07 nm 2.18 gal 8.25 gal/hr 0.11 gal/nm 2473 msl 105 kts
Sat, Nov 17, 2018     16:43 16:43 0 hrs 0.00 hrs 0.00 nm 0.01 gal 3.30 gal/hr 0.00 gal/nm 0 msl 0 kts
Sat, Nov 17, 2018 KPTB KPTB 16:37 16:41 0.07 hrs 0.00 hrs 0.00 nm 0.20 gal 2.97 gal/hr 0.00 gal/nm 0 msl 0 kts
Sat, Nov 17, 2018 KLKU KPTB 13:36 14:37 0.97 hrs 0.84 hrs 101.43 nm 9.66 gal 9.97 gal/hr 0.10 gal/nm 3231 msl 116 kts
Sat, Nov 17, 2018 KFCI KLKU 11:11 12:49 1.57 hrs 1.24 hrs 139.64 nm 13.13 gal 8.35 gal/hr 0.09 gal/nm 3740 msl 109 kts
Sat, Nov 17, 2018     10:59 11:00 0.02 hrs 0.00 hrs 0.00 nm 0.01 gal 0.60 gal/hr 0.00 gal/nm 0 msl 0 kts
Sat, Nov 17, 2018     10:37 10:38 0.03 hrs 0.00 hrs 0.00 nm 0.01 gal 0.34 gal/hr 0.00 gal/nm 0 msl 0 kts
Fri, Nov 16, 2018 KJNX KFCI 15:35 17:02 1.41 hrs 1.11 hrs 127.28 nm 12.89 gal 9.17 gal/hr 0.10 gal/nm 7515 msl 112 kts
Fri, Nov 16, 2018 KFCI KJNX 09:44 10:44 1.47 hrs 1.05 hrs 129.03 nm 4.51 gal 3.08 gal/hr 0.03 gal/nm 6594 msl 120 kts
Fri, Nov 16, 2018     09:44 09:45 0.02 hrs 0.00 hrs 0.00 nm 0.01 gal 0.60 gal/hr 0.00 gal/nm 0 msl 0 kts
Tue, Nov 13, 2018 KFCI KFCI 13:18 13:20 0.03 hrs 0.00 hrs 0.00 nm 0.00 gal 0.00 gal/hr 0.00 gal/nm 0 msl 0 kts
Tue, Nov 13, 2018     10:23 10:23 0 hrs 0.00 hrs 0.00 nm 0.00 gal 0.00 gal/hr 0.00 gal/nm 0 msl 0 kts
Tue, Nov 13, 2018     10:02 10:04 0.02 hrs 0.00 hrs 0.00 nm 0.01 gal 0.60 gal/hr 0.00 gal/nm 0 msl 0 kts
Mon, Nov 12, 2018     14:47 14:48 0.02 hrs 0.00 hrs 0.00 nm 0.00 gal 0.00 gal/hr 0.00 gal/nm 0 msl 0 kts
Mon, Nov 12, 2018 KFCI KFCI 11:32 14:09 2.56 hrs 2.21 hrs 264.51 nm 22.63 gal 8.85 gal/hr 0.09 gal/nm 6516 msl 117 kts
Mon, Nov 12, 2018     11:06 11:09 0.04 hrs 0.00 hrs 0.00 nm 0.00 gal 0.00 gal/hr 0.00 gal/nm 0 msl 0 kts
Sun, Nov 11, 2018 KFCI KFCI 15:02 15:05 0.05 hrs 0.00 hrs 0.00 nm 0.13 gal 2.91 gal/hr 0.00 gal/nm 0 msl 0 kts
Sun, Nov 11, 2018 KFCI KFCI 14:27 14:49 0.35 hrs 0.18 hrs 17.56 nm 2.33 gal 6.68 gal/hr 0.13 gal/nm 3026 msl 94 kts
Sun, Nov 11, 2018 KFCI KFCI 12:56 13:24 0.44 hrs 0.29 hrs 32.21 nm 3.47 gal 7.88 gal/hr 0.11 gal/nm 2463 msl 107 kts
Sun, Nov 11, 2018     11:43 11:43 0.01 hrs 0.00 hrs 0.00 nm 0.03 gal 3.72 gal/hr 0.00 gal/nm 0 msl 0 kts
Sun, Nov 11, 2018     11:26 11:28 0.02 hrs 0.00 hrs 0.00 nm 0.02 gal 0.97 gal/hr 0.00 gal/nm 0 msl 0 kts
Sat, Nov 10, 2018     16:13 16:14 0.01 hrs 0.00 hrs 0.00 nm 0.00 gal 0.00 gal/hr 0.00 gal/nm 0 msl 0 kts
Sat, Nov 10, 2018 KFCI KSFQ 12:45 13:35 0.82 hrs 0.52 hrs 68.82 nm 6.46 gal 7.91 gal/hr 0.09 gal/nm 4694 msl 130 kts
Sun, Nov 4, 2018     18:03 18:04 0 hrs 0.00 hrs 0.00 nm 0.01 gal 2.77 gal/hr 0.00 gal/nm 0 msl 0 kts
Sun, Nov 4, 2018 KJGG KFCI 17:28 18:02 0.56 hrs 0.38 hrs 47.80 nm 3.92 gal 7.01 gal/hr 0.08 gal/nm 2715 msl 122 kts
Sun, Nov 4, 2018 KFCI KJGG 15:43 17:18 1.54 hrs 1.32 hrs 154.48 nm 12.68 gal 8.21 gal/hr 0.08 gal/nm 3616 msl 115 kts
Sun, Nov 4, 2018     14:43 14:45 0.03 hrs 0.00 hrs 0.00 nm 0.00 gal 0.00 gal/hr 0.00 gal/nm 0 msl 0 kts
Sun, Nov 4, 2018     10:24 10:26 0.02 hrs 0.00 hrs 0.00 nm 0.00 gal 0.00 gal/hr 0.00 gal/nm 0 msl 0 kts
Thu, Nov 1, 2018 KFCI KFCI 13:35 13:39 0.06 hrs 0.00 hrs 0.00 nm 0.01 gal 0.17 gal/hr 0.00 gal/nm 0 msl 0 kts
Thu, Nov 1, 2018 KFCI 0VA4 10:52 13:01 2.11 hrs 1.39 hrs 123.25 nm 0.02 gal 0.01 gal/hr 0.00 gal/nm 19978 msl 83 kts
Wed, Oct 31, 2018 KCGS KFCI 14:16 15:36 1.3 hrs 1.06 hrs 123.90 nm 11.81 gal 9.05 gal/hr 0.10 gal/nm 4028 msl 114 kts
Wed, Oct 31, 2018     10:40 10:40 0 hrs 0.00 hrs 0.00 nm 0.01 gal 2.57 gal/hr 0.00 gal/nm 0 msl 0 kts
Wed, Oct 31, 2018 KFCI KCGS 09:14 10:39 1.39 hrs 1.07 hrs 142.44 nm 12.58 gal 9.06 gal/hr 0.09 gal/nm 5016 msl 130 kts
Wed, Oct 31, 2018     08:42 08:45 0.04 hrs 0.00 hrs 0.00 nm 0.00 gal 0.00 gal/hr 0.00 gal/nm 0 msl 0 kts
Tue, Oct 30, 2018     14:33 14:34 0 hrs 0.00 hrs 0.00 nm 0.01 gal 2.77 gal/hr 0.00 gal/nm 0 msl 0 kts
Tue, Oct 30, 2018 KFCI KFCI 13:13 14:27 1.18 hrs 0.90 hrs 99.24 nm 9.86 gal 8.33 gal/hr 0.10 gal/nm 3264 msl 106 kts
Tue, Oct 30, 2018     13:00 13:01 0.01 hrs 0.00 hrs 0.00 nm 0.00 gal 0.00 gal/hr 0.00 gal/nm 0 msl 0 kts
Mon, Oct 29, 2018 KFCI KFCI 10:20 10:22 0.03 hrs 0.00 hrs 0.00 nm 0.03 gal 1.01 gal/hr 0.00 gal/nm 0 msl 0 kts
Mon, Oct 29, 2018 KFCI KFCI 10:18 10:20 0.03 hrs 0.00 hrs 0.00 nm 0.10 gal 4.00 gal/hr 0.00 gal/nm 0 msl 0 kts
Mon, Oct 29, 2018 KFCI KFCI 08:48 10:18 1.47 hrs 1.20 hrs 114.76 nm 11.53 gal 7.82 gal/hr 0.10 gal/nm 6385 msl 93 kts
Mon, Oct 29, 2018     08:12 08:13 0.02 hrs 0.00 hrs 0.00 nm 0.00 gal 0.00 gal/hr 0.00 gal/nm 0 msl 0 kts
Sat, Oct 27, 2018 KFCI KFCI 14:14 15:20 1.07 hrs 0.59 hrs 60.73 nm 6.46 gal 6.02 gal/hr 0.11 gal/nm 3135 msl 100 kts
Sat, Oct 27, 2018     13:57 13:58 0.02 hrs 0.00 hrs 0.00 nm 0.01 gal 0.49 gal/hr 0.00 gal/nm 0 msl 0 kts
Fri, Oct 26, 2018 KFCI KFCI 10:18 10:49 0.5 hrs 0.25 hrs 24.89 nm 3.19 gal 6.39 gal/hr 0.13 gal/nm 2019 msl 97 kts
Fri, Oct 26, 2018 KFCI KFCI 09:38 09:41 0.05 hrs 0.00 hrs 0.00 nm 0.00 gal 0.00 gal/hr 0.00 gal/nm 0 msl 0 kts
Thu, Oct 25, 2018 W44 KFCI 09:48 11:22 1.54 hrs 1.23 hrs 159.36 nm 14.99 gal 9.71 gal/hr 0.09 gal/nm 7012 msl 127 kts
Thu, Oct 25, 2018 KFCI W44 08:04 09:38 1.53 hrs 1.31 hrs 164.44 nm 12.23 gal 8.02 gal/hr 0.07 gal/nm 6015 msl 123 kts
Thu, Oct 25, 2018 KFCI KFCI 07:43 07:46 0.06 hrs 0.00 hrs 0.00 nm 0.18 gal 3.29 gal/hr 0.00 gal/nm 0 msl 0 kts
Thu, Oct 25, 2018     07:40 07:41 0.02 hrs 0.00 hrs 0.00 nm 0.00 gal 0.00 gal/hr 0.00 gal/nm 0 msl 0 kts
Wed, Oct 24, 2018     13:29 13:29 0 hrs 0.00 hrs 0.00 nm 0.00 gal 0.00 gal/hr 0.00 gal/nm 0 msl 0 kts
Sun, Oct 21, 2018 KFCI KFCI 18:27 19:14 0.76 hrs 0.54 hrs 60.51 nm 5.72 gal 7.53 gal/hr 0.09 gal/nm 3012 msl 109 kts
Sun, Oct 21, 2018     18:10 18:10 0.01 hrs 0.00 hrs 0.00 nm 0.00 gal 0.00 gal/hr 0.00 gal/nm 0 msl 0 kts
Sun, Oct 21, 2018     18:09 18:09 0.01 hrs 0.00 hrs 0.00 nm 0.00 gal 0.00 gal/hr 0.00 gal/nm 0 msl 0 kts
Thu, Oct 18, 2018 KEZF KFCI 13:26 14:12 0.74 hrs 0.49 hrs 58.08 nm 5.24 gal 7.10 gal/hr 0.09 gal/nm 3558 msl 116 kts
Thu, Oct 18, 2018 KFCI KEZF 10:29 11:30 0.97 hrs 0.60 hrs 66.73 nm 7.43 gal 7.66 gal/hr 0.11 gal/nm 3541 msl 108 kts
Thu, Oct 18, 2018 KFCI KFCI 10:27 10:29 0.03 hrs 0.00 hrs 0.00 nm 0.01 gal 0.17 gal/hr 0.00 gal/nm 0 msl 0 kts
Thu, Oct 18, 2018     09:54 09:57 0.05 hrs 0.00 hrs 0.00 nm 0.00 gal 0.00 gal/hr 0.00 gal/nm 0 msl 0 kts
Tue, Oct 16, 2018 KFCI KFCI 21:26 22:40 1.2 hrs 0.72 hrs 68.75 nm 8.03 gal 6.71 gal/hr 0.12 gal/nm 2516 msl 93 kts
Tue, Oct 16, 2018     21:04 21:06 0.04 hrs 0.00 hrs 0.00 nm 0.05 gal 1.22 gal/hr 0.00 gal/nm 0 msl 0 kts
Tue, Oct 16, 2018     18:36 18:36 0 hrs 0.00 hrs 0.00 nm 0.00 gal 0.00 gal/hr 0.00 gal/nm 0 msl 0 kts
Mon, Oct 15, 2018 KRUQ KFCI 13:00 14:34 1.52 hrs 1.16 hrs 186.08 nm 14.48 gal 9.50 gal/hr 0.08 gal/nm 7515 msl 156 kts
Sun, Oct 14, 2018 KJQF KRUQ 11:12 12:05 0.85 hrs 0.37 hrs 43.17 nm 5.36 gal 6.31 gal/hr 0.12 gal/nm 3534 msl 112 kts
Fri, Oct 12, 2018 KFCI KJQF 12:52 14:58 2.06 hrs 1.64 hrs 205.88 nm 20.46 gal 9.95 gal/hr 0.10 gal/nm 6549 msl 123 kts
Fri, Oct 12, 2018     12:07 12:09 0.03 hrs 0.00 hrs 0.00 nm 0.01 gal 0.30 gal/hr 0.00 gal/nm 0 msl 0 kts
Wed, Oct 10, 2018 KFCI KFCI 10:05 11:11 1.07 hrs 0.66 hrs 71.63 nm 7.84 gal 7.30 gal/hr 0.11 gal/nm 3090 msl 106 kts
Wed, Oct 10, 2018     09:26 09:27 0.02 hrs 0.00 hrs 0.00 nm 0.02 gal 0.96 gal/hr 0.00 gal/nm 0 msl 0 kts
Sun, Oct 7, 2018 KFCI KFCI 15:51 16:01 0.16 hrs 0.00 hrs 0.00 nm 0.05 gal 0.31 gal/hr 0.00 gal/nm 0 msl 0 kts
Sun, Oct 7, 2018 KFCI KFCI 15:46 15:47 0.03 hrs 0.00 hrs 0.00 nm 0.03 gal 1.19 gal/hr 0.00 gal/nm 0 msl 0 kts
Sun, Oct 7, 2018 KFCI KFCI 13:45 15:15 1.43 hrs 1.22 hrs 139.47 nm 12.98 gal 9.10 gal/hr 0.09 gal/nm 2908 msl 109 kts
Sun, Oct 7, 2018 KFCI KFCI 12:29 13:13 0.71 hrs 0.53 hrs 59.15 nm 5.63 gal 7.93 gal/hr 0.10 gal/nm 2260 msl 110 kts
Sun, Oct 7, 2018     12:06 12:08 0.02 hrs 0.00 hrs 0.00 nm 0.01 gal 0.60 gal/hr 0.00 gal/nm 0 msl 0 kts
Sat, Oct 6, 2018 KFCI KFCI 10:34 11:14 0.65 hrs 0.00 hrs 0.00 nm 0.06 gal 0.09 gal/hr 0.00 gal/nm 0 msl 0 kts
Fri, Oct 5, 2018 KFCI KFCI 07:38 08:11 0.54 hrs 0.21 hrs 17.65 nm 2.99 gal 5.51 gal/hr 0.17 gal/nm 1531 msl 82 kts
Fri, Oct 5, 2018     07:13 07:14 0.01 hrs 0.00 hrs 0.00 nm 0.00 gal 0.00 gal/hr 0.00 gal/nm 0 msl 0 kts
Wed, Oct 3, 2018 KFCI KFCI 12:23 14:04 1.62 hrs 0.98 hrs 97.42 nm 11.16 gal 6.87 gal/hr 0.11 gal/nm 3234 msl 96 kts
Wed, Oct 3, 2018     11:46 11:51 0.07 hrs 0.00 hrs 0.00 nm 0.01 gal 0.14 gal/hr 0.00 gal/nm 0 msl 0 kts
Sun, Sep 30, 2018     23:07 23:07 0.01 hrs 0.00 hrs 0.00 nm 0.03 gal 3.86 gal/hr 0.00 gal/nm 0 msl 0 kts
Sun, Sep 30, 2018 KART KFCI 18:48 22:48 3.91 hrs 3.44 hrs 413.95 nm 34.44 gal 8.82 gal/hr 0.08 gal/nm 6020 msl 118 kts
Sun, Sep 30, 2018 KART KART 18:30 18:32 0.03 hrs 0.00 hrs 0.00 nm 0.03 gal 1.19 gal/hr 0.00 gal/nm 0 msl 0 kts
Sat, Sep 29, 2018 KITH KART 11:46 13:13 1.43 hrs 1.01 hrs 119.63 nm 11.57 gal 8.11 gal/hr 0.10 gal/nm 7032 msl 116 kts
Sat, Sep 29, 2018 KITH KITH 11:36 11:39 0.06 hrs 0.00 hrs 0.00 nm 0.03 gal 0.54 gal/hr 0.00 gal/nm 0 msl 0 kts
Fri, Sep 28, 2018     11:52 11:53 0.02 hrs 0.00 hrs 0.00 nm 0.01 gal 0.48 gal/hr 0.00 gal/nm 0 msl 0 kts
Fri, Sep 28, 2018 KFCI KITH 08:49 11:51 2.97 hrs 2.57 hrs 343.60 nm 30.57 gal 10.31 gal/hr 0.09 gal/nm 7020 msl 131 kts
Fri, Sep 28, 2018     08:23 08:25 0.03 hrs 0.00 hrs 0.00 nm 0.01 gal 0.40 gal/hr 0.00 gal/nm 0 msl 0 kts
Wed, Sep 26, 2018     15:11 15:24 0.21 hrs 0.00 hrs 0.00 nm 0.00 gal 0.00 gal/hr 0.00 gal/nm 0 msl 0 kts
Wed, Sep 26, 2018     11:36 11:36 0 hrs 0.00 hrs 0.00 nm 0.01 gal 2.57 gal/hr 0.00 gal/nm 0 msl 0 kts
Wed, Sep 26, 2018 KFCI KFCI 10:35 11:35 0.98 hrs 0.66 hrs 62.61 nm 6.25 gal 6.37 gal/hr 0.10 gal/nm 4460 msl 94 kts
Wed, Sep 26, 2018     10:06 10:07 0.02 hrs 0.00 hrs 0.00 nm 0.02 gal 1.01 gal/hr 0.00 gal/nm 0 msl 0 kts
Tue, Sep 25, 2018     18:12 18:13 0.01 hrs 0.00 hrs 0.00 nm 0.01 gal 1.29 gal/hr 0.00 gal/nm 0 msl 0 kts
Tue, Sep 25, 2018 KFCI KFCI 17:14 18:12 0.94 hrs 0.64 hrs 71.74 nm 7.51 gal 8.03 gal/hr 0.10 gal/nm 2926 msl 109 kts
Tue, Sep 25, 2018 KFCI KFCI 15:09 15:37 0.46 hrs 0.27 hrs 22.65 nm 2.68 gal 5.81 gal/hr 0.12 gal/nm 1414 msl 83 kts
Tue, Sep 25, 2018 KFCI KFCI 14:28 14:58 0.5 hrs 0.21 hrs 18.43 nm 2.62 gal 5.28 gal/hr 0.14 gal/nm 1537 msl 86 kts
Tue, Sep 25, 2018     14:02 14:04 0.03 hrs 0.00 hrs 0.00 nm 0.01 gal 0.34 gal/hr 0.00 gal/nm 0 msl 0 kts
Sat, Sep 22, 2018 KEZF KFCI 14:50 15:41 0.83 hrs 0.57 hrs 66.92 nm 6.58 gal 7.89 gal/hr 0.10 gal/nm 3074 msl 115 kts
Sat, Sep 22, 2018 KFCI KEZF 10:22 11:11 0.79 hrs 0.52 hrs 57.33 nm 6.99 gal 8.85 gal/hr 0.12 gal/nm 3514 msl 109 kts
Sat, Sep 22, 2018     09:17 09:18 0.02 hrs 0.00 hrs 0.00 nm 0.01 gal 0.60 gal/hr 0.00 gal/nm 0 msl 0 kts
Fri, Sep 21, 2018     13:53 13:59 0.09 hrs 0.00 hrs 0.00 nm 0.06 gal 0.67 gal/hr 0.00 gal/nm 0 msl 0 kts
Fri, Sep 21, 2018     13:10 13:10 0.01 hrs 0.00 hrs 0.00 nm 0.04 gal 4.97 gal/hr 0.00 gal/nm 0 msl 0 kts
Fri, Sep 21, 2018 KFCI KFCI 11:12 13:05 1.84 hrs 1.35 hrs 133.95 nm 14.76 gal 8.00 gal/hr 0.11 gal/nm 2639 msl 97 kts
Fri, Sep 21, 2018     10:54 10:56 0.02 hrs 0.00 hrs 0.00 nm 0.02 gal 0.97 gal/hr 0.00 gal/nm 0 msl 0 kts
Thu, Sep 20, 2018 KFCI KFCI 07:47 08:26 0.62 hrs 0.39 hrs 40.70 nm 4.52 gal 7.25 gal/hr 0.11 gal/nm 3251 msl 103 kts
Thu, Sep 20, 2018     07:08 07:08 0.01 hrs 0.00 hrs 0.00 nm 0.00 gal 0.00 gal/hr 0.00 gal/nm 0 msl 0 kts
Wed, Sep 19, 2018 KFCI KFCI 14:59 16:50 1.81 hrs 1.21 hrs 123.12 nm 13.67 gal 7.55 gal/hr 0.11 gal/nm 4068 msl 100 kts
Wed, Sep 19, 2018     14:28 14:30 0.03 hrs 0.00 hrs 0.00 nm 0.11 gal 3.27 gal/hr 0.00 gal/nm 0 msl 0 kts
Thu, Sep 13, 2018     18:21 18:22 0.02 hrs 0.00 hrs 0.00 nm 0.07 gal 4.20 gal/hr 0.00 gal/nm 0 msl 0 kts
Thu, Sep 13, 2018 KFCI KFCI 14:40 14:44 0.06 hrs 0.00 hrs 0.00 nm 0.21 gal 3.74 gal/hr 0.00 gal/nm 0 msl 0 kts
Thu, Sep 13, 2018 KFCI KFCI 14:38 14:40 0.02 hrs 0.00 hrs 0.00 nm 0.08 gal 3.79 gal/hr 0.00 gal/nm 0 msl 0 kts
Thu, Sep 13, 2018 KFCI KFCI 09:31 09:34 0.05 hrs 0.00 hrs 0.00 nm 0.03 gal 0.59 gal/hr 0.00 gal/nm 0 msl 0 kts
Thu, Sep 13, 2018     09:28 09:30 0.03 hrs 0.00 hrs 0.00 nm 0.01 gal 0.34 gal/hr 0.00 gal/nm 0 msl 0 kts
Tue, Sep 11, 2018     13:36 13:37 0.02 hrs 0.00 hrs 0.00 nm 0.01 gal 0.48 gal/hr 0.00 gal/nm 0 msl 0 kts
Tue, Sep 11, 2018 KFCI KFCI 11:47 11:53 0.08 hrs 0.00 hrs 0.00 nm 0.26 gal 3.24 gal/hr 0.00 gal/nm 0 msl 0 kts
Mon, Sep 10, 2018 KFCI KFCI 10:27 10:58 0.5 hrs 0.00 hrs 0.00 nm 0.06 gal 0.12 gal/hr 0.00 gal/nm 0 msl 0 kts
Sun, Sep 9, 2018 KFCI KFCI 14:27 15:39 1.16 hrs 0.00 hrs 0.00 nm 0.07 gal 0.06 gal/hr 0.00 gal/nm 0 msl 0 kts
Fri, Sep 7, 2018     20:34 20:36 0.03 hrs 0.00 hrs 0.00 nm 0.06 gal 1.79 gal/hr 0.00 gal/nm 0 msl 0 kts
Fri, Sep 7, 2018 33N 33N 18:20 18:25 0.07 hrs 0.00 hrs 0.00 nm 0.25 gal 3.49 gal/hr 0.00 gal/nm 0 msl 0 kts
Fri, Sep 7, 2018     18:15 18:16 0.02 hrs 0.00 hrs 0.00 nm 0.02 gal 0.96 gal/hr 0.00 gal/nm 0 msl 0 kts
Fri, Sep 7, 2018 33N 33N 16:36 16:38 0.03 hrs 0.00 hrs 0.00 nm 0.14 gal 4.07 gal/hr 0.00 gal/nm 0 msl 0 kts
Fri, Sep 7, 2018 KCDW 33N 14:46 16:28 1.67 hrs 1.16 hrs 146.11 nm 14.19 gal 8.52 gal/hr 0.10 gal/nm 6012 msl 123 kts
Fri, Sep 7, 2018     14:36 14:37 0.01 hrs 0.00 hrs 0.00 nm 0.14 gal 21.91 gal/hr 0.00 gal/nm 0 msl 0 kts
Tue, Sep 4, 2018     20:36 20:37 0.01 hrs 0.00 hrs 0.00 nm 0.02 gal 2.57 gal/hr 0.00 gal/nm 0 msl 0 kts
Mon, Sep 3, 2018 KFCI KLYH 18:57 19:58 1 hrs 0.66 hrs 81.48 nm 7.58 gal 7.61 gal/hr 0.09 gal/nm 4012 msl 120 kts
Mon, Sep 3, 2018     18:34 18:35 0.01 hrs 0.00 hrs 0.00 nm 0.00 gal 0.00 gal/hr 0.00 gal/nm 0 msl 0 kts
Mon, Sep 3, 2018     17:17 17:18 0.01 hrs 0.00 hrs 0.00 nm 0.01 gal 1.29 gal/hr 0.00 gal/nm 0 msl 0 kts
Mon, Sep 3, 2018 KVUJ KFCI 15:01 16:54 1.84 hrs 1.51 hrs 196.01 nm 17.22 gal 9.35 gal/hr 0.09 gal/nm 3535 msl 127 kts
Mon, Sep 3, 2018 KFCI KVUJ 09:34 11:27 1.84 hrs 1.40 hrs 188.26 nm 16.54 gal 9.00 gal/hr 0.09 gal/nm 8518 msl 131 kts
Mon, Sep 3, 2018     09:16 09:18 0.03 hrs 0.00 hrs 0.00 nm 0.02 gal 0.60 gal/hr 0.00 gal/nm 0 msl 0 kts
Sun, Sep 2, 2018 KLWB KFCI 15:43 17:04 1.33 hrs 1.15 hrs 141.55 nm 14.18 gal 10.63 gal/hr 0.10 gal/nm 7024 msl 121 kts
Sun, Sep 2, 2018 KFFT KLWB 12:30 14:33 2 hrs 1.83 hrs 231.63 nm 21.37 gal 10.69 gal/hr 0.09 gal/nm 9051 msl 124 kts
Sun, Sep 2, 2018     11:54 11:54 0 hrs 0.00 hrs 0.00 nm 0.01 gal 2.57 gal/hr 0.00 gal/nm 0 msl 0 kts
Fri, Aug 31, 2018 KFFT KFFT 17:43 17:45 0.03 hrs 0.00 hrs 0.00 nm 0.07 gal 2.67 gal/hr 0.00 gal/nm 0 msl 0 kts
Fri, Aug 31, 2018 K22 KFFT 16:29 17:37 1.09 hrs 0.97 hrs 121.23 nm 10.98 gal 10.04 gal/hr 0.09 gal/nm 5025 msl 122 kts
Fri, Aug 31, 2018 KFCI K22 13:39 16:04 2.37 hrs 2.09 hrs 251.55 nm 25.72 gal 10.87 gal/hr 0.10 gal/nm 10023 msl 118 kts
Fri, Aug 31, 2018     12:54 12:55 0.01 hrs 0.00 hrs 0.00 nm 0.01 gal 0.82 gal/hr 0.00 gal/nm 0 msl 0 kts
Thu, Aug 30, 2018 KFCI KFCI 12:33 12:35 0.03 hrs 0.00 hrs 0.00 nm 0.08 gal 2.50 gal/hr 0.00 gal/nm 0 msl 0 kts
Thu, Aug 30, 2018 KFVX KFCI 11:50 12:29 0.65 hrs 0.52 hrs 56.48 nm 5.61 gal 8.69 gal/hr 0.10 gal/nm 3256 msl 108 kts
Thu, Aug 30, 2018     11:12 11:13 0.01 hrs 0.00 hrs 0.00 nm 0.03 gal 2.45 gal/hr 0.00 gal/nm 0 msl 0 kts
Thu, Aug 30, 2018 KFCI KFVX 10:17 11:08 0.83 hrs 0.63 hrs 69.58 nm 6.44 gal 7.73 gal/hr 0.09 gal/nm 2991 msl 109 kts
Thu, Aug 30, 2018     09:49 09:51 0.04 hrs 0.00 hrs 0.00 nm 0.02 gal 0.53 gal/hr 0.00 gal/nm 0 msl 0 kts
Wed, Aug 29, 2018 KFCI KFCI 09:41 11:32 1.79 hrs 0.97 hrs 100.59 nm 11.25 gal 6.29 gal/hr 0.11 gal/nm 5015 msl 99 kts
Wed, Aug 29, 2018     09:23 09:25 0.04 hrs 0.00 hrs 0.00 nm 0.03 gal 0.71 gal/hr 0.00 gal/nm 0 msl 0 kts
Tue, Aug 28, 2018     13:11 13:12 0.02 hrs 0.00 hrs 0.00 nm 0.01 gal 0.47 gal/hr 0.00 gal/nm 0 msl 0 kts
Tue, Aug 28, 2018 KFCI KFCI 11:14 12:44 1.46 hrs 0.87 hrs 97.03 nm 10.27 gal 7.05 gal/hr 0.11 gal/nm 5163 msl 108 kts
Tue, Aug 28, 2018     10:55 10:57 0.03 hrs 0.00 hrs 0.00 nm 0.00 gal 0.00 gal/hr 0.00 gal/nm 0 msl 0 kts
Tue, Aug 28, 2018 KFCI KFCI 07:34 08:23 0.79 hrs 0.45 hrs 51.28 nm 5.45 gal 6.93 gal/hr 0.11 gal/nm 2551 msl 110 kts
Tue, Aug 28, 2018     07:07 07:07 0 hrs 0.00 hrs 0.00 nm 0.01 gal 2.57 gal/hr 0.00 gal/nm 0 msl 0 kts
Sun, Aug 26, 2018 KTGI KFCI 14:40 15:44 1.05 hrs 0.79 hrs 86.97 nm 8.69 gal 8.32 gal/hr 0.10 gal/nm 4679 msl 107 kts
Sun, Aug 26, 2018 KFCI KTGI 11:55 13:12 1.25 hrs 0.88 hrs 114.87 nm 11.36 gal 9.11 gal/hr 0.10 gal/nm 4515 msl 128 kts
Sun, Aug 26, 2018     11:26 11:26 0 hrs 0.00 hrs 0.00 nm 0.00 gal 0.00 gal/hr 0.00 gal/nm 0 msl 0 kts
Fri, Aug 24, 2018     15:10 15:11 0.02 hrs 0.00 hrs 0.00 nm 0.02 gal 1.20 gal/hr 0.00 gal/nm 0 msl 0 kts
Fri, Aug 24, 2018 KFCI KFCI 15:01 15:04 0.06 hrs 0.00 hrs 0.00 nm 0.16 gal 2.90 gal/hr 0.00 gal/nm 0 msl 0 kts
Fri, Aug 24, 2018 KFCI KFCI 14:37 14:40 0.04 hrs 0.00 hrs 0.00 nm 0.10 gal 2.37 gal/hr 0.00 gal/nm 0 msl 0 kts
Fri, Aug 24, 2018 KFCI KFCI 13:45 14:11 0.43 hrs 0.29 hrs 32.62 nm 3.32 gal 7.78 gal/hr 0.10 gal/nm 2515 msl 108 kts
Fri, Aug 24, 2018 KFCI KFCI 12:55 13:23 0.44 hrs 0.29 hrs 31.38 nm 3.32 gal 7.55 gal/hr 0.11 gal/nm 2734 msl 105 kts
Fri, Aug 24, 2018 KFCI KFCI 12:34 12:39 0.09 hrs 0.00 hrs 0.00 nm 0.19 gal 2.21 gal/hr 0.00 gal/nm 0 msl 0 kts
Fri, Aug 24, 2018 KFCI KFCI 12:23 12:24 0.02 hrs 0.00 hrs 0.00 nm 0.12 gal 5.76 gal/hr 0.00 gal/nm 0 msl 0 kts
Fri, Aug 24, 2018 KFCI KFCI 10:49 12:19 1.46 hrs 0.63 hrs 61.89 nm 8.29 gal 5.68 gal/hr 0.13 gal/nm 2330 msl 96 kts
Fri, Aug 24, 2018 KFCI KFCI 10:37 10:40 0.04 hrs 0.00 hrs 0.00 nm 0.04 gal 0.95 gal/hr 0.00 gal/nm 0 msl 0 kts
Fri, Aug 24, 2018     09:25 09:26 0 hrs 0.00 hrs 0.00 nm 0.01 gal 4.00 gal/hr 0.00 gal/nm 0 msl 0 kts
Fri, Aug 24, 2018     08:20 08:22 0.03 hrs 0.00 hrs 0.00 nm 0.03 gal 1.07 gal/hr 0.00 gal/nm 0 msl 0 kts
Tue, Aug 21, 2018     14:48 14:48 0 hrs 0.00 hrs 0.00 nm 0.01 gal 5.14 gal/hr 0.00 gal/nm 0 msl 0 kts
Sat, Aug 18, 2018 KLYH KFCI 10:22 11:38 1.23 hrs 0.87 hrs 108.79 nm 9.18 gal 7.44 gal/hr 0.08 gal/nm 5428 msl 122 kts
Sat, Aug 18, 2018 KFCI KLYH 08:23 09:46 1.35 hrs 1.00 hrs 111.74 nm 10.54 gal 7.82 gal/hr 0.09 gal/nm 4105 msl 109 kts
Sat, Aug 18, 2018     07:34 07:35 0.01 hrs 0.00 hrs 0.00 nm 0.05 gal 4.50 gal/hr 0.00 gal/nm 0 msl 0 kts
Fri, Aug 17, 2018 KMQI KFCI 17:12 18:33 1.31 hrs 1.12 hrs 131.17 nm 11.83 gal 9.00 gal/hr 0.09 gal/nm 2530 msl 115 kts
Fri, Aug 17, 2018 KFCI KMQI 10:02 11:22 1.31 hrs 1.07 hrs 134.38 nm 11.41 gal 8.71 gal/hr 0.08 gal/nm 3518 msl 123 kts
Fri, Aug 17, 2018     09:43 09:43 0.01 hrs 0.00 hrs 0.00 nm 0.01 gal 1.24 gal/hr 0.00 gal/nm 0 msl 0 kts
Fri, Aug 17, 2018     09:35 09:36 0.02 hrs 0.00 hrs 0.00 nm 0.03 gal 1.80 gal/hr 0.00 gal/nm 0 msl 0 kts
Tue, Aug 14, 2018     21:58 21:58 0 hrs 0.00 hrs 0.00 nm 0.01 gal 2.57 gal/hr 0.00 gal/nm 0 msl 0 kts
Sun, Aug 12, 2018 KFCI KFCI 12:47 14:05 1.27 hrs 0.75 hrs 68.89 nm 8.82 gal 6.97 gal/hr 0.13 gal/nm 3139 msl 89 kts
Sun, Aug 12, 2018 KFCI KFCI 12:34 12:36 0.03 hrs 0.00 hrs 0.00 nm 0.12 gal 3.57 gal/hr 0.00 gal/nm 0 msl 0 kts
Sun, Aug 12, 2018 KFCI KFCI 12:25 12:27 0.04 hrs 0.00 hrs 0.00 nm 0.07 gal 1.84 gal/hr 0.00 gal/nm 0 msl 0 kts
Sun, Aug 12, 2018     12:20 12:21 0 hrs 0.00 hrs 0.00 nm 0.01 gal 2.77 gal/hr 0.00 gal/nm 0 msl 0 kts
Sun, Aug 12, 2018 KFCI KFCI 10:57 12:13 1.25 hrs 0.62 hrs 53.00 nm 7.37 gal 5.90 gal/hr 0.14 gal/nm 4829 msl 83 kts
Sun, Aug 12, 2018     10:30 10:33 0.06 hrs 0.00 hrs 0.00 nm 0.05 gal 0.90 gal/hr 0.00 gal/nm 0 msl 0 kts
Thu, Aug 9, 2018     17:19 17:19 0.01 hrs 0.00 hrs 0.00 nm 0.01 gal 1.24 gal/hr 0.00 gal/nm 0 msl 0 kts
Thu, Aug 9, 2018 KCPK KFCI 16:07 17:05 0.94 hrs 0.70 hrs 81.36 nm 8.64 gal 9.17 gal/hr 0.11 gal/nm 4690 msl 113 kts
Thu, Aug 9, 2018 KFCI KCPK 09:27 10:31 1.03 hrs 0.65 hrs 81.47 nm 8.07 gal 7.80 gal/hr 0.10 gal/nm 3864 msl 122 kts
Thu, Aug 9, 2018     09:00 09:02 0.03 hrs 0.00 hrs 0.00 nm 0.04 gal 1.60 gal/hr 0.00 gal/nm 0 msl 0 kts
Tue, Aug 7, 2018     20:04 20:05 0.01 hrs 0.00 hrs 0.00 nm 0.04 gal 3.27 gal/hr 0.00 gal/nm 0 msl 0 kts
Tue, Aug 7, 2018 KFCI KFCI 07:02 07:49 0.76 hrs 0.36 hrs 42.90 nm 4.81 gal 6.28 gal/hr 0.11 gal/nm 2765 msl 115 kts
Sun, Aug 5, 2018     15:03 15:03 0 hrs 0.00 hrs 0.00 nm 0.00 gal 0.00 gal/hr 0.00 gal/nm 0 msl 0 kts
Sun, Aug 5, 2018     13:32 13:32 0 hrs 0.00 hrs 0.00 nm 0.00 gal 0.00 gal/hr 0.00 gal/nm 0 msl 0 kts
Sat, Aug 4, 2018 KFDK KFCI 16:10 17:53 1.67 hrs 1.39 hrs 183.22 nm 16.70 gal 10.02 gal/hr 0.09 gal/nm 6149 msl 128 kts
Sat, Aug 4, 2018     09:03 09:04 0.01 hrs 0.00 hrs 0.00 nm 0.03 gal 2.45 gal/hr 0.00 gal/nm 0 msl 0 kts
Sat, Aug 4, 2018 KFCI KFDK 07:33 09:03 1.47 hrs 1.21 hrs 146.17 nm 13.65 gal 9.30 gal/hr 0.09 gal/nm 6071 msl 118 kts
Fri, Aug 3, 2018 KFCI KFCI 08:19 08:34 0.24 hrs 0.00 hrs 0.00 nm 0.68 gal 2.78 gal/hr 0.00 gal/nm 0 msl 0 kts
Fri, Aug 3, 2018     08:02 08:02 0 hrs 0.00 hrs 0.00 nm 0.01 gal 2.57 gal/hr 0.00 gal/nm 0 msl 0 kts
Sat, Jul 28, 2018     12:41 12:41 0 hrs 0.00 hrs 0.00 nm 0.00 gal 0.00 gal/hr 0.00 gal/nm 0 msl 0 kts
Sat, Jul 28, 2018 KFCI KFCI 11:52 12:40 0.8 hrs 0.34 hrs 31.50 nm 4.52 gal 5.68 gal/hr 0.14 gal/nm 1876 msl 91 kts
Sat, Jul 28, 2018     09:15 09:15 0.01 hrs 0.00 hrs 0.00 nm 0.01 gal 1.24 gal/hr 0.00 gal/nm 0 msl 0 kts
Fri, Jul 27, 2018     13:00 13:01 0.03 hrs 0.00 hrs 0.00 nm 0.00 gal 0.00 gal/hr 0.00 gal/nm 0 msl 0 kts
Fri, Jul 27, 2018 KFCI KFCI 11:00 12:22 1.34 hrs 0.97 hrs 106.66 nm 10.97 gal 8.20 gal/hr 0.10 gal/nm 2571 msl 107 kts
Fri, Jul 27, 2018     10:17 10:19 0.03 hrs 0.00 hrs 0.00 nm 0.10 gal 3.40 gal/hr 0.00 gal/nm 0 msl 0 kts
Thu, Jul 26, 2018 KFCI KFCI 10:36 10:38 0.03 hrs 0.00 hrs 0.00 nm 0.03 gal 1.20 gal/hr 0.00 gal/nm 0 msl 0 kts
Sun, Jul 15, 2018 KFCI KFCI 11:41 11:51 0.15 hrs 0.00 hrs 0.00 nm 0.45 gal 3.04 gal/hr 0.00 gal/nm 0 msl 0 kts
Sun, Jul 15, 2018     09:27 09:29 0.03 hrs 0.00 hrs 0.00 nm 0.05 gal 1.49 gal/hr 0.00 gal/nm 0 msl 0 kts
Sat, Jul 14, 2018     22:00 22:00 0 hrs 0.00 hrs 0.00 nm 0.01 gal 2.57 gal/hr 0.00 gal/nm 0 msl 0 kts
Sat, Jul 14, 2018     20:29 20:32 0.04 hrs 0.00 hrs 0.00 nm 0.07 gal 1.85 gal/hr 0.00 gal/nm 0 msl 0 kts
Sat, Jul 14, 2018 W91 KFCI 13:05 14:17 1.17 hrs 0.95 hrs 116.22 nm 10.31 gal 8.84 gal/hr 0.09 gal/nm 3550 msl 119 kts
Sat, Jul 14, 2018     12:55 12:56 0.01 hrs 0.00 hrs 0.00 nm 0.05 gal 4.09 gal/hr 0.00 gal/nm 0 msl 0 kts
Sat, Jul 14, 2018 KFCI W91 09:54 11:12 1.27 hrs 0.97 hrs 115.66 nm 11.57 gal 9.12 gal/hr 0.10 gal/nm 4673 msl 115 kts
Sat, Jul 14, 2018     08:45 08:46 0.03 hrs 0.00 hrs 0.00 nm 0.07 gal 2.36 gal/hr 0.00 gal/nm 0 msl 0 kts
Sat, Jul 14, 2018     08:22 08:25 0.05 hrs 0.00 hrs 0.00 nm 0.10 gal 2.16 gal/hr 0.00 gal/nm 0 msl 0 kts
Fri, Jul 13, 2018     18:28 18:29 0 hrs 0.00 hrs 0.00 nm 0.01 gal 2.77 gal/hr 0.00 gal/nm 0 msl 0 kts
Fri, Jul 13, 2018 KTGI KFCI 17:05 18:12 1.09 hrs 0.85 hrs 108.79 nm 9.45 gal 8.67 gal/hr 0.09 gal/nm 4721 msl 126 kts
Fri, Jul 13, 2018 KFCI KTGI 14:53 16:05 1.17 hrs 0.86 hrs 98.73 nm 10.11 gal 8.63 gal/hr 0.10 gal/nm 3711 msl 112 kts
Fri, Jul 13, 2018     14:17 14:18 0.01 hrs 0.00 hrs 0.00 nm 0.02 gal 2.57 gal/hr 0.00 gal/nm 0 msl 0 kts
Tue, Jul 10, 2018     05:41 05:42 0.01 hrs 0.00 hrs 0.00 nm 0.10 gal 12.86 gal/hr 0.00 gal/nm 0 msl 0 kts
Tue, Jul 10, 2018 KFCI KFCI 05:08 05:38 0.5 hrs 0.22 hrs 17.93 nm 2.51 gal 4.97 gal/hr 0.14 gal/nm 1165 msl 79 kts
Tue, Jul 10, 2018     04:49 04:52 0.06 hrs 0.00 hrs 0.00 nm 0.02 gal 0.36 gal/hr 0.00 gal/nm 0 msl 0 kts
Mon, Jul 9, 2018 KMRB KFCI 20:44 22:25 1.63 hrs 1.14 hrs 146.99 nm 13.51 gal 8.30 gal/hr 0.09 gal/nm 5517 msl 125 kts
Mon, Jul 9, 2018 KFCI KMRB 17:22 18:47 1.37 hrs 1.07 hrs 131.56 nm 12.72 gal 9.30 gal/hr 0.10 gal/nm 3895 msl 119 kts
Mon, Jul 9, 2018     16:57 16:58 0.01 hrs 0.00 hrs 0.00 nm 0.02 gal 2.57 gal/hr 0.00 gal/nm 0 msl 0 kts
Mon, Jul 9, 2018 KFCI KFCI 14:01 14:05 0.07 hrs 0.00 hrs 0.00 nm 0.22 gal 2.99 gal/hr 0.00 gal/nm 0 msl 0 kts
Mon, Jul 9, 2018     11:53 11:53 0 hrs 0.00 hrs 0.00 nm 0.00 gal 0.00 gal/hr 0.00 gal/nm 0 msl 0 kts
Mon, Jul 9, 2018 KFCI KFCI 11:14 11:25 0.18 hrs 0.00 hrs 0.00 nm 0.48 gal 2.68 gal/hr 0.00 gal/nm 0 msl 0 kts
Sun, Jul 8, 2018     20:07 20:07 0 hrs 0.00 hrs 0.00 nm 0.01 gal 2.57 gal/hr 0.00 gal/nm 0 msl 0 kts
Sun, Jul 8, 2018 KEZF KFCI 19:02 19:48 0.75 hrs 0.48 hrs 59.21 nm 6.14 gal 8.16 gal/hr 0.10 gal/nm 4514 msl 121 kts
Sun, Jul 8, 2018 KFCI KEZF 13:13 14:12 0.96 hrs 0.51 hrs 57.84 nm 6.18 gal 6.42 gal/hr 0.11 gal/nm 3045 msl 110 kts
Sun, Jul 8, 2018     12:42 12:43 0.01 hrs 0.00 hrs 0.00 nm 0.00 gal 0.00 gal/hr 0.00 gal/nm 0 msl 0 kts
Sun, Jul 8, 2018     09:57 09:58 0 hrs 0.00 hrs 0.00 nm 0.00 gal 0.00 gal/hr 0.00 gal/nm 0 msl 0 kts
Sun, Jul 8, 2018 KFCI KFCI 08:42 09:44 1 hrs 0.53 hrs 61.84 nm 6.70 gal 6.70 gal/hr 0.11 gal/nm 3640 msl 112 kts
Sun, Jul 8, 2018     07:57 07:58 0 hrs 0.00 hrs 0.00 nm 0.00 gal 0.00 gal/hr 0.00 gal/nm 0 msl 0 kts
Mon, Jul 2, 2018     13:51 13:51 0 hrs 0.00 hrs 0.00 nm 0.00 gal 0.00 gal/hr 0.00 gal/nm 0 msl 0 kts
Mon, Jul 2, 2018 KFCI KFCI 09:40 11:04 1.35 hrs 0.81 hrs 82.55 nm 9.71 gal 7.18 gal/hr 0.12 gal/nm 3344 msl 98 kts
Mon, Jul 2, 2018     09:24 09:27 0.05 hrs 0.00 hrs 0.00 nm 0.07 gal 1.38 gal/hr 0.00 gal/nm 0 msl 0 kts
Sat, Jun 30, 2018 KSFQ KFCI 19:12 20:08 0.91 hrs 0.57 hrs 69.79 nm 7.37 gal 8.09 gal/hr 0.11 gal/nm 4515 msl 120 kts
Sat, Jun 30, 2018 KFCI KSFQ 17:26 18:18 0.85 hrs 0.55 hrs 65.77 nm 6.88 gal 8.13 gal/hr 0.10 gal/nm 3519 msl 117 kts
Sat, Jun 30, 2018     17:04 17:04 0.01 hrs 0.00 hrs 0.00 nm 0.00 gal 0.00 gal/hr 0.00 gal/nm 0 msl 0 kts
Sat, Jun 30, 2018 KFCI KFCI 09:24 10:40 1.23 hrs 0.77 hrs 87.17 nm 9.37 gal 7.62 gal/hr 0.11 gal/nm 3996 msl 110 kts
Sat, Jun 30, 2018     08:33 08:35 0.03 hrs 0.00 hrs 0.00 nm 0.04 gal 1.19 gal/hr 0.00 gal/nm 0 msl 0 kts
Fri, Jun 29, 2018     15:38 15:38 0 hrs 0.00 hrs 0.00 nm 0.00 gal 0.00 gal/hr 0.00 gal/nm 0 msl 0 kts
Fri, Jun 29, 2018     13:58 13:58 0 hrs 0.00 hrs 0.00 nm 0.00 gal 0.00 gal/hr 0.00 gal/nm 0 msl 0 kts
Fri, Jun 29, 2018 KFCI KMRB 11:03 12:29 1.4 hrs 1.03 hrs 126.45 nm 11.73 gal 8.37 gal/hr 0.09 gal/nm 3191 msl 120 kts
Fri, Jun 29, 2018 KFCI KFCI 09:00 10:03 1.03 hrs 0.67 hrs 68.97 nm 7.57 gal 7.34 gal/hr 0.11 gal/nm 3489 msl 100 kts
Fri, Jun 29, 2018     08:29 08:29 0 hrs 0.00 hrs 0.00 nm 0.00 gal 0.00 gal/hr 0.00 gal/nm 0 msl 0 kts
Thu, Jun 28, 2018 KFCI KFCI 11:26 12:54 1.43 hrs 1.11 hrs 125.89 nm 11.84 gal 8.27 gal/hr 0.09 gal/nm 3132 msl 111 kts
Thu, Jun 28, 2018     11:20 11:21 0.01 hrs 0.00 hrs 0.00 nm 0.01 gal 1.29 gal/hr 0.00 gal/nm 0 msl 0 kts
Thu, Jun 28, 2018     10:52 10:53 0.02 hrs 0.00 hrs 0.00 nm 0.06 gal 2.88 gal/hr 0.00 gal/nm 0 msl 0 kts
Tue, Jun 26, 2018 KCGS KFCI 16:01 17:17 1.24 hrs 0.99 hrs 117.35 nm 10.61 gal 8.56 gal/hr 0.09 gal/nm 8047 msl 117 kts
Tue, Jun 26, 2018     15:59 15:59 0.01 hrs 0.00 hrs 0.00 nm 0.09 gal 7.20 gal/hr 0.00 gal/nm 0 msl 0 kts
Tue, Jun 26, 2018 KFCI KCGS 07:20 08:35 1.22 hrs 0.99 hrs 115.78 nm 9.36 gal 7.65 gal/hr 0.08 gal/nm 6098 msl 115 kts
Tue, Jun 26, 2018     07:09 07:09 0 hrs 0.00 hrs 0.00 nm 0.00 gal 0.00 gal/hr 0.00 gal/nm 0 msl 0 kts
Mon, Jun 25, 2018     17:40 17:40 0.01 hrs 0.00 hrs 0.00 nm 0.06 gal 4.86 gal/hr 0.00 gal/nm 0 msl 0 kts
Mon, Jun 25, 2018     16:53 16:54 0.01 hrs 0.00 hrs 0.00 nm 0.03 gal 3.86 gal/hr 0.00 gal/nm 0 msl 0 kts
Sun, Jun 24, 2018     17:24 17:25 0.02 hrs 0.00 hrs 0.00 nm 0.06 gal 3.60 gal/hr 0.00 gal/nm 0 msl 0 kts
Sun, Jun 24, 2018     09:24 09:25 0.02 hrs 0.00 hrs 0.00 nm 0.04 gal 2.40 gal/hr 0.00 gal/nm 0 msl 0 kts
Tue, Jun 19, 2018     20:43 23:41 2.9 hrs 0.00 hrs 0.00 nm 0.11 gal 0.04 gal/hr 0.00 gal/nm 0 msl 0 kts
Tue, Jun 19, 2018     20:33 20:36 0.05 hrs 0.00 hrs 0.00 nm 0.05 gal 1.08 gal/hr 0.00 gal/nm 0 msl 0 kts
Tue, Jun 19, 2018     20:24 20:27 0.06 hrs 0.00 hrs 0.00 nm 0.05 gal 0.90 gal/hr 0.00 gal/nm 0 msl 0 kts
Mon, Jun 18, 2018 KCGE KFCI 13:55 14:53 0.95 hrs 0.81 hrs 105.95 nm 10.35 gal 10.91 gal/hr 0.10 gal/nm 6017 msl 128 kts
Mon, Jun 18, 2018 KFCI KCGE 11:37 12:52 1.22 hrs 0.90 hrs 108.40 nm 11.67 gal 9.54 gal/hr 0.11 gal/nm 7018 msl 118 kts
Mon, Jun 18, 2018     11:16 11:16 0.01 hrs 0.00 hrs 0.00 nm 0.01 gal 1.24 gal/hr 0.00 gal/nm 0 msl 0 kts
Mon, Jun 18, 2018     10:08 10:09 0.01 hrs 0.00 hrs 0.00 nm 0.02 gal 1.64 gal/hr 0.00 gal/nm 0 msl 0 kts
Sun, Jun 17, 2018     22:42 22:44 0.04 hrs 0.00 hrs 0.00 nm 0.02 gal 0.53 gal/hr 0.00 gal/nm 0 msl 0 kts
Sun, Jun 17, 2018 KMRB KFCI 21:02 22:24 1.33 hrs 1.05 hrs 136.21 nm 11.78 gal 8.85 gal/hr 0.09 gal/nm 3525 msl 127 kts
Sun, Jun 17, 2018 KFCI KMRB 18:11 19:43 1.49 hrs 1.16 hrs 135.06 nm 16.54 gal 11.11 gal/hr 0.12 gal/nm 4727 msl 114 kts
Sun, Jun 17, 2018     17:50 17:51 0 hrs 0.00 hrs 0.00 nm 0.01 gal 2.57 gal/hr 0.00 gal/nm 0 msl 0 kts
Sat, Jun 16, 2018 KPTB KFCI 11:45 12:11 0.43 hrs 0.23 hrs 22.91 nm 2.70 gal 6.33 gal/hr 0.12 gal/nm 3523 msl 99 kts
Sat, Jun 16, 2018 KFCI KPTB 10:36 11:26 0.82 hrs 0.48 hrs 43.85 nm 5.21 gal 6.35 gal/hr 0.12 gal/nm 3016 msl 90 kts
Sat, Jun 16, 2018 KFCI KFCI 08:12 10:10 1.92 hrs 1.62 hrs 194.18 nm 14.76 gal 7.69 gal/hr 0.08 gal/nm 5217 msl 117 kts
Sat, Jun 16, 2018     07:03 07:04 0.01 hrs 0.00 hrs 0.00 nm 0.05 gal 6.43 gal/hr 0.00 gal/nm 0 msl 0 kts
Fri, Jun 15, 2018     14:13 14:13 0 hrs 0.00 hrs 0.00 nm 0.01 gal 2.57 gal/hr 0.00 gal/nm 0 msl 0 kts
Fri, Jun 15, 2018 KFCI KMRB 12:42 14:12 1.46 hrs 1.12 hrs 135.53 nm 13.65 gal 9.34 gal/hr 0.10 gal/nm 3761 msl 118 kts
Fri, Jun 15, 2018 KFCI KFCI 10:24 11:26 1 hrs 0.67 hrs 69.22 nm 7.19 gal 7.22 gal/hr 0.10 gal/nm 3364 msl 101 kts
Sat, Jun 9, 2018     14:28 14:30 0.03 hrs 0.00 hrs 0.00 nm 0.01 gal 0.34 gal/hr 0.00 gal/nm 0 msl 0 kts
Sat, Jun 9, 2018     13:10 13:11 0.01 hrs 0.00 hrs 0.00 nm 0.01 gal 0.82 gal/hr 0.00 gal/nm 0 msl 0 kts
Sat, Jun 9, 2018 KFCI KFCI 11:23 11:50 0.45 hrs 0.26 hrs 28.20 nm 3.35 gal 7.47 gal/hr 0.12 gal/nm 2440 msl 105 kts
Sat, Jun 9, 2018     11:02 11:03 0.02 hrs 0.00 hrs 0.00 nm 0.02 gal 1.20 gal/hr 0.00 gal/nm 0 msl 0 kts
Sat, Jun 9, 2018 KFCI KFCI 09:05 09:08 0.05 hrs 0.00 hrs 0.00 nm 0.14 gal 3.08 gal/hr 0.00 gal/nm 0 msl 0 kts
Fri, Jun 8, 2018 KFCI KFCI 14:43 14:44 0.02 hrs 0.00 hrs 0.00 nm 0.06 gal 2.88 gal/hr 0.00 gal/nm 0 msl 0 kts
Fri, Jun 8, 2018 KJGG KFCI 14:07 14:42 0.58 hrs 0.43 hrs 48.04 nm 4.84 gal 8.39 gal/hr 0.10 gal/nm 2641 msl 109 kts
Fri, Jun 8, 2018 W97 KJGG 12:55 13:18 0.38 hrs 0.25 hrs 25.23 nm 2.84 gal 7.39 gal/hr 0.11 gal/nm 1846 msl 98 kts
Fri, Jun 8, 2018 KFCI W97 11:52 12:35 0.7 hrs 0.48 hrs 54.93 nm 5.29 gal 7.55 gal/hr 0.10 gal/nm 2526 msl 112 kts
Tue, Jun 5, 2018 KFCI KFCI 19:31 20:51 1.29 hrs 0.88 hrs 92.84 nm 9.27 gal 7.19 gal/hr 0.10 gal/nm 3016 msl 102 kts
Tue, Jun 5, 2018     18:42 18:42 0 hrs 0.00 hrs 0.00 nm 0.01 gal 2.57 gal/hr 0.00 gal/nm 0 msl 0 kts
Tue, Jun 5, 2018 KFCI KFCI 16:08 16:56 0.77 hrs 0.40 hrs 39.36 nm 4.89 gal 6.34 gal/hr 0.12 gal/nm 2314 msl 95 kts
Mon, Jun 4, 2018 KFCI KFCI 17:23 18:36 1.15 hrs 0.78 hrs 95.70 nm 9.36 gal 8.15 gal/hr 0.10 gal/nm 2482 msl 116 kts
Mon, Jun 4, 2018 KFCI KFCI 14:18 16:32 2.19 hrs 1.73 hrs 193.58 nm 18.42 gal 8.42 gal/hr 0.10 gal/nm 3638 msl 110 kts
Fri, Jun 1, 2018     06:54 06:55 0.03 hrs 0.00 hrs 0.00 nm 0.02 gal 0.79 gal/hr 0.00 gal/nm 0 msl 0 kts
Tue, May 29, 2018 KFCI KFCI 18:06 20:07 1.94 hrs 0.93 hrs 85.62 nm 11.23 gal 5.79 gal/hr 0.13 gal/nm 3013 msl 88 kts
Tue, May 29, 2018     17:38 17:41 0.04 hrs 0.00 hrs 0.00 nm 0.01 gal 0.24 gal/hr 0.00 gal/nm 0 msl 0 kts
Sat, May 26, 2018 KPVG KFCI 10:24 11:12 0.78 hrs 0.61 hrs 68.67 nm 7.46 gal 9.54 gal/hr 0.11 gal/nm 4731 msl 110 kts
Sat, May 26, 2018 KFCI KPVG 08:46 09:40 0.89 hrs 0.55 hrs 69.46 nm 7.20 gal 8.07 gal/hr 0.10 gal/nm 5014 msl 123 kts
Sat, May 26, 2018     08:34 08:34 0 hrs 0.00 hrs 0.00 nm 0.00 gal 0.00 gal/hr 0.00 gal/nm 0 msl 0 kts
Fri, May 25, 2018     13:45 13:48 0.06 hrs 0.00 hrs 0.00 nm 0.05 gal 0.90 gal/hr 0.00 gal/nm 0 msl 0 kts
Fri, May 25, 2018     09:41 09:41 0 hrs 0.00 hrs 0.00 nm 0.04 gal 10.29 gal/hr 0.00 gal/nm 0 msl 0 kts
Fri, May 25, 2018 KLDJ KFCI 06:49 09:40 2.78 hrs 2.50 hrs 283.01 nm 23.34 gal 8.40 gal/hr 0.08 gal/nm 6007 msl 111 kts
Fri, May 25, 2018     06:29 06:31 0.02 hrs 0.00 hrs 0.00 nm 0.07 gal 3.42 gal/hr 0.00 gal/nm 0 msl 0 kts
Thu, May 24, 2018 KFCI KLDJ 08:04 10:54 2.78 hrs 2.50 hrs 269.99 nm 22.09 gal 7.95 gal/hr 0.08 gal/nm 5012 msl 106 kts
Thu, May 24, 2018     07:57 07:57 0 hrs 0.00 hrs 0.00 nm 0.01 gal 2.57 gal/hr 0.00 gal/nm 0 msl 0 kts
Wed, May 23, 2018 KFCI KFCI 14:28 14:42 0.22 hrs 0.00 hrs 0.00 nm 1.35 gal 6.07 gal/hr 0.00 gal/nm 0 msl 0 kts
Wed, May 23, 2018     11:43 11:44 0.01 hrs 0.00 hrs 0.00 nm 0.02 gal 1.64 gal/hr 0.00 gal/nm 0 msl 0 kts
Sat, May 19, 2018     13:45 13:55 0.17 hrs 0.00 hrs 0.00 nm 0.07 gal 0.41 gal/hr 0.00 gal/nm 0 msl 0 kts
Mon, May 14, 2018     15:07 15:07 0 hrs 0.00 hrs 0.00 nm 0.01 gal 2.57 gal/hr 0.00 gal/nm 0 msl 0 kts
Sun, May 13, 2018 KFCI KFCI 10:55 11:26 0.52 hrs 0.00 hrs 0.00 nm 1.17 gal 2.27 gal/hr 0.00 gal/nm 0 msl 0 kts
Sun, May 13, 2018     10:37 10:37 0 hrs 0.00 hrs 0.00 nm 0.00 gal 0.00 gal/hr 0.00 gal/nm 0 msl 0 kts
Sat, May 12, 2018 KFCI KFCI 08:28 09:52 1.35 hrs 0.96 hrs 104.47 nm 9.91 gal 7.36 gal/hr 0.09 gal/nm 2327 msl 104 kts
Sat, May 12, 2018     08:04 08:04 0.01 hrs 0.00 hrs 0.00 nm 0.00 gal 0.00 gal/hr 0.00 gal/nm 0 msl 0 kts
Fri, May 11, 2018 KFCI KFCI 17:15 18:14 0.95 hrs 0.70 hrs 78.66 nm 6.95 gal 7.29 gal/hr 0.09 gal/nm 2712 msl 109 kts
Thu, May 10, 2018 KFCI KFCI 10:18 11:45 1.41 hrs 1.05 hrs 113.00 nm 12.33 gal 8.72 gal/hr 0.11 gal/nm 4352 msl 105 kts
Thu, May 10, 2018     10:07 10:07 0.01 hrs 0.00 hrs 0.00 nm 0.00 gal 0.00 gal/hr 0.00 gal/nm 0 msl 0 kts
Wed, May 9, 2018     13:19 13:19 0 hrs 0.00 hrs 0.00 nm 0.00 gal 0.00 gal/hr 0.00 gal/nm 0 msl 0 kts
Wed, May 9, 2018 KFCI KFCI 10:59 13:18 2.24 hrs 1.85 hrs 205.66 nm 15.04 gal 6.72 gal/hr 0.07 gal/nm 5175 msl 108 kts
Wed, May 9, 2018     10:24 10:26 0.02 hrs 0.00 hrs 0.00 nm 0.05 gal 2.43 gal/hr 0.00 gal/nm 0 msl 0 kts
Tue, May 8, 2018 KFCI KFCI 15:46 15:47 0.02 hrs 0.00 hrs 0.00 nm 0.05 gal 2.40 gal/hr 0.00 gal/nm 0 msl 0 kts
Tue, May 8, 2018 KFDK KFCI 14:10 15:38 1.45 hrs 1.14 hrs 137.19 nm 11.06 gal 7.65 gal/hr 0.08 gal/nm 3133 msl 118 kts
Tue, May 8, 2018 KFDK KFDK 12:26 12:28 0.03 hrs 0.00 hrs 0.00 nm 0.02 gal 0.69 gal/hr 0.00 gal/nm 0 msl 0 kts
Tue, May 8, 2018 KFDK KFDK 11:54 11:56 0.04 hrs 0.00 hrs 0.00 nm 0.09 gal 2.48 gal/hr 0.00 gal/nm 0 msl 0 kts
Tue, May 8, 2018 KFCI KFDK 10:21 11:51 1.47 hrs 1.16 hrs 138.79 nm 11.26 gal 7.67 gal/hr 0.08 gal/nm 3560 msl 117 kts
Tue, May 8, 2018     10:00 10:01 0.02 hrs 0.00 hrs 0.00 nm 0.01 gal 0.60 gal/hr 0.00 gal/nm 0 msl 0 kts
Fri, May 4, 2018 KFCI KFCI 11:42 12:55 1.17 hrs 0.90 hrs 90.14 nm 9.51 gal 8.10 gal/hr 0.11 gal/nm 4180 msl 96 kts
Fri, May 4, 2018 KFCI KFCI 09:52 11:20 1.42 hrs 1.00 hrs 93.79 nm 10.29 gal 7.26 gal/hr 0.11 gal/nm 2663 msl 89 kts
Fri, May 4, 2018     09:42 09:44 0.03 hrs 0.00 hrs 0.00 nm 0.00 gal 0.00 gal/hr 0.00 gal/nm 0 msl 0 kts
Fri, May 4, 2018     09:28 09:29 0.01 hrs 0.00 hrs 0.00 nm 0.00 gal 0.00 gal/hr 0.00 gal/nm 0 msl 0 kts
Fri, May 4, 2018 KFCI KFCI 08:07 09:01 0.84 hrs 0.54 hrs 53.77 nm 6.31 gal 7.49 gal/hr 0.12 gal/nm 2791 msl 93 kts
Fri, May 4, 2018     07:56 07:56 0 hrs 0.00 hrs 0.00 nm 0.01 gal 2.57 gal/hr 0.00 gal/nm 0 msl 0 kts
Tue, May 1, 2018 KFCI KFCI 19:00 20:22 1.31 hrs 0.39 hrs 39.29 nm 5.48 gal 4.18 gal/hr 0.14 gal/nm 2727 msl 98 kts
Tue, May 1, 2018     18:21 18:23 0.03 hrs 0.00 hrs 0.00 nm 0.01 gal 0.34 gal/hr 0.00 gal/nm 0 msl 0 kts
Tue, May 1, 2018 KFCI KFCI 09:06 09:09 0.04 hrs 0.00 hrs 0.00 nm 0.01 gal 0.28 gal/hr 0.00 gal/nm 0 msl 0 kts
Tue, May 1, 2018 KFCI KFCI 08:02 09:04 1.01 hrs 0.69 hrs 66.23 nm 6.09 gal 6.02 gal/hr 0.09 gal/nm 4688 msl 95 kts
Tue, May 1, 2018     07:39 07:39 0.01 hrs 0.00 hrs 0.00 nm 0.01 gal 0.80 gal/hr 0.00 gal/nm 0 msl 0 kts